<?xml version='1.0' encoding='UTF-8'?>
<gpx version="1.1" creator="https://www.komoot.de" xmlns="http://www.topografix.com/GPX/1/1" xmlns:xsi="http://www.w3.org/2001/XMLSchema-instance" xsi:schemaLocation="http://www.topografix.com/GPX/1/1 http://www.topografix.com/GPX/1/1/gpx.xsd">
  <metadata>
    <name>52_570GlashuettenRiburg</name>
    <author>
      <link href="https://www.komoot.de">
        <text>komoot</text>
        <type>text/html</type>
      </link>
    </author>
  </metadata>
  <trk>
    <name>52_570GlashuettenRiburg</name>
    <trkseg>
      <trkpt lat="47.541361" lon="7.870831">
        <ele>341.024837</ele>
        <time>2021-11-13T09:01:17.234Z</time>
      </trkpt>
      <trkpt lat="47.541410" lon="7.870791">
        <ele>341.024837</ele>
        <time>2021-11-13T09:01:18.051Z</time>
      </trkpt>
      <trkpt lat="47.541576" lon="7.870664">
        <ele>341.024837</ele>
        <time>2021-11-13T09:01:22.194Z</time>
      </trkpt>
      <trkpt lat="47.541796" lon="7.871042">
        <ele>341.024837</ele>
        <time>2021-11-13T09:01:29.374Z</time>
      </trkpt>
      <trkpt lat="47.541953" lon="7.871286">
        <ele>341.024837</ele>
        <time>2021-11-13T09:01:34.122Z</time>
      </trkpt>
      <trkpt lat="47.542039" lon="7.871556">
        <ele>341.439179</ele>
        <time>2021-11-13T09:01:38.636Z</time>
      </trkpt>
      <trkpt lat="47.542067" lon="7.871664">
        <ele>341.734811</ele>
        <time>2021-11-13T09:01:40.218Z</time>
      </trkpt>
      <trkpt lat="47.542091" lon="7.871721">
        <ele>341.906476</ele>
        <time>2021-11-13T09:01:40.798Z</time>
      </trkpt>
      <trkpt lat="47.542218" lon="7.871866">
        <ele>342.513443</ele>
        <time>2021-11-13T09:01:46.026Z</time>
      </trkpt>
      <trkpt lat="47.542394" lon="7.872341">
        <ele>343.898054</ele>
        <time>2021-11-13T09:01:56.086Z</time>
      </trkpt>
      <trkpt lat="47.542436" lon="7.872494">
        <ele>344.320110</ele>
        <time>2021-11-13T09:01:59.417Z</time>
      </trkpt>
      <trkpt lat="47.542537" lon="7.872430">
        <ele>344.735948</ele>
        <time>2021-11-13T09:02:01.452Z</time>
      </trkpt>
      <trkpt lat="47.542714" lon="7.872334">
        <ele>345.449464</ele>
        <time>2021-11-13T09:02:08.565Z</time>
      </trkpt>
      <trkpt lat="47.542814" lon="7.872280">
        <ele>345.852373</ele>
        <time>2021-11-13T09:02:11.442Z</time>
      </trkpt>
      <trkpt lat="47.542919" lon="7.872226">
        <ele>346.273114</ele>
        <time>2021-11-13T09:02:15.283Z</time>
      </trkpt>
      <trkpt lat="47.543013" lon="7.872182">
        <ele>346.646285</ele>
        <time>2021-11-13T09:02:18.913Z</time>
      </trkpt>
      <trkpt lat="47.543233" lon="7.872082">
        <ele>347.517401</ele>
        <time>2021-11-13T09:02:26.011Z</time>
      </trkpt>
      <trkpt lat="47.543251" lon="7.872152">
        <ele>347.708810</ele>
        <time>2021-11-13T09:02:29.425Z</time>
      </trkpt>
      <trkpt lat="47.543332" lon="7.872237">
        <ele>348.256744</ele>
        <time>2021-11-13T09:02:32.835Z</time>
      </trkpt>
      <trkpt lat="47.544390" lon="7.872423">
        <ele>355.055464</ele>
        <time>2021-11-13T09:03:14.467Z</time>
      </trkpt>
      <trkpt lat="47.544883" lon="7.872555">
        <ele>358.252381</ele>
        <time>2021-11-13T09:03:36.809Z</time>
      </trkpt>
      <trkpt lat="47.545131" lon="7.872664">
        <ele>359.921055</ele>
        <time>2021-11-13T09:03:47.813Z</time>
      </trkpt>
      <trkpt lat="47.545375" lon="7.872836">
        <ele>361.697630</ele>
        <time>2021-11-13T09:03:58.754Z</time>
      </trkpt>
      <trkpt lat="47.545478" lon="7.872968">
        <ele>362.593044</ele>
        <time>2021-11-13T09:04:05.562Z</time>
      </trkpt>
      <trkpt lat="47.545515" lon="7.873015">
        <ele>362.913488</ele>
        <time>2021-11-13T09:04:07.518Z</time>
      </trkpt>
      <trkpt lat="47.545746" lon="7.873302">
        <ele>364.895633</ele>
        <time>2021-11-13T09:04:20.718Z</time>
      </trkpt>
      <trkpt lat="47.545934" lon="7.873549">
        <ele>366.547719</ele>
        <time>2021-11-13T09:04:30.818Z</time>
      </trkpt>
      <trkpt lat="47.546077" lon="7.873763">
        <ele>367.884093</ele>
        <time>2021-11-13T09:04:40.014Z</time>
      </trkpt>
      <trkpt lat="47.546135" lon="7.873859">
        <ele>368.455865</ele>
        <time>2021-11-13T09:04:43.254Z</time>
      </trkpt>
      <trkpt lat="47.546309" lon="7.874154">
        <ele>370.194449</ele>
        <time>2021-11-13T09:04:54.368Z</time>
      </trkpt>
      <trkpt lat="47.547126" lon="7.875801">
        <ele>375.881080</ele>
        <time>2021-11-13T09:05:40.129Z</time>
      </trkpt>
      <trkpt lat="47.547574" lon="7.876801">
        <ele>377.847783</ele>
        <time>2021-11-13T09:05:59.125Z</time>
      </trkpt>
      <trkpt lat="47.547992" lon="7.877974">
        <ele>377.157052</ele>
        <time>2021-11-13T09:06:11.926Z</time>
      </trkpt>
      <trkpt lat="47.548234" lon="7.878638">
        <ele>376.764097</ele>
        <time>2021-11-13T09:06:17.238Z</time>
      </trkpt>
      <trkpt lat="47.548422" lon="7.878959">
        <ele>376.069466</ele>
        <time>2021-11-13T09:06:20.081Z</time>
      </trkpt>
      <trkpt lat="47.548718" lon="7.879258">
        <ele>374.587788</ele>
        <time>2021-11-13T09:06:23.619Z</time>
      </trkpt>
      <trkpt lat="47.549140" lon="7.879391">
        <ele>372.803408</ele>
        <time>2021-11-13T09:06:27.806Z</time>
      </trkpt>
      <trkpt lat="47.549318" lon="7.879398">
        <ele>372.066968</ele>
        <time>2021-11-13T09:06:29.433Z</time>
      </trkpt>
      <trkpt lat="47.549327" lon="7.879547">
        <ele>371.649370</ele>
        <time>2021-11-13T09:06:30.419Z</time>
      </trkpt>
      <trkpt lat="47.549726" lon="7.880786">
        <ele>367.998189</ele>
        <time>2021-11-13T09:06:39.354Z</time>
      </trkpt>
      <trkpt lat="47.549927" lon="7.881490">
        <ele>366.141194</ele>
        <time>2021-11-13T09:06:44.393Z</time>
      </trkpt>
      <trkpt lat="47.550234" lon="7.883221">
        <ele>361.620015</ele>
        <time>2021-11-13T09:06:56.838Z</time>
      </trkpt>
      <trkpt lat="47.550306" lon="7.884329">
        <ele>358.420332</ele>
        <time>2021-11-13T09:07:04.089Z</time>
      </trkpt>
      <trkpt lat="47.550332" lon="7.884727">
        <ele>357.270932</ele>
        <time>2021-11-13T09:07:06.679Z</time>
      </trkpt>
      <trkpt lat="47.550391" lon="7.885109">
        <ele>356.144489</ele>
        <time>2021-11-13T09:07:09.213Z</time>
      </trkpt>
      <trkpt lat="47.550548" lon="7.885799">
        <ele>353.706662</ele>
        <time>2021-11-13T09:07:13.818Z</time>
      </trkpt>
      <trkpt lat="47.550677" lon="7.886476">
        <ele>351.005693</ele>
        <time>2021-11-13T09:07:18.238Z</time>
      </trkpt>
      <trkpt lat="47.550758" lon="7.887295">
        <ele>347.827539</ele>
        <time>2021-11-13T09:07:23.369Z</time>
      </trkpt>
      <trkpt lat="47.550789" lon="7.887816">
        <ele>345.819389</ele>
        <time>2021-11-13T09:07:26.601Z</time>
      </trkpt>
      <trkpt lat="47.550831" lon="7.888611">
        <ele>342.544652</ele>
        <time>2021-11-13T09:07:31.557Z</time>
      </trkpt>
      <trkpt lat="47.550833" lon="7.889069">
        <ele>340.606799</ele>
        <time>2021-11-13T09:07:34.367Z</time>
      </trkpt>
      <trkpt lat="47.550915" lon="7.890600">
        <ele>334.108729</ele>
        <time>2021-11-13T09:07:43.760Z</time>
      </trkpt>
      <trkpt lat="47.550904" lon="7.891725">
        <ele>330.735151</ele>
        <time>2021-11-13T09:07:50.763Z</time>
      </trkpt>
      <trkpt lat="47.550892" lon="7.893176">
        <ele>326.611893</ele>
        <time>2021-11-13T09:08:00.376Z</time>
      </trkpt>
      <trkpt lat="47.550908" lon="7.894308">
        <ele>325.204725</ele>
        <time>2021-11-13T09:08:09.581Z</time>
      </trkpt>
      <trkpt lat="47.550878" lon="7.895158">
        <ele>324.467272</ele>
        <time>2021-11-13T09:08:16.766Z</time>
      </trkpt>
      <trkpt lat="47.550838" lon="7.895509">
        <ele>324.158858</ele>
        <time>2021-11-13T09:08:19.930Z</time>
      </trkpt>
      <trkpt lat="47.550660" lon="7.896255">
        <ele>323.244406</ele>
        <time>2021-11-13T09:08:26.418Z</time>
      </trkpt>
      <trkpt lat="47.550639" lon="7.896345">
        <ele>323.074684</ele>
        <time>2021-11-13T09:08:27.605Z</time>
      </trkpt>
      <trkpt lat="47.550648" lon="7.896481">
        <ele>322.831128</ele>
        <time>2021-11-13T09:08:28.561Z</time>
      </trkpt>
      <trkpt lat="47.550819" lon="7.898109">
        <ele>319.894617</ele>
        <time>2021-11-13T09:08:40.308Z</time>
      </trkpt>
      <trkpt lat="47.550801" lon="7.900244">
        <ele>314.343881</ele>
        <time>2021-11-13T09:08:54.146Z</time>
      </trkpt>
      <trkpt lat="47.550769" lon="7.901362">
        <ele>311.149658</ele>
        <time>2021-11-13T09:09:01.418Z</time>
      </trkpt>
      <trkpt lat="47.550757" lon="7.901591">
        <ele>310.579460</ele>
        <time>2021-11-13T09:09:03.554Z</time>
      </trkpt>
      <trkpt lat="47.550688" lon="7.902451">
        <ele>308.429500</ele>
        <time>2021-11-13T09:09:11.988Z</time>
      </trkpt>
      <trkpt lat="47.550498" lon="7.903445">
        <ele>305.864865</ele>
        <time>2021-11-13T09:09:22.238Z</time>
      </trkpt>
      <trkpt lat="47.550302" lon="7.904164">
        <ele>303.895861</ele>
        <time>2021-11-13T09:09:29.498Z</time>
      </trkpt>
      <trkpt lat="47.550025" lon="7.904774">
        <ele>301.960327</ele>
        <time>2021-11-13T09:09:36.399Z</time>
      </trkpt>
      <trkpt lat="47.549868" lon="7.905010">
        <ele>301.087957</ele>
        <time>2021-11-13T09:09:39.515Z</time>
      </trkpt>
      <trkpt lat="47.549867" lon="7.905155">
        <ele>300.706204</ele>
        <time>2021-11-13T09:09:40.906Z</time>
      </trkpt>
      <trkpt lat="47.550067" lon="7.905245">
        <ele>299.890912</ele>
        <time>2021-11-13T09:09:43.816Z</time>
      </trkpt>
      <trkpt lat="47.550283" lon="7.905413">
        <ele>298.939366</ele>
        <time>2021-11-13T09:09:47.256Z</time>
      </trkpt>
      <trkpt lat="47.550497" lon="7.905558">
        <ele>298.021510</ele>
        <time>2021-11-13T09:09:50.608Z</time>
      </trkpt>
      <trkpt lat="47.550255" lon="7.906332">
        <ele>296.512926</ele>
        <time>2021-11-13T09:09:56.316Z</time>
      </trkpt>
      <trkpt lat="47.549539" lon="7.908625">
        <ele>292.903325</ele>
        <time>2021-11-13T09:10:15.288Z</time>
      </trkpt>
      <trkpt lat="47.549520" lon="7.908678">
        <ele>292.852192</ele>
        <time>2021-11-13T09:10:15.802Z</time>
      </trkpt>
      <trkpt lat="47.549382" lon="7.909137">
        <ele>292.424056</ele>
        <time>2021-11-13T09:10:19.968Z</time>
      </trkpt>
      <trkpt lat="47.549195" lon="7.909756">
        <ele>291.846215</ele>
        <time>2021-11-13T09:10:25.564Z</time>
      </trkpt>
      <trkpt lat="47.549102" lon="7.910058">
        <ele>291.563378</ele>
        <time>2021-11-13T09:10:28.278Z</time>
      </trkpt>
      <trkpt lat="47.549012" lon="7.910340">
        <ele>291.297591</ele>
        <time>2021-11-13T09:10:30.804Z</time>
      </trkpt>
      <trkpt lat="47.548412" lon="7.912168">
        <ele>289.790657</ele>
        <time>2021-11-13T09:10:47.164Z</time>
      </trkpt>
      <trkpt lat="47.548027" lon="7.913334">
        <ele>289.078615</ele>
        <time>2021-11-13T09:10:57.925Z</time>
      </trkpt>
      <trkpt lat="47.547994" lon="7.913433">
        <ele>289.054332</ele>
        <time>2021-11-13T09:10:58.846Z</time>
      </trkpt>
      <trkpt lat="47.547423" lon="7.915080">
        <ele>288.647126</ele>
        <time>2021-11-13T09:11:16.334Z</time>
      </trkpt>
      <trkpt lat="47.547113" lon="7.915971">
        <ele>288.846505</ele>
        <time>2021-11-13T09:11:26.972Z</time>
      </trkpt>
      <trkpt lat="47.547091" lon="7.916039">
        <ele>288.871604</ele>
        <time>2021-11-13T09:11:28.022Z</time>
      </trkpt>
      <trkpt lat="47.547032" lon="7.916218">
        <ele>288.937906</ele>
        <time>2021-11-13T09:11:30.293Z</time>
      </trkpt>
      <trkpt lat="47.546821" lon="7.916867">
        <ele>289.177674</ele>
        <time>2021-11-13T09:11:38.708Z</time>
      </trkpt>
      <trkpt lat="47.546262" lon="7.919081">
        <ele>289.811776</ele>
        <time>2021-11-13T09:12:06.369Z</time>
      </trkpt>
      <trkpt lat="47.546128" lon="7.919617">
        <ele>289.941986</ele>
        <time>2021-11-13T09:12:11.797Z</time>
      </trkpt>
      <trkpt lat="47.545973" lon="7.920313">
        <ele>290.157220</ele>
        <time>2021-11-13T09:12:19.217Z</time>
      </trkpt>
      <trkpt lat="47.545913" lon="7.920765">
        <ele>290.500262</ele>
        <time>2021-11-13T09:12:23.975Z</time>
      </trkpt>
      <trkpt lat="47.545881" lon="7.921096">
        <ele>290.749266</ele>
        <time>2021-11-13T09:12:27.941Z</time>
      </trkpt>
      <trkpt lat="47.545810" lon="7.921755">
        <ele>291.246221</ele>
        <time>2021-11-13T09:12:36.551Z</time>
      </trkpt>
      <trkpt lat="47.545778" lon="7.921947">
        <ele>291.393494</ele>
        <time>2021-11-13T09:12:39.505Z</time>
      </trkpt>
      <trkpt lat="47.545714" lon="7.922249">
        <ele>291.629211</ele>
        <time>2021-11-13T09:12:43.359Z</time>
      </trkpt>
      <trkpt lat="47.545699" lon="7.922325">
        <ele>291.688177</ele>
        <time>2021-11-13T09:12:44.556Z</time>
      </trkpt>
      <trkpt lat="47.545690" lon="7.922369">
        <ele>291.722414</ele>
        <time>2021-11-13T09:12:45.627Z</time>
      </trkpt>
      <trkpt lat="47.545641" lon="7.922610">
        <ele>291.909847</ele>
        <time>2021-11-13T09:12:48.983Z</time>
      </trkpt>
      <trkpt lat="47.545587" lon="7.922895">
        <ele>292.259467</ele>
        <time>2021-11-13T09:12:53.815Z</time>
      </trkpt>
      <trkpt lat="47.545553" lon="7.923142">
        <ele>292.863165</ele>
        <time>2021-11-13T09:12:57.425Z</time>
      </trkpt>
      <trkpt lat="47.545536" lon="7.923407">
        <ele>293.500656</ele>
        <time>2021-11-13T09:13:02.301Z</time>
      </trkpt>
      <trkpt lat="47.545521" lon="7.923709">
        <ele>294.225851</ele>
        <time>2021-11-13T09:13:07.468Z</time>
      </trkpt>
      <trkpt lat="47.545481" lon="7.924396">
        <ele>295.877212</ele>
        <time>2021-11-13T09:13:22.071Z</time>
      </trkpt>
      <trkpt lat="47.545466" lon="7.924880">
        <ele>297.037534</ele>
        <time>2021-11-13T09:13:33.378Z</time>
      </trkpt>
      <trkpt lat="47.545446" lon="7.925350">
        <ele>298.165341</ele>
        <time>2021-11-13T09:13:43.753Z</time>
      </trkpt>
      <trkpt lat="47.545417" lon="7.925848">
        <ele>299.074760</ele>
        <time>2021-11-13T09:13:54.232Z</time>
      </trkpt>
      <trkpt lat="47.545409" lon="7.926773">
        <ele>300.589166</ele>
        <time>2021-11-13T09:14:11.433Z</time>
      </trkpt>
      <trkpt lat="47.545407" lon="7.927001">
        <ele>300.962447</ele>
        <time>2021-11-13T09:14:15.242Z</time>
      </trkpt>
      <trkpt lat="47.545406" lon="7.927306">
        <ele>301.461757</ele>
        <time>2021-11-13T09:14:19.846Z</time>
      </trkpt>
      <trkpt lat="47.545421" lon="7.927686">
        <ele>302.084903</ele>
        <time>2021-11-13T09:14:25.382Z</time>
      </trkpt>
      <trkpt lat="47.545475" lon="7.928419">
        <ele>302.561448</ele>
        <time>2021-11-13T09:14:34.699Z</time>
      </trkpt>
      <trkpt lat="47.545563" lon="7.929641">
        <ele>301.488626</ele>
        <time>2021-11-13T09:14:44.579Z</time>
      </trkpt>
      <trkpt lat="47.545661" lon="7.930955">
        <ele>300.331095</ele>
        <time>2021-11-13T09:14:53.975Z</time>
      </trkpt>
      <trkpt lat="47.545696" lon="7.931497">
        <ele>299.845131</ele>
        <time>2021-11-13T09:14:57.943Z</time>
      </trkpt>
      <trkpt lat="47.545721" lon="7.931992">
        <ele>299.402090</ele>
        <time>2021-11-13T09:15:01.736Z</time>
      </trkpt>
      <trkpt lat="47.545724" lon="7.932758">
        <ele>298.718395</ele>
        <time>2021-11-13T09:15:07.945Z</time>
      </trkpt>
      <trkpt lat="47.545702" lon="7.933290">
        <ele>298.242675</ele>
        <time>2021-11-13T09:15:12.588Z</time>
      </trkpt>
      <trkpt lat="47.545674" lon="7.933625">
        <ele>298.221447</ele>
        <time>2021-11-13T09:15:15.788Z</time>
      </trkpt>
      <trkpt lat="47.545457" lon="7.935110">
        <ele>299.103495</ele>
        <time>2021-11-13T09:15:33.923Z</time>
      </trkpt>
      <trkpt lat="47.545074" lon="7.936484">
        <ele>300.275335</ele>
        <time>2021-11-13T09:15:55.451Z</time>
      </trkpt>
      <trkpt lat="47.544903" lon="7.936917">
        <ele>300.858127</ele>
        <time>2021-11-13T09:16:02.767Z</time>
      </trkpt>
      <trkpt lat="47.544705" lon="7.937395">
        <ele>301.509652</ele>
        <time>2021-11-13T09:16:10.951Z</time>
      </trkpt>
      <trkpt lat="47.544472" lon="7.937932">
        <ele>302.251266</ele>
        <time>2021-11-13T09:16:20.289Z</time>
      </trkpt>
      <trkpt lat="47.543826" lon="7.939433">
        <ele>304.301570</ele>
        <time>2021-11-13T09:16:47.006Z</time>
      </trkpt>
      <trkpt lat="47.543558" lon="7.940280">
        <ele>305.375995</ele>
        <time>2021-11-13T09:17:00.771Z</time>
      </trkpt>
      <trkpt lat="47.543435" lon="7.940670">
        <ele>305.834412</ele>
        <time>2021-11-13T09:17:06.977Z</time>
      </trkpt>
      <trkpt lat="47.543161" lon="7.942213">
        <ele>306.498013</ele>
        <time>2021-11-13T09:17:27.885Z</time>
      </trkpt>
      <trkpt lat="47.543007" lon="7.943867">
        <ele>306.201588</ele>
        <time>2021-11-13T09:17:43.553Z</time>
      </trkpt>
      <trkpt lat="47.542913" lon="7.945267">
        <ele>304.641320</ele>
        <time>2021-11-13T09:17:54.313Z</time>
      </trkpt>
      <trkpt lat="47.542872" lon="7.945781">
        <ele>304.067325</ele>
        <time>2021-11-13T09:17:57.909Z</time>
      </trkpt>
      <trkpt lat="47.542875" lon="7.946089">
        <ele>303.612045</ele>
        <time>2021-11-13T09:18:00.000Z</time>
      </trkpt>
      <trkpt lat="47.542902" lon="7.946514">
        <ele>302.915839</ele>
        <time>2021-11-13T09:18:02.879Z</time>
      </trkpt>
      <trkpt lat="47.542943" lon="7.946806">
        <ele>302.429416</ele>
        <time>2021-11-13T09:18:04.926Z</time>
      </trkpt>
      <trkpt lat="47.542974" lon="7.946965">
        <ele>302.159500</ele>
        <time>2021-11-13T09:18:06.136Z</time>
      </trkpt>
      <trkpt lat="47.542979" lon="7.946989">
        <ele>302.118536</ele>
        <time>2021-11-13T09:18:06.292Z</time>
      </trkpt>
      <trkpt lat="47.543007" lon="7.947104">
        <ele>301.919152</ele>
        <time>2021-11-13T09:18:07.140Z</time>
      </trkpt>
      <trkpt lat="47.543087" lon="7.947317">
        <ele>301.521615</ele>
        <time>2021-11-13T09:18:08.883Z</time>
      </trkpt>
      <trkpt lat="47.543191" lon="7.947615">
        <ele>300.974491</ele>
        <time>2021-11-13T09:18:11.324Z</time>
      </trkpt>
      <trkpt lat="47.543242" lon="7.947745">
        <ele>300.729267</ele>
        <time>2021-11-13T09:18:12.454Z</time>
      </trkpt>
      <trkpt lat="47.543273" lon="7.947816">
        <ele>300.591361</ele>
        <time>2021-11-13T09:18:13.081Z</time>
      </trkpt>
      <trkpt lat="47.543358" lon="7.947967">
        <ele>300.270701</ele>
        <time>2021-11-13T09:18:14.524Z</time>
      </trkpt>
      <trkpt lat="47.543455" lon="7.948127">
        <ele>299.919966</ele>
        <time>2021-11-13T09:18:16.191Z</time>
      </trkpt>
      <trkpt lat="47.543532" lon="7.948214">
        <ele>299.685996</ele>
        <time>2021-11-13T09:18:17.272Z</time>
      </trkpt>
      <trkpt lat="47.543579" lon="7.948287">
        <ele>299.608315</ele>
        <time>2021-11-13T09:18:18.035Z</time>
      </trkpt>
      <trkpt lat="47.543760" lon="7.948548">
        <ele>299.527144</ele>
        <time>2021-11-13T09:18:20.924Z</time>
      </trkpt>
      <trkpt lat="47.543864" lon="7.948694">
        <ele>299.481101</ele>
        <time>2021-11-13T09:18:22.596Z</time>
      </trkpt>
      <trkpt lat="47.544239" lon="7.949202">
        <ele>299.317805</ele>
        <time>2021-11-13T09:18:29.957Z</time>
      </trkpt>
      <trkpt lat="47.544521" lon="7.949558">
        <ele>299.198742</ele>
        <time>2021-11-13T09:18:36.130Z</time>
      </trkpt>
      <trkpt lat="47.544901" lon="7.950044">
        <ele>299.008441</ele>
        <time>2021-11-13T09:18:44.930Z</time>
      </trkpt>
      <trkpt lat="47.545166" lon="7.950366">
        <ele>298.385093</ele>
        <time>2021-11-13T09:18:50.172Z</time>
      </trkpt>
      <trkpt lat="47.545434" lon="7.950668">
        <ele>297.772687</ele>
        <time>2021-11-13T09:18:54.412Z</time>
      </trkpt>
      <trkpt lat="47.545542" lon="7.950842">
        <ele>297.482492</ele>
        <time>2021-11-13T09:18:56.191Z</time>
      </trkpt>
      <trkpt lat="47.545667" lon="7.950979">
        <ele>297.199698</ele>
        <time>2021-11-13T09:18:57.961Z</time>
      </trkpt>
      <trkpt lat="47.545737" lon="7.951055">
        <ele>297.041857</ele>
        <time>2021-11-13T09:18:58.891Z</time>
      </trkpt>
      <trkpt lat="47.545759" lon="7.950982">
        <ele>296.943712</ele>
        <time>2021-11-13T09:18:59.457Z</time>
      </trkpt>
      <trkpt lat="47.545852" lon="7.950808">
        <ele>296.671243</ele>
        <time>2021-11-13T09:19:01.030Z</time>
      </trkpt>
      <trkpt lat="47.545858" lon="7.950769">
        <ele>296.622136</ele>
        <time>2021-11-13T09:19:01.309Z</time>
      </trkpt>
      <trkpt lat="47.545875" lon="7.950668">
        <ele>296.494347</ele>
        <time>2021-11-13T09:19:02.053Z</time>
      </trkpt>
      <trkpt lat="47.545948" lon="7.950297">
        <ele>296.019931</ele>
        <time>2021-11-13T09:19:04.652Z</time>
      </trkpt>
      <trkpt lat="47.545949" lon="7.950185">
        <ele>295.882422</ele>
        <time>2021-11-13T09:19:05.411Z</time>
      </trkpt>
      <trkpt lat="47.546159" lon="7.949303">
        <ele>293.679395</ele>
        <time>2021-11-13T09:19:11.434Z</time>
      </trkpt>
      <trkpt lat="47.546572" lon="7.947545">
        <ele>289.142237</ele>
        <time>2021-11-13T09:19:23.846Z</time>
      </trkpt>
      <trkpt lat="47.546664" lon="7.947227">
        <ele>288.857927</ele>
        <time>2021-11-13T09:19:26.358Z</time>
      </trkpt>
      <trkpt lat="47.546749" lon="7.946929">
        <ele>288.592077</ele>
        <time>2021-11-13T09:19:28.744Z</time>
      </trkpt>
      <trkpt lat="47.546772" lon="7.946847">
        <ele>288.519107</ele>
        <time>2021-11-13T09:19:29.419Z</time>
      </trkpt>
      <trkpt lat="47.546862" lon="7.946764">
        <ele>288.390044</ele>
        <time>2021-11-13T09:19:30.641Z</time>
      </trkpt>
      <trkpt lat="47.547155" lon="7.946243">
        <ele>287.832785</ele>
        <time>2021-11-13T09:19:36.099Z</time>
      </trkpt>
      <trkpt lat="47.547414" lon="7.945191">
        <ele>286.967276</ele>
        <time>2021-11-13T09:19:47.674Z</time>
      </trkpt>
      <trkpt lat="47.547381" lon="7.944781">
        <ele>286.876252</ele>
        <time>2021-11-13T09:19:52.152Z</time>
      </trkpt>
      <trkpt lat="47.547366" lon="7.944720">
        <ele>286.861940</ele>
        <time>2021-11-13T09:19:52.720Z</time>
      </trkpt>
      <trkpt lat="47.547336" lon="7.944590">
        <ele>286.831653</ele>
        <time>2021-11-13T09:19:53.913Z</time>
      </trkpt>
      <trkpt lat="47.547318" lon="7.944515">
        <ele>286.814105</ele>
        <time>2021-11-13T09:19:54.611Z</time>
      </trkpt>
      <trkpt lat="47.547344" lon="7.944382">
        <ele>286.783581</ele>
        <time>2021-11-13T09:19:55.987Z</time>
      </trkpt>
      <trkpt lat="47.547354" lon="7.944331">
        <ele>286.771873</ele>
        <time>2021-11-13T09:19:56.518Z</time>
      </trkpt>
      <trkpt lat="47.547734" lon="7.942722">
        <ele>286.390545</ele>
        <time>2021-11-13T09:20:11.837Z</time>
      </trkpt>
      <trkpt lat="47.547790" lon="7.942490">
        <ele>286.256962</ele>
        <time>2021-11-13T09:20:13.872Z</time>
      </trkpt>
      <trkpt lat="47.548087" lon="7.941446">
        <ele>285.642724</ele>
        <time>2021-11-13T09:20:23.920Z</time>
      </trkpt>
      <trkpt lat="47.548484" lon="7.940313">
        <ele>284.950985</ele>
        <time>2021-11-13T09:20:34.250Z</time>
      </trkpt>
      <trkpt lat="47.548550" lon="7.940126">
        <ele>284.845831</ele>
        <time>2021-11-13T09:20:35.993Z</time>
      </trkpt>
      <trkpt lat="47.548587" lon="7.940118">
        <ele>284.818225</ele>
        <time>2021-11-13T09:20:36.481Z</time>
      </trkpt>
      <trkpt lat="47.548632" lon="7.940087">
        <ele>284.781587</ele>
        <time>2021-11-13T09:20:37.121Z</time>
      </trkpt>
      <trkpt lat="47.548653" lon="7.940052">
        <ele>284.758252</ele>
        <time>2021-11-13T09:20:37.526Z</time>
      </trkpt>
      <trkpt lat="47.548676" lon="7.939951">
        <ele>284.705135</ele>
        <time>2021-11-13T09:20:38.407Z</time>
      </trkpt>
      <trkpt lat="47.548673" lon="7.939890">
        <ele>284.674658</ele>
        <time>2021-11-13T09:20:38.938Z</time>
      </trkpt>
      <trkpt lat="47.548643" lon="7.939810">
        <ele>284.629054</ele>
        <time>2021-11-13T09:20:39.707Z</time>
      </trkpt>
      <trkpt lat="47.548614" lon="7.939778">
        <ele>284.602358</ele>
        <time>2021-11-13T09:20:40.141Z</time>
      </trkpt>
      <trkpt lat="47.548563" lon="7.939753">
        <ele>284.562699</ele>
        <time>2021-11-13T09:20:40.810Z</time>
      </trkpt>
      <trkpt lat="47.548509" lon="7.939765">
        <ele>284.522386</ele>
        <time>2021-11-13T09:20:41.526Z</time>
      </trkpt>
      <trkpt lat="47.548230" lon="7.939581">
        <ele>284.296922</ele>
        <time>2021-11-13T09:20:45.354Z</time>
      </trkpt>
      <trkpt lat="47.548150" lon="7.939478">
        <ele>284.218675</ele>
        <time>2021-11-13T09:20:46.755Z</time>
      </trkpt>
      <trkpt lat="47.548129" lon="7.939460">
        <ele>284.200763</ele>
        <time>2021-11-13T09:20:47.052Z</time>
      </trkpt>
      <trkpt lat="47.548085" lon="7.939422">
        <ele>284.163163</ele>
        <time>2021-11-13T09:20:47.695Z</time>
      </trkpt>
      <trkpt lat="47.547928" lon="7.939274">
        <ele>284.025780</ele>
        <time>2021-11-13T09:20:50.077Z</time>
      </trkpt>
      <trkpt lat="47.547474" lon="7.938844">
        <ele>283.627964</ele>
        <time>2021-11-13T09:20:57.347Z</time>
      </trkpt>
      <trkpt lat="47.547174" lon="7.938475">
        <ele>283.596611</ele>
        <time>2021-11-13T09:21:02.410Z</time>
      </trkpt>
      <trkpt lat="47.547115" lon="7.938377">
        <ele>283.589627</ele>
        <time>2021-11-13T09:21:03.582Z</time>
      </trkpt>
      <trkpt lat="47.547044" lon="7.938237">
        <ele>283.580313</ele>
        <time>2021-11-13T09:21:05.265Z</time>
      </trkpt>
      <trkpt lat="47.546969" lon="7.938023">
        <ele>283.567488</ele>
        <time>2021-11-13T09:21:07.667Z</time>
      </trkpt>
      <trkpt lat="47.546915" lon="7.937800">
        <ele>283.554887</ele>
        <time>2021-11-13T09:21:10.050Z</time>
      </trkpt>
      <trkpt lat="47.546890" lon="7.937602">
        <ele>283.544173</ele>
        <time>2021-11-13T09:21:12.234Z</time>
      </trkpt>
      <trkpt lat="47.546895" lon="7.937196">
        <ele>283.522575</ele>
        <time>2021-11-13T09:21:16.317Z</time>
      </trkpt>
      <trkpt lat="47.547020" lon="7.936617">
        <ele>283.490243</ele>
        <time>2021-11-13T09:21:22.633Z</time>
      </trkpt>
      <trkpt lat="47.547523" lon="7.935115">
        <ele>283.907214</ele>
        <time>2021-11-13T09:21:40.725Z</time>
      </trkpt>
      <trkpt lat="47.547539" lon="7.935068">
        <ele>283.921191</ele>
        <time>2021-11-13T09:21:41.291Z</time>
      </trkpt>
      <trkpt lat="47.547663" lon="7.934665">
        <ele>284.038790</ele>
        <time>2021-11-13T09:21:46.244Z</time>
      </trkpt>
      <trkpt lat="47.547956" lon="7.933604">
        <ele>284.470796</ele>
        <time>2021-11-13T09:21:59.594Z</time>
      </trkpt>
      <trkpt lat="47.548144" lon="7.932614">
        <ele>284.976052</ele>
        <time>2021-11-13T09:22:12.520Z</time>
      </trkpt>
      <trkpt lat="47.548252" lon="7.930989">
        <ele>285.832643</ele>
        <time>2021-11-13T09:22:32.018Z</time>
      </trkpt>
      <trkpt lat="47.548241" lon="7.930335">
        <ele>286.217382</ele>
        <time>2021-11-13T09:22:39.217Z</time>
      </trkpt>
      <trkpt lat="47.548236" lon="7.930144">
        <ele>286.329794</ele>
        <time>2021-11-13T09:22:41.196Z</time>
      </trkpt>
      <trkpt lat="47.548226" lon="7.929841">
        <ele>286.508202</ele>
        <time>2021-11-13T09:22:45.183Z</time>
      </trkpt>
      <trkpt lat="47.548192" lon="7.928866">
        <ele>287.097125</ele>
        <time>2021-11-13T09:22:57.818Z</time>
      </trkpt>
      <trkpt lat="47.548186" lon="7.928343">
        <ele>287.755055</ele>
        <time>2021-11-13T09:23:05.323Z</time>
      </trkpt>
      <trkpt lat="47.548228" lon="7.928033">
        <ele>288.152753</ele>
        <time>2021-11-13T09:23:09.394Z</time>
      </trkpt>
      <trkpt lat="47.548275" lon="7.927880">
        <ele>288.364191</ele>
        <time>2021-11-13T09:23:11.715Z</time>
      </trkpt>
      <trkpt lat="47.548298" lon="7.927820">
        <ele>288.450981</ele>
        <time>2021-11-13T09:23:13.453Z</time>
      </trkpt>
      <trkpt lat="47.548402" lon="7.927688">
        <ele>288.706180</ele>
        <time>2021-11-13T09:23:16.215Z</time>
      </trkpt>
      <trkpt lat="47.548534" lon="7.927518">
        <ele>289.032108</ele>
        <time>2021-11-13T09:23:19.845Z</time>
      </trkpt>
      <trkpt lat="47.548777" lon="7.927430">
        <ele>289.498271</ele>
        <time>2021-11-13T09:23:25.848Z</time>
      </trkpt>
      <trkpt lat="47.548912" lon="7.927437">
        <ele>289.749998</ele>
        <time>2021-11-13T09:23:29.474Z</time>
      </trkpt>
      <trkpt lat="47.549059" lon="7.927444">
        <ele>290.024075</ele>
        <time>2021-11-13T09:23:33.136Z</time>
      </trkpt>
      <trkpt lat="47.549697" lon="7.927581">
        <ele>291.031047</ele>
        <time>2021-11-13T09:23:48.752Z</time>
      </trkpt>
      <trkpt lat="47.550041" lon="7.927651">
        <ele>291.521728</ele>
        <time>2021-11-13T09:23:56.311Z</time>
      </trkpt>
      <trkpt lat="47.550381" lon="7.927709">
        <ele>292.005367</ele>
        <time>2021-11-13T09:24:03.457Z</time>
      </trkpt>
      <trkpt lat="47.550481" lon="7.927724">
        <ele>292.147403</ele>
        <time>2021-11-13T09:24:05.396Z</time>
      </trkpt>
      <trkpt lat="47.550669" lon="7.927757">
        <ele>292.414929</ele>
        <time>2021-11-13T09:24:08.614Z</time>
      </trkpt>
      <trkpt lat="47.551076" lon="7.927850">
        <ele>292.971308</ele>
        <time>2021-11-13T09:24:15.593Z</time>
      </trkpt>
      <trkpt lat="47.551163" lon="7.927871">
        <ele>293.002118</ele>
        <time>2021-11-13T09:24:16.987Z</time>
      </trkpt>
      <trkpt lat="47.551192" lon="7.927575">
        <ele>293.072677</ele>
        <time>2021-11-13T09:24:20.348Z</time>
      </trkpt>
      <trkpt lat="47.551183" lon="7.927256">
        <ele>293.147997</ele>
        <time>2021-11-13T09:24:23.862Z</time>
      </trkpt>
      <trkpt lat="47.551209" lon="7.927048">
        <ele>293.197900</ele>
        <time>2021-11-13T09:24:26.130Z</time>
      </trkpt>
      <trkpt lat="47.551236" lon="7.926890">
        <ele>293.236349</ele>
        <time>2021-11-13T09:24:28.000Z</time>
      </trkpt>
      <trkpt lat="47.551262" lon="7.926787">
        <ele>293.262291</ele>
        <time>2021-11-13T09:24:29.100Z</time>
      </trkpt>
      <trkpt lat="47.551300" lon="7.926708">
        <ele>293.285176</ele>
        <time>2021-11-13T09:24:30.104Z</time>
      </trkpt>
      <trkpt lat="47.551345" lon="7.926636">
        <ele>293.308325</ele>
        <time>2021-11-13T09:24:31.115Z</time>
      </trkpt>
      <trkpt lat="47.551423" lon="7.926561">
        <ele>293.340826</ele>
        <time>2021-11-13T09:24:32.738Z</time>
      </trkpt>
      <trkpt lat="47.551676" lon="7.926477">
        <ele>293.431449</ele>
        <time>2021-11-13T09:24:36.671Z</time>
      </trkpt>
      <trkpt lat="47.551788" lon="7.926512">
        <ele>293.471457</ele>
        <time>2021-11-13T09:24:38.674Z</time>
      </trkpt>
      <trkpt lat="47.552250" lon="7.926787">
        <ele>293.639583</ele>
        <time>2021-11-13T09:24:46.429Z</time>
      </trkpt>
      <trkpt lat="47.552388" lon="7.926860">
        <ele>293.685195</ele>
        <time>2021-11-13T09:24:48.858Z</time>
      </trkpt>
      <trkpt lat="47.552729" lon="7.927061">
        <ele>293.799432</ele>
        <time>2021-11-13T09:24:54.891Z</time>
      </trkpt>
      <trkpt lat="47.552928" lon="7.927209">
        <ele>293.868741</ele>
        <time>2021-11-13T09:24:58.544Z</time>
      </trkpt>
      <trkpt lat="47.553166" lon="7.927389">
        <ele>293.951918</ele>
        <time>2021-11-13T09:25:03.126Z</time>
      </trkpt>
      <trkpt lat="47.553221" lon="7.927438">
        <ele>293.971895</ele>
        <time>2021-11-13T09:25:04.081Z</time>
      </trkpt>
      <trkpt lat="47.553257" lon="7.927322">
        <ele>293.998718</ele>
        <time>2021-11-13T09:25:05.529Z</time>
      </trkpt>
      <trkpt lat="47.553294" lon="7.927186">
        <ele>294.029523</ele>
        <time>2021-11-13T09:25:07.167Z</time>
      </trkpt>
      <trkpt lat="47.553381" lon="7.926895">
        <ele>294.096387</ele>
        <time>2021-11-13T09:25:10.500Z</time>
      </trkpt>
      <trkpt lat="47.553408" lon="7.926803">
        <ele>294.117463</ele>
        <time>2021-11-13T09:25:11.615Z</time>
      </trkpt>
      <trkpt lat="47.553539" lon="7.926451">
        <ele>294.143130</ele>
        <time>2021-11-13T09:25:15.743Z</time>
      </trkpt>
      <trkpt lat="47.553834" lon="7.925632">
        <ele>294.110951</ele>
        <time>2021-11-13T09:25:24.882Z</time>
      </trkpt>
      <trkpt lat="47.554226" lon="7.924713">
        <ele>294.073267</ele>
        <time>2021-11-13T09:25:35.400Z</time>
      </trkpt>
      <trkpt lat="47.554705" lon="7.923835">
        <ele>293.974110</ele>
        <time>2021-11-13T09:25:46.225Z</time>
      </trkpt>
      <trkpt lat="47.555272" lon="7.922934">
        <ele>293.828652</ele>
        <time>2021-11-13T09:25:57.832Z</time>
      </trkpt>
      <trkpt lat="47.556542" lon="7.921551">
        <ele>293.643727</ele>
        <time>2021-11-13T09:26:20.545Z</time>
      </trkpt>
      <trkpt lat="47.557147" lon="7.921064">
        <ele>293.580401</ele>
        <time>2021-11-13T09:26:30.709Z</time>
      </trkpt>
      <trkpt lat="47.558098" lon="7.920440">
        <ele>293.293282</ele>
        <time>2021-11-13T09:26:45.898Z</time>
      </trkpt>
      <trkpt lat="47.561244" lon="7.918902">
        <ele>291.255190</ele>
        <time>2021-11-13T09:27:29.340Z</time>
      </trkpt>
      <trkpt lat="47.561405" lon="7.918835">
        <ele>291.065793</ele>
        <time>2021-11-13T09:27:31.251Z</time>
      </trkpt>
      <trkpt lat="47.561792" lon="7.918633">
        <ele>290.601095</ele>
        <time>2021-11-13T09:27:35.937Z</time>
      </trkpt>
      <trkpt lat="47.562098" lon="7.918473">
        <ele>290.233589</ele>
        <time>2021-11-13T09:27:39.672Z</time>
      </trkpt>
      <trkpt lat="47.562192" lon="7.918413">
        <ele>290.117672</ele>
        <time>2021-11-13T09:27:40.828Z</time>
      </trkpt>
      <trkpt lat="47.562330" lon="7.918325">
        <ele>289.967627</ele>
        <time>2021-11-13T09:27:42.583Z</time>
      </trkpt>
      <trkpt lat="47.562491" lon="7.918206">
        <ele>289.801593</ele>
        <time>2021-11-13T09:27:44.622Z</time>
      </trkpt>
      <trkpt lat="47.562766" lon="7.918001">
        <ele>289.517508</ele>
        <time>2021-11-13T09:27:48.205Z</time>
      </trkpt>
      <trkpt lat="47.562783" lon="7.917983">
        <ele>289.498227</ele>
        <time>2021-11-13T09:27:48.424Z</time>
      </trkpt>
      <trkpt lat="47.563304" lon="7.917434">
        <ele>288.908265</ele>
        <time>2021-11-13T09:27:56.168Z</time>
      </trkpt>
      <trkpt lat="47.563485" lon="7.917258">
        <ele>288.708482</ele>
        <time>2021-11-13T09:27:59.022Z</time>
      </trkpt>
      <trkpt lat="47.564482" lon="7.916219">
        <ele>288.511217</ele>
        <time>2021-11-13T09:28:17.403Z</time>
      </trkpt>
      <trkpt lat="47.564500" lon="7.916200">
        <ele>288.514104</ele>
        <time>2021-11-13T09:28:17.758Z</time>
      </trkpt>
      <trkpt lat="47.564526" lon="7.916174">
        <ele>288.518201</ele>
        <time>2021-11-13T09:28:18.245Z</time>
      </trkpt>
      <trkpt lat="47.564899" lon="7.915798">
        <ele>288.577125</ele>
        <time>2021-11-13T09:28:25.438Z</time>
      </trkpt>
      <trkpt lat="47.565627" lon="7.915066">
        <ele>288.635239</ele>
        <time>2021-11-13T09:28:39.330Z</time>
      </trkpt>
      <trkpt lat="47.565672" lon="7.915025">
        <ele>288.635702</ele>
        <time>2021-11-13T09:28:40.167Z</time>
      </trkpt>
      <trkpt lat="47.565748" lon="7.914949">
        <ele>288.636506</ele>
        <time>2021-11-13T09:28:41.623Z</time>
      </trkpt>
      <trkpt lat="47.565830" lon="7.914880">
        <ele>288.637332</ele>
        <time>2021-11-13T09:28:43.130Z</time>
      </trkpt>
      <trkpt lat="47.565995" lon="7.914739">
        <ele>288.639002</ele>
        <time>2021-11-13T09:28:46.055Z</time>
      </trkpt>
      <trkpt lat="47.566025" lon="7.914720">
        <ele>288.639288</ele>
        <time>2021-11-13T09:28:46.484Z</time>
      </trkpt>
      <trkpt lat="47.566096" lon="7.914676">
        <ele>288.639962</ele>
        <time>2021-11-13T09:28:47.666Z</time>
      </trkpt>
      <trkpt lat="47.566250" lon="7.914580">
        <ele>288.641427</ele>
        <time>2021-11-13T09:28:50.186Z</time>
      </trkpt>
      <trkpt lat="47.566474" lon="7.914468">
        <ele>288.643499</ele>
        <time>2021-11-13T09:28:53.498Z</time>
      </trkpt>
      <trkpt lat="47.566489" lon="7.914461">
        <ele>288.643637</ele>
        <time>2021-11-13T09:28:53.737Z</time>
      </trkpt>
      <trkpt lat="47.566534" lon="7.914439">
        <ele>288.644052</ele>
        <time>2021-11-13T09:28:54.413Z</time>
      </trkpt>
      <trkpt lat="47.566601" lon="7.914411">
        <ele>288.644662</ele>
        <time>2021-11-13T09:28:55.429Z</time>
      </trkpt>
      <trkpt lat="47.566984" lon="7.914229">
        <ele>288.579118</ele>
        <time>2021-11-13T09:29:00.963Z</time>
      </trkpt>
      <trkpt lat="47.567335" lon="7.914048">
        <ele>288.405002</ele>
        <time>2021-11-13T09:29:05.893Z</time>
      </trkpt>
      <trkpt lat="47.567374" lon="7.914028">
        <ele>288.385668</ele>
        <time>2021-11-13T09:29:06.372Z</time>
      </trkpt>
      <trkpt lat="47.568301" lon="7.913554">
        <ele>287.926241</ele>
        <time>2021-11-13T09:29:19.374Z</time>
      </trkpt>
      <trkpt lat="47.568566" lon="7.913414">
        <ele>287.802294</ele>
        <time>2021-11-13T09:29:23.081Z</time>
      </trkpt>
      <trkpt lat="47.569155" lon="7.913298">
        <ele>287.747007</ele>
        <time>2021-11-13T09:29:31.120Z</time>
      </trkpt>
      <trkpt lat="47.569682" lon="7.913220">
        <ele>287.697727</ele>
        <time>2021-11-13T09:29:38.691Z</time>
      </trkpt>
      <trkpt lat="47.571638" lon="7.913041">
        <ele>287.736839</ele>
        <time>2021-11-13T09:30:09.267Z</time>
      </trkpt>
      <trkpt lat="47.571807" lon="7.913030">
        <ele>287.749788</ele>
        <time>2021-11-13T09:30:11.918Z</time>
      </trkpt>
      <trkpt lat="47.571801" lon="7.912878">
        <ele>287.757651</ele>
        <time>2021-11-13T09:30:13.436Z</time>
      </trkpt>
      <trkpt lat="47.571815" lon="7.912822">
        <ele>287.760736</ele>
        <time>2021-11-13T09:30:14.024Z</time>
      </trkpt>
      <trkpt lat="47.571842" lon="7.912780">
        <ele>287.763732</ele>
        <time>2021-11-13T09:30:14.506Z</time>
      </trkpt>
      <trkpt lat="47.572195" lon="7.912650">
        <ele>287.652472</ele>
        <time>2021-11-13T09:30:19.674Z</time>
      </trkpt>
      <trkpt lat="47.572843" lon="7.912399">
        <ele>287.284491</ele>
        <time>2021-11-13T09:30:28.727Z</time>
      </trkpt>
      <trkpt lat="47.572921" lon="7.912369">
        <ele>287.240217</ele>
        <time>2021-11-13T09:30:29.684Z</time>
      </trkpt>
      <trkpt lat="47.573759" lon="7.912034">
        <ele>286.760303</ele>
        <time>2021-11-13T09:30:40.685Z</time>
      </trkpt>
      <trkpt lat="47.573998" lon="7.911915">
        <ele>286.603419</ele>
        <time>2021-11-13T09:30:43.802Z</time>
      </trkpt>
      <trkpt lat="47.574566" lon="7.911447">
        <ele>286.199048</ele>
        <time>2021-11-13T09:30:52.127Z</time>
      </trkpt>
      <trkpt lat="47.574901" lon="7.911251">
        <ele>285.974944</ele>
        <time>2021-11-13T09:30:56.813Z</time>
      </trkpt>
      <trkpt lat="47.575508" lon="7.910912">
        <ele>285.651264</ele>
        <time>2021-11-13T09:31:05.440Z</time>
      </trkpt>
      <trkpt lat="47.575539" lon="7.910898">
        <ele>285.647923</ele>
        <time>2021-11-13T09:31:05.951Z</time>
      </trkpt>
      <trkpt lat="47.575854" lon="7.910743">
        <ele>285.613696</ele>
        <time>2021-11-13T09:31:10.456Z</time>
      </trkpt>
      <trkpt lat="47.576932" lon="7.910134">
        <ele>285.494732</ele>
        <time>2021-11-13T09:31:27.442Z</time>
      </trkpt>
      <trkpt lat="47.577424" lon="7.909886">
        <ele>285.665380</ele>
        <time>2021-11-13T09:31:35.597Z</time>
      </trkpt>
      <trkpt lat="47.577771" lon="7.909710">
        <ele>285.836838</ele>
        <time>2021-11-13T09:31:41.689Z</time>
      </trkpt>
      <trkpt lat="47.578895" lon="7.909087">
        <ele>286.342494</ele>
        <time>2021-11-13T09:32:02.379Z</time>
      </trkpt>
      <trkpt lat="47.579056" lon="7.908962">
        <ele>286.365004</ele>
        <time>2021-11-13T09:32:05.844Z</time>
      </trkpt>
      <trkpt lat="47.579708" lon="7.908314">
        <ele>286.462226</ele>
        <time>2021-11-13T09:32:18.758Z</time>
      </trkpt>
      <trkpt lat="47.580105" lon="7.908168">
        <ele>286.512887</ele>
        <time>2021-11-13T09:32:24.507Z</time>
      </trkpt>
      <trkpt lat="47.580194" lon="7.908192">
        <ele>286.524091</ele>
        <time>2021-11-13T09:32:25.671Z</time>
      </trkpt>
      <trkpt lat="47.580422" lon="7.908273">
        <ele>286.480618</ele>
        <time>2021-11-13T09:32:28.801Z</time>
      </trkpt>
      <trkpt lat="47.580470" lon="7.908164">
        <ele>286.390577</ele>
        <time>2021-11-13T09:32:29.790Z</time>
      </trkpt>
      <trkpt lat="47.580552" lon="7.908081">
        <ele>286.288761</ele>
        <time>2021-11-13T09:32:31.156Z</time>
      </trkpt>
      <trkpt lat="47.581568" lon="7.907612">
        <ele>285.197580</ele>
        <time>2021-11-13T09:32:44.015Z</time>
      </trkpt>
      <trkpt lat="47.581793" lon="7.907472">
        <ele>284.947359</ele>
        <time>2021-11-13T09:32:46.786Z</time>
      </trkpt>
      <trkpt lat="47.582248" lon="7.907090">
        <ele>284.716056</ele>
        <time>2021-11-13T09:32:52.999Z</time>
      </trkpt>
      <trkpt lat="47.582657" lon="7.906618">
        <ele>284.743815</ele>
        <time>2021-11-13T09:32:59.632Z</time>
      </trkpt>
      <trkpt lat="47.582951" lon="7.906415">
        <ele>284.761185</ele>
        <time>2021-11-13T09:33:04.561Z</time>
      </trkpt>
      <trkpt lat="47.583077" lon="7.906399">
        <ele>284.767958</ele>
        <time>2021-11-13T09:33:06.440Z</time>
      </trkpt>
      <trkpt lat="47.583245" lon="7.906443">
        <ele>284.777095</ele>
        <time>2021-11-13T09:33:09.853Z</time>
      </trkpt>
      <trkpt lat="47.583451" lon="7.906619">
        <ele>284.789829</ele>
        <time>2021-11-13T09:33:14.394Z</time>
      </trkpt>
      <trkpt lat="47.583711" lon="7.906911">
        <ele>285.227324</ele>
        <time>2021-11-13T09:33:21.137Z</time>
      </trkpt>
      <trkpt lat="47.583887" lon="7.907113">
        <ele>285.737683</ele>
        <time>2021-11-13T09:33:26.119Z</time>
      </trkpt>
      <trkpt lat="47.584719" lon="7.908091">
        <ele>288.172306</ele>
        <time>2021-11-13T09:33:51.742Z</time>
      </trkpt>
      <trkpt lat="47.585084" lon="7.908692">
        <ele>289.754359</ele>
        <time>2021-11-13T09:34:06.428Z</time>
      </trkpt>
      <trkpt lat="47.585149" lon="7.908804">
        <ele>290.133790</ele>
        <time>2021-11-13T09:34:09.383Z</time>
      </trkpt>
      <trkpt lat="47.585222" lon="7.908901">
        <ele>290.507014</ele>
        <time>2021-11-13T09:34:12.545Z</time>
      </trkpt>
      <trkpt lat="47.585337" lon="7.909031">
        <ele>291.057609</ele>
        <time>2021-11-13T09:34:16.724Z</time>
      </trkpt>
      <trkpt lat="47.585078" lon="7.909509">
        <ele>292.632142</ele>
        <time>2021-11-13T09:34:28.763Z</time>
      </trkpt>
      <trkpt lat="47.585045" lon="7.909674">
        <ele>293.074100</ele>
        <time>2021-11-13T09:34:32.175Z</time>
      </trkpt>
      <trkpt lat="47.585051" lon="7.909751">
        <ele>293.273152</ele>
        <time>2021-11-13T09:34:34.032Z</time>
      </trkpt>
      <trkpt lat="47.585066" lon="7.909809">
        <ele>293.432670</ele>
        <time>2021-11-13T09:34:35.312Z</time>
      </trkpt>
      <trkpt lat="47.585093" lon="7.909869">
        <ele>293.617895</ele>
        <time>2021-11-13T09:34:36.644Z</time>
      </trkpt>
      <trkpt lat="47.585157" lon="7.909965">
        <ele>293.964523</ele>
        <time>2021-11-13T09:34:39.021Z</time>
      </trkpt>
      <trkpt lat="47.585271" lon="7.910136">
        <ele>294.581953</ele>
        <time>2021-11-13T09:34:43.993Z</time>
      </trkpt>
      <trkpt lat="47.585430" lon="7.910346">
        <ele>295.392685</ele>
        <time>2021-11-13T09:34:50.914Z</time>
      </trkpt>
      <trkpt lat="47.585610" lon="7.910640">
        <ele>296.475794</ele>
        <time>2021-11-13T09:35:00.543Z</time>
      </trkpt>
      <trkpt lat="47.586028" lon="7.911561">
        <ele>299.607929</ele>
        <time>2021-11-13T09:35:26.623Z</time>
      </trkpt>
      <trkpt lat="47.586263" lon="7.911881">
        <ele>300.942686</ele>
        <time>2021-11-13T09:35:36.879Z</time>
      </trkpt>
      <trkpt lat="47.586433" lon="7.912047">
        <ele>301.794208</ele>
        <time>2021-11-13T09:35:43.458Z</time>
      </trkpt>
      <trkpt lat="47.586622" lon="7.912140">
        <ele>302.627238</ele>
        <time>2021-11-13T09:35:49.179Z</time>
      </trkpt>
      <trkpt lat="47.586917" lon="7.912301">
        <ele>303.520728</ele>
        <time>2021-11-13T09:35:57.036Z</time>
      </trkpt>
      <trkpt lat="47.587725" lon="7.912508">
        <ele>304.722026</ele>
        <time>2021-11-13T09:36:15.732Z</time>
      </trkpt>
      <trkpt lat="47.587897" lon="7.912517">
        <ele>304.974170</ele>
        <time>2021-11-13T09:36:19.288Z</time>
      </trkpt>
      <trkpt lat="47.588907" lon="7.912607">
        <ele>306.018392</ele>
        <time>2021-11-13T09:36:34.745Z</time>
      </trkpt>
      <trkpt lat="47.589326" lon="7.912720">
        <ele>306.124476</ele>
        <time>2021-11-13T09:36:41.084Z</time>
      </trkpt>
      <trkpt lat="47.589873" lon="7.912855">
        <ele>306.262605</ele>
        <time>2021-11-13T09:36:49.583Z</time>
      </trkpt>
      <trkpt lat="47.590231" lon="7.912830">
        <ele>306.351880</ele>
        <time>2021-11-13T09:36:55.307Z</time>
      </trkpt>
      <trkpt lat="47.590570" lon="7.912784">
        <ele>306.624645</ele>
        <time>2021-11-13T09:37:01.428Z</time>
      </trkpt>
      <trkpt lat="47.591044" lon="7.912710">
        <ele>307.115264</ele>
        <time>2021-11-13T09:37:10.501Z</time>
      </trkpt>
      <trkpt lat="47.591348" lon="7.912662">
        <ele>307.429963</ele>
        <time>2021-11-13T09:37:16.582Z</time>
      </trkpt>
      <trkpt lat="47.591443" lon="7.912678">
        <ele>307.528382</ele>
        <time>2021-11-13T09:37:18.161Z</time>
      </trkpt>
      <trkpt lat="47.591605" lon="7.912829">
        <ele>307.725351</ele>
        <time>2021-11-13T09:37:22.405Z</time>
      </trkpt>
      <trkpt lat="47.591714" lon="7.913064">
        <ele>307.923352</ele>
        <time>2021-11-13T09:37:25.711Z</time>
      </trkpt>
      <trkpt lat="47.591721" lon="7.913096">
        <ele>307.946707</ele>
        <time>2021-11-13T09:37:26.097Z</time>
      </trkpt>
      <trkpt lat="47.591746" lon="7.913330">
        <ele>308.111179</ele>
        <time>2021-11-13T09:37:29.822Z</time>
      </trkpt>
      <trkpt lat="47.591809" lon="7.913704">
        <ele>308.476163</ele>
        <time>2021-11-13T09:37:34.040Z</time>
      </trkpt>
      <trkpt lat="47.591858" lon="7.913783">
        <ele>308.598833</ele>
        <time>2021-11-13T09:37:35.953Z</time>
      </trkpt>
      <trkpt lat="47.591953" lon="7.913843">
        <ele>308.773824</ele>
        <time>2021-11-13T09:37:37.949Z</time>
      </trkpt>
      <trkpt lat="47.592496" lon="7.914014">
        <ele>309.714564</ele>
        <time>2021-11-13T09:37:48.904Z</time>
      </trkpt>
      <trkpt lat="47.592589" lon="7.914035">
        <ele>309.873987</ele>
        <time>2021-11-13T09:37:51.925Z</time>
      </trkpt>
      <trkpt lat="47.592672" lon="7.914009">
        <ele>310.017750</ele>
        <time>2021-11-13T09:37:53.587Z</time>
      </trkpt>
      <trkpt lat="47.592807" lon="7.913929">
        <ele>310.264126</ele>
        <time>2021-11-13T09:37:56.050Z</time>
      </trkpt>
      <trkpt lat="47.593189" lon="7.913725">
        <ele>310.952201</ele>
        <time>2021-11-13T09:38:05.494Z</time>
      </trkpt>
      <trkpt lat="47.593511" lon="7.913649">
        <ele>311.582852</ele>
        <time>2021-11-13T09:38:13.427Z</time>
      </trkpt>
      <trkpt lat="47.593654" lon="7.913672">
        <ele>311.909928</ele>
        <time>2021-11-13T09:38:17.172Z</time>
      </trkpt>
      <trkpt lat="47.594163" lon="7.913924">
        <ele>313.130155</ele>
        <time>2021-11-13T09:38:30.327Z</time>
      </trkpt>
      <trkpt lat="47.594719" lon="7.914022">
        <ele>314.403348</ele>
        <time>2021-11-13T09:38:44.170Z</time>
      </trkpt>
      <trkpt lat="47.594871" lon="7.914141">
        <ele>314.794196</ele>
        <time>2021-11-13T09:38:48.147Z</time>
      </trkpt>
      <trkpt lat="47.595031" lon="7.914316">
        <ele>315.246283</ele>
        <time>2021-11-13T09:38:53.020Z</time>
      </trkpt>
      <trkpt lat="47.595292" lon="7.914664">
        <ele>315.790249</ele>
        <time>2021-11-13T09:39:00.648Z</time>
      </trkpt>
      <trkpt lat="47.595476" lon="7.914889">
        <ele>316.129320</ele>
        <time>2021-11-13T09:39:05.733Z</time>
      </trkpt>
      <trkpt lat="47.595688" lon="7.915084">
        <ele>316.484001</ele>
        <time>2021-11-13T09:39:11.166Z</time>
      </trkpt>
      <trkpt lat="47.595861" lon="7.915155">
        <ele>316.739205</ele>
        <time>2021-11-13T09:39:14.686Z</time>
      </trkpt>
      <trkpt lat="47.595909" lon="7.915188">
        <ele>316.814426</ele>
        <time>2021-11-13T09:39:15.769Z</time>
      </trkpt>
      <trkpt lat="47.595949" lon="7.915202">
        <ele>316.872857</ele>
        <time>2021-11-13T09:39:16.701Z</time>
      </trkpt>
      <trkpt lat="47.596117" lon="7.915243">
        <ele>317.114921</ele>
        <time>2021-11-13T09:39:20.297Z</time>
      </trkpt>
      <trkpt lat="47.596349" lon="7.915301">
        <ele>317.449416</ele>
        <time>2021-11-13T09:39:24.727Z</time>
      </trkpt>
      <trkpt lat="47.596736" lon="7.915598">
        <ele>318.026666</ele>
        <time>2021-11-13T09:39:32.565Z</time>
      </trkpt>
      <trkpt lat="47.596850" lon="7.915674">
        <ele>318.152750</ele>
        <time>2021-11-13T09:39:34.554Z</time>
      </trkpt>
      <trkpt lat="47.597083" lon="7.915733">
        <ele>318.391192</ele>
        <time>2021-11-13T09:39:38.686Z</time>
      </trkpt>
      <trkpt lat="47.597656" lon="7.915778">
        <ele>318.970016</ele>
        <time>2021-11-13T09:39:48.860Z</time>
      </trkpt>
      <trkpt lat="47.599120" lon="7.915596">
        <ele>320.438238</ele>
        <time>2021-11-13T09:40:18.831Z</time>
      </trkpt>
      <trkpt lat="47.599374" lon="7.915625">
        <ele>320.690264</ele>
        <time>2021-11-13T09:40:23.543Z</time>
      </trkpt>
      <trkpt lat="47.599906" lon="7.915798">
        <ele>321.229076</ele>
        <time>2021-11-13T09:40:33.370Z</time>
      </trkpt>
      <trkpt lat="47.600078" lon="7.915859">
        <ele>321.404034</ele>
        <time>2021-11-13T09:40:36.433Z</time>
      </trkpt>
      <trkpt lat="47.600344" lon="7.915900">
        <ele>321.575332</ele>
        <time>2021-11-13T09:40:40.924Z</time>
      </trkpt>
      <trkpt lat="47.600545" lon="7.915898">
        <ele>321.651687</ele>
        <time>2021-11-13T09:40:44.389Z</time>
      </trkpt>
      <trkpt lat="47.600689" lon="7.915853">
        <ele>321.707590</ele>
        <time>2021-11-13T09:40:46.718Z</time>
      </trkpt>
      <trkpt lat="47.601054" lon="7.915633">
        <ele>321.857255</ele>
        <time>2021-11-13T09:40:53.135Z</time>
      </trkpt>
      <trkpt lat="47.601546" lon="7.915285">
        <ele>322.064318</ele>
        <time>2021-11-13T09:41:01.540Z</time>
      </trkpt>
      <trkpt lat="47.602131" lon="7.915025">
        <ele>322.471139</ele>
        <time>2021-11-13T09:41:11.224Z</time>
      </trkpt>
      <trkpt lat="47.602754" lon="7.914823">
        <ele>323.155186</ele>
        <time>2021-11-13T09:41:23.044Z</time>
      </trkpt>
      <trkpt lat="47.603302" lon="7.914722">
        <ele>323.747521</ele>
        <time>2021-11-13T09:41:34.181Z</time>
      </trkpt>
      <trkpt lat="47.603466" lon="7.914620">
        <ele>323.938279</ele>
        <time>2021-11-13T09:41:38.096Z</time>
      </trkpt>
      <trkpt lat="47.603615" lon="7.914449">
        <ele>324.144652</ele>
        <time>2021-11-13T09:41:42.047Z</time>
      </trkpt>
      <trkpt lat="47.603884" lon="7.914671">
        <ele>324.608296</ele>
        <time>2021-11-13T09:41:48.757Z</time>
      </trkpt>
      <trkpt lat="47.604062" lon="7.914772">
        <ele>324.895334</ele>
        <time>2021-11-13T09:41:52.958Z</time>
      </trkpt>
      <trkpt lat="47.604393" lon="7.914885">
        <ele>325.406894</ele>
        <time>2021-11-13T09:41:59.966Z</time>
      </trkpt>
      <trkpt lat="47.604722" lon="7.914915">
        <ele>325.903340</ele>
        <time>2021-11-13T09:42:06.599Z</time>
      </trkpt>
      <trkpt lat="47.605105" lon="7.914869">
        <ele>326.482070</ele>
        <time>2021-11-13T09:42:14.499Z</time>
      </trkpt>
      <trkpt lat="47.605408" lon="7.914750">
        <ele>326.929451</ele>
        <time>2021-11-13T09:42:21.165Z</time>
      </trkpt>
      <trkpt lat="47.605648" lon="7.914613">
        <ele>327.233889</ele>
        <time>2021-11-13T09:42:26.531Z</time>
      </trkpt>
      <trkpt lat="47.605929" lon="7.914457">
        <ele>327.589087</ele>
        <time>2021-11-13T09:42:32.447Z</time>
      </trkpt>
      <trkpt lat="47.606200" lon="7.914255">
        <ele>327.948142</ele>
        <time>2021-11-13T09:42:38.268Z</time>
      </trkpt>
      <trkpt lat="47.606450" lon="7.914067">
        <ele>328.279968</ele>
        <time>2021-11-13T09:42:43.560Z</time>
      </trkpt>
      <trkpt lat="47.606558" lon="7.913988">
        <ele>328.422526</ele>
        <time>2021-11-13T09:42:45.797Z</time>
      </trkpt>
      <trkpt lat="47.606706" lon="7.913869">
        <ele>328.621823</ele>
        <time>2021-11-13T09:42:48.969Z</time>
      </trkpt>
      <trkpt lat="47.606938" lon="7.913697">
        <ele>328.928873</ele>
        <time>2021-11-13T09:42:53.833Z</time>
      </trkpt>
      <trkpt lat="47.607292" lon="7.913435">
        <ele>329.460465</ele>
        <time>2021-11-13T09:43:01.468Z</time>
      </trkpt>
      <trkpt lat="47.607663" lon="7.913198">
        <ele>330.009129</ele>
        <time>2021-11-13T09:43:09.711Z</time>
      </trkpt>
      <trkpt lat="47.607983" lon="7.913042">
        <ele>330.466647</ele>
        <time>2021-11-13T09:43:16.838Z</time>
      </trkpt>
      <trkpt lat="47.608679" lon="7.912703">
        <ele>331.460319</ele>
        <time>2021-11-13T09:43:31.866Z</time>
      </trkpt>
      <trkpt lat="47.609914" lon="7.912278">
        <ele>333.136695</ele>
        <time>2021-11-13T09:43:57.760Z</time>
      </trkpt>
      <trkpt lat="47.610416" lon="7.911983">
        <ele>333.805465</ele>
        <time>2021-11-13T09:44:08.965Z</time>
      </trkpt>
      <trkpt lat="47.611260" lon="7.911383">
        <ele>334.130912</ele>
        <time>2021-11-13T09:44:25.608Z</time>
      </trkpt>
      <trkpt lat="47.612029" lon="7.910940">
        <ele>334.406826</ele>
        <time>2021-11-13T09:44:37.084Z</time>
      </trkpt>
      <trkpt lat="47.612005" lon="7.910790">
        <ele>334.311020</ele>
        <time>2021-11-13T09:44:38.381Z</time>
      </trkpt>
      <trkpt lat="47.611994" lon="7.910676">
        <ele>334.239453</ele>
        <time>2021-11-13T09:44:39.449Z</time>
      </trkpt>
      <trkpt lat="47.611988" lon="7.910610">
        <ele>334.198066</ele>
        <time>2021-11-13T09:44:39.963Z</time>
      </trkpt>
      <trkpt lat="47.611981" lon="7.910534">
        <ele>334.150397</ele>
        <time>2021-11-13T09:44:40.601Z</time>
      </trkpt>
      <trkpt lat="47.611986" lon="7.910466">
        <ele>334.107888</ele>
        <time>2021-11-13T09:44:41.361Z</time>
      </trkpt>
      <trkpt lat="47.612020" lon="7.910364">
        <ele>334.037175</ele>
        <time>2021-11-13T09:44:42.380Z</time>
      </trkpt>
      <trkpt lat="47.612082" lon="7.910269">
        <ele>333.955005</ele>
        <time>2021-11-13T09:44:43.536Z</time>
      </trkpt>
      <trkpt lat="47.612131" lon="7.910214">
        <ele>333.898361</ele>
        <time>2021-11-13T09:44:44.323Z</time>
      </trkpt>
      <trkpt lat="47.612216" lon="7.910134">
        <ele>333.805564</ele>
        <time>2021-11-13T09:44:45.560Z</time>
      </trkpt>
      <trkpt lat="47.612897" lon="7.909812">
        <ele>333.146678</ele>
        <time>2021-11-13T09:44:54.502Z</time>
      </trkpt>
      <trkpt lat="47.613280" lon="7.909624">
        <ele>332.774790</ele>
        <time>2021-11-13T09:44:59.091Z</time>
      </trkpt>
      <trkpt lat="47.613360" lon="7.909602">
        <ele>332.699608</ele>
        <time>2021-11-13T09:45:00.026Z</time>
      </trkpt>
      <trkpt lat="47.613934" lon="7.909339">
        <ele>332.144066</ele>
        <time>2021-11-13T09:45:06.861Z</time>
      </trkpt>
      <trkpt lat="47.614063" lon="7.909285">
        <ele>332.020117</ele>
        <time>2021-11-13T09:45:08.476Z</time>
      </trkpt>
      <trkpt lat="47.614412" lon="7.909095">
        <ele>331.676336</ele>
        <time>2021-11-13T09:45:13.000Z</time>
      </trkpt>
      <trkpt lat="47.614784" lon="7.908839">
        <ele>331.297121</ele>
        <time>2021-11-13T09:45:18.209Z</time>
      </trkpt>
      <trkpt lat="47.614876" lon="7.908760">
        <ele>331.198820</ele>
        <time>2021-11-13T09:45:20.098Z</time>
      </trkpt>
      <trkpt lat="47.615085" lon="7.908567">
        <ele>331.247425</ele>
        <time>2021-11-13T09:45:23.619Z</time>
      </trkpt>
      <trkpt lat="47.615246" lon="7.908385">
        <ele>331.483060</ele>
        <time>2021-11-13T09:45:27.341Z</time>
      </trkpt>
      <trkpt lat="47.615374" lon="7.908222">
        <ele>331.679435</ele>
        <time>2021-11-13T09:45:29.505Z</time>
      </trkpt>
      <trkpt lat="47.615460" lon="7.908111">
        <ele>331.812136</ele>
        <time>2021-11-13T09:45:31.811Z</time>
      </trkpt>
      <trkpt lat="47.615669" lon="7.907870">
        <ele>332.120289</ele>
        <time>2021-11-13T09:45:36.206Z</time>
      </trkpt>
      <trkpt lat="47.615821" lon="7.907747">
        <ele>332.321845</ele>
        <time>2021-11-13T09:45:40.229Z</time>
      </trkpt>
      <trkpt lat="47.615946" lon="7.907692">
        <ele>332.473623</ele>
        <time>2021-11-13T09:45:42.198Z</time>
      </trkpt>
      <trkpt lat="47.616009" lon="7.907686">
        <ele>332.547112</ele>
        <time>2021-11-13T09:45:43.523Z</time>
      </trkpt>
      <trkpt lat="47.616028" lon="7.907466">
        <ele>332.721160</ele>
        <time>2021-11-13T09:45:48.238Z</time>
      </trkpt>
      <trkpt lat="47.616300" lon="7.907066">
        <ele>333.167008</ele>
        <time>2021-11-13T09:45:59.458Z</time>
      </trkpt>
      <trkpt lat="47.616266" lon="7.906809">
        <ele>333.582603</ele>
        <time>2021-11-13T09:46:04.478Z</time>
      </trkpt>
      <trkpt lat="47.616264" lon="7.906797">
        <ele>333.603302</ele>
        <time>2021-11-13T09:46:04.824Z</time>
      </trkpt>
      <trkpt lat="47.615998" lon="7.906103">
        <ele>334.940135</ele>
        <time>2021-11-13T09:46:22.350Z</time>
      </trkpt>
      <trkpt lat="47.615921" lon="7.905895">
        <ele>335.337500</ele>
        <time>2021-11-13T09:46:26.816Z</time>
      </trkpt>
      <trkpt lat="47.615868" lon="7.905596">
        <ele>335.855202</ele>
        <time>2021-11-13T09:46:33.970Z</time>
      </trkpt>
      <trkpt lat="47.615863" lon="7.905569">
        <ele>335.902089</ele>
        <time>2021-11-13T09:46:34.509Z</time>
      </trkpt>
      <trkpt lat="47.615837" lon="7.905247">
        <ele>336.445140</ele>
        <time>2021-11-13T09:46:40.913Z</time>
      </trkpt>
      <trkpt lat="47.615830" lon="7.904995">
        <ele>336.867478</ele>
        <time>2021-11-13T09:46:45.922Z</time>
      </trkpt>
      <trkpt lat="47.615823" lon="7.904763">
        <ele>337.256356</ele>
        <time>2021-11-13T09:46:50.475Z</time>
      </trkpt>
      <trkpt lat="47.615838" lon="7.903983">
        <ele>338.256551</ele>
        <time>2021-11-13T09:47:05.396Z</time>
      </trkpt>
      <trkpt lat="47.615894" lon="7.903663">
        <ele>338.623259</ele>
        <time>2021-11-13T09:47:11.195Z</time>
      </trkpt>
      <trkpt lat="47.615971" lon="7.903390">
        <ele>338.951506</ele>
        <time>2021-11-13T09:47:16.332Z</time>
      </trkpt>
      <trkpt lat="47.616102" lon="7.903098">
        <ele>339.340561</ele>
        <time>2021-11-13T09:47:22.731Z</time>
      </trkpt>
      <trkpt lat="47.616384" lon="7.902765">
        <ele>339.933636</ele>
        <time>2021-11-13T09:47:32.245Z</time>
      </trkpt>
      <trkpt lat="47.616593" lon="7.902555">
        <ele>340.348993</ele>
        <time>2021-11-13T09:47:38.459Z</time>
      </trkpt>
      <trkpt lat="47.616785" lon="7.902357">
        <ele>340.723737</ele>
        <time>2021-11-13T09:47:44.686Z</time>
      </trkpt>
      <trkpt lat="47.616907" lon="7.902260">
        <ele>340.932310</ele>
        <time>2021-11-13T09:47:48.421Z</time>
      </trkpt>
      <trkpt lat="47.617017" lon="7.902172">
        <ele>341.120628</ele>
        <time>2021-11-13T09:47:51.786Z</time>
      </trkpt>
      <trkpt lat="47.617152" lon="7.902073">
        <ele>341.347549</ele>
        <time>2021-11-13T09:47:55.782Z</time>
      </trkpt>
      <trkpt lat="47.617289" lon="7.902010">
        <ele>341.563677</ele>
        <time>2021-11-13T09:47:59.733Z</time>
      </trkpt>
      <trkpt lat="47.617757" lon="7.901936">
        <ele>342.272875</ele>
        <time>2021-11-13T09:48:11.411Z</time>
      </trkpt>
      <trkpt lat="47.618007" lon="7.901707">
        <ele>342.715609</ele>
        <time>2021-11-13T09:48:18.976Z</time>
      </trkpt>
      <trkpt lat="47.618101" lon="7.901636">
        <ele>342.874554</ele>
        <time>2021-11-13T09:48:21.666Z</time>
      </trkpt>
      <trkpt lat="47.618288" lon="7.901533">
        <ele>343.175129</ele>
        <time>2021-11-13T09:48:27.089Z</time>
      </trkpt>
      <trkpt lat="47.619328" lon="7.901344">
        <ele>344.924739</ele>
        <time>2021-11-13T09:48:56.009Z</time>
      </trkpt>
      <trkpt lat="47.619614" lon="7.901292">
        <ele>345.410814</ele>
        <time>2021-11-13T09:49:04.109Z</time>
      </trkpt>
      <trkpt lat="47.619888" lon="7.901390">
        <ele>345.886280</ele>
        <time>2021-11-13T09:49:11.360Z</time>
      </trkpt>
      <trkpt lat="47.619949" lon="7.901437">
        <ele>346.002233</ele>
        <time>2021-11-13T09:49:13.298Z</time>
      </trkpt>
      <trkpt lat="47.620059" lon="7.901525">
        <ele>346.213057</ele>
        <time>2021-11-13T09:49:16.336Z</time>
      </trkpt>
      <trkpt lat="47.620410" lon="7.901520">
        <ele>346.771773</ele>
        <time>2021-11-13T09:49:25.425Z</time>
      </trkpt>
      <trkpt lat="47.620624" lon="7.901458">
        <ele>347.112021</ele>
        <time>2021-11-13T09:49:31.313Z</time>
      </trkpt>
      <trkpt lat="47.620672" lon="7.901435">
        <ele>347.190734</ele>
        <time>2021-11-13T09:49:32.637Z</time>
      </trkpt>
      <trkpt lat="47.620725" lon="7.901411">
        <ele>347.277205</ele>
        <time>2021-11-13T09:49:33.958Z</time>
      </trkpt>
      <trkpt lat="47.620892" lon="7.901347">
        <ele>347.546358</ele>
        <time>2021-11-13T09:49:38.562Z</time>
      </trkpt>
      <trkpt lat="47.621099" lon="7.901302">
        <ele>347.872825</ele>
        <time>2021-11-13T09:49:44.128Z</time>
      </trkpt>
      <trkpt lat="47.621491" lon="7.901218">
        <ele>348.490877</ele>
        <time>2021-11-13T09:49:54.628Z</time>
      </trkpt>
      <trkpt lat="47.621543" lon="7.901222">
        <ele>348.572130</ele>
        <time>2021-11-13T09:49:56.104Z</time>
      </trkpt>
      <trkpt lat="47.621641" lon="7.901251">
        <ele>348.728069</ele>
        <time>2021-11-13T09:49:58.809Z</time>
      </trkpt>
      <trkpt lat="47.621963" lon="7.901334">
        <ele>349.239547</ele>
        <time>2021-11-13T09:50:07.462Z</time>
      </trkpt>
      <trkpt lat="47.622044" lon="7.901325">
        <ele>349.368903</ele>
        <time>2021-11-13T09:50:09.711Z</time>
      </trkpt>
      <trkpt lat="47.622167" lon="7.901296">
        <ele>349.567241</ele>
        <time>2021-11-13T09:50:12.881Z</time>
      </trkpt>
      <trkpt lat="47.622355" lon="7.901252">
        <ele>349.870338</ele>
        <time>2021-11-13T09:50:18.132Z</time>
      </trkpt>
      <trkpt lat="47.622681" lon="7.901162">
        <ele>350.398413</ele>
        <time>2021-11-13T09:50:26.791Z</time>
      </trkpt>
      <trkpt lat="47.622944" lon="7.901144">
        <ele>350.817693</ele>
        <time>2021-11-13T09:50:33.700Z</time>
      </trkpt>
      <trkpt lat="47.623473" lon="7.901122">
        <ele>351.660469</ele>
        <time>2021-11-13T09:50:47.630Z</time>
      </trkpt>
      <trkpt lat="47.624511" lon="7.901144">
        <ele>353.613207</ele>
        <time>2021-11-13T09:51:15.789Z</time>
      </trkpt>
      <trkpt lat="47.624673" lon="7.901197">
        <ele>353.939058</ele>
        <time>2021-11-13T09:51:20.437Z</time>
      </trkpt>
      <trkpt lat="47.625157" lon="7.901492">
        <ele>354.966841</ele>
        <time>2021-11-13T09:51:35.513Z</time>
      </trkpt>
      <trkpt lat="47.625257" lon="7.901546">
        <ele>355.175870</ele>
        <time>2021-11-13T09:51:37.839Z</time>
      </trkpt>
      <trkpt lat="47.625293" lon="7.901611">
        <ele>355.287248</ele>
        <time>2021-11-13T09:51:39.046Z</time>
      </trkpt>
      <trkpt lat="47.625369" lon="7.901592">
        <ele>355.438634</ele>
        <time>2021-11-13T09:51:41.476Z</time>
      </trkpt>
      <trkpt lat="47.626663" lon="7.902101">
        <ele>358.396063</ele>
        <time>2021-11-13T09:52:13.766Z</time>
      </trkpt>
      <trkpt lat="47.627225" lon="7.902298">
        <ele>359.593286</ele>
        <time>2021-11-13T09:52:27.459Z</time>
      </trkpt>
      <trkpt lat="47.627453" lon="7.902345">
        <ele>359.739959</ele>
        <time>2021-11-13T09:52:32.293Z</time>
      </trkpt>
      <trkpt lat="47.627636" lon="7.902374">
        <ele>359.857226</ele>
        <time>2021-11-13T09:52:36.163Z</time>
      </trkpt>
      <trkpt lat="47.627939" lon="7.902419">
        <ele>360.051257</ele>
        <time>2021-11-13T09:52:41.972Z</time>
      </trkpt>
      <trkpt lat="47.628499" lon="7.902416">
        <ele>360.408080</ele>
        <time>2021-11-13T09:52:50.419Z</time>
      </trkpt>
      <trkpt lat="47.628663" lon="7.902374">
        <ele>360.514123</ele>
        <time>2021-11-13T09:52:53.011Z</time>
      </trkpt>
      <trkpt lat="47.628980" lon="7.902307">
        <ele>360.701962</ele>
        <time>2021-11-13T09:52:59.057Z</time>
      </trkpt>
      <trkpt lat="47.629098" lon="7.902279">
        <ele>360.684828</ele>
        <time>2021-11-13T09:53:00.655Z</time>
      </trkpt>
      <trkpt lat="47.629184" lon="7.902266">
        <ele>360.672433</ele>
        <time>2021-11-13T09:53:01.742Z</time>
      </trkpt>
      <trkpt lat="47.629238" lon="7.902282">
        <ele>360.664538</ele>
        <time>2021-11-13T09:53:02.498Z</time>
      </trkpt>
      <trkpt lat="47.629377" lon="7.902419">
        <ele>360.640612</ele>
        <time>2021-11-13T09:53:05.069Z</time>
      </trkpt>
      <trkpt lat="47.629454" lon="7.902531">
        <ele>360.625152</ele>
        <time>2021-11-13T09:53:06.530Z</time>
      </trkpt>
      <trkpt lat="47.629497" lon="7.902595">
        <ele>360.616419</ele>
        <time>2021-11-13T09:53:07.306Z</time>
      </trkpt>
      <trkpt lat="47.629807" lon="7.902833">
        <ele>360.566374</ele>
        <time>2021-11-13T09:53:12.685Z</time>
      </trkpt>
      <trkpt lat="47.629964" lon="7.902776">
        <ele>360.543199</ele>
        <time>2021-11-13T09:53:15.547Z</time>
      </trkpt>
      <trkpt lat="47.630128" lon="7.902518">
        <ele>360.508928</ele>
        <time>2021-11-13T09:53:18.693Z</time>
      </trkpt>
      <trkpt lat="47.630286" lon="7.902472">
        <ele>360.485842</ele>
        <time>2021-11-13T09:53:21.294Z</time>
      </trkpt>
      <trkpt lat="47.630354" lon="7.902516">
        <ele>360.475206</ele>
        <time>2021-11-13T09:53:22.399Z</time>
      </trkpt>
      <trkpt lat="47.630425" lon="7.902631">
        <ele>360.460135</ele>
        <time>2021-11-13T09:53:23.547Z</time>
      </trkpt>
      <trkpt lat="47.630643" lon="7.902358">
        <ele>360.389622</ele>
        <time>2021-11-13T09:53:27.314Z</time>
      </trkpt>
      <trkpt lat="47.631232" lon="7.901830">
        <ele>360.185883</ele>
        <time>2021-11-13T09:53:37.448Z</time>
      </trkpt>
      <trkpt lat="47.631256" lon="7.901808">
        <ele>360.177531</ele>
        <time>2021-11-13T09:53:37.706Z</time>
      </trkpt>
      <trkpt lat="47.632600" lon="7.900774">
        <ele>359.954546</ele>
        <time>2021-11-13T09:53:59.024Z</time>
      </trkpt>
      <trkpt lat="47.632720" lon="7.900711">
        <ele>359.962693</ele>
        <time>2021-11-13T09:54:00.633Z</time>
      </trkpt>
      <trkpt lat="47.632986" lon="7.900573">
        <ele>359.980727</ele>
        <time>2021-11-13T09:54:04.644Z</time>
      </trkpt>
      <trkpt lat="47.633103" lon="7.900526">
        <ele>359.988485</ele>
        <time>2021-11-13T09:54:06.107Z</time>
      </trkpt>
      <trkpt lat="47.633136" lon="7.900472">
        <ele>359.991629</ele>
        <time>2021-11-13T09:54:06.666Z</time>
      </trkpt>
      <trkpt lat="47.633178" lon="7.900379">
        <ele>359.996457</ele>
        <time>2021-11-13T09:54:07.613Z</time>
      </trkpt>
      <trkpt lat="47.633226" lon="7.900424">
        <ele>360.000091</ele>
        <time>2021-11-13T09:54:09.157Z</time>
      </trkpt>
      <trkpt lat="47.633282" lon="7.900614">
        <ele>360.009035</ele>
        <time>2021-11-13T09:54:11.115Z</time>
      </trkpt>
      <trkpt lat="47.633342" lon="7.900593">
        <ele>360.012980</ele>
        <time>2021-11-13T09:54:12.294Z</time>
      </trkpt>
      <trkpt lat="47.633921" lon="7.900563">
        <ele>361.035265</ele>
        <time>2021-11-13T09:54:26.522Z</time>
      </trkpt>
      <trkpt lat="47.633917" lon="7.900261">
        <ele>361.676405</ele>
        <time>2021-11-13T09:54:31.756Z</time>
      </trkpt>
      <trkpt lat="47.633945" lon="7.900020">
        <ele>362.195491</ele>
        <time>2021-11-13T09:54:38.133Z</time>
      </trkpt>
      <trkpt lat="47.634007" lon="7.899717">
        <ele>362.867626</ele>
        <time>2021-11-13T09:54:44.186Z</time>
      </trkpt>
      <trkpt lat="47.634071" lon="7.899581">
        <ele>363.219717</ele>
        <time>2021-11-13T09:54:49.043Z</time>
      </trkpt>
      <trkpt lat="47.634413" lon="7.899025">
        <ele>364.817589</ele>
        <time>2021-11-13T09:55:06.497Z</time>
      </trkpt>
      <trkpt lat="47.634521" lon="7.898897">
        <ele>365.252949</ele>
        <time>2021-11-13T09:55:12.566Z</time>
      </trkpt>
      <trkpt lat="47.634660" lon="7.898725">
        <ele>365.942924</ele>
        <time>2021-11-13T09:55:19.230Z</time>
      </trkpt>
      <trkpt lat="47.634709" lon="7.898683">
        <ele>366.288209</ele>
        <time>2021-11-13T09:55:21.141Z</time>
      </trkpt>
      <trkpt lat="47.634851" lon="7.898560">
        <ele>367.291485</ele>
        <time>2021-11-13T09:55:28.897Z</time>
      </trkpt>
      <trkpt lat="47.635439" lon="7.898291">
        <ele>371.046035</ele>
        <time>2021-11-13T09:55:54.889Z</time>
      </trkpt>
      <trkpt lat="47.635572" lon="7.898264">
        <ele>371.865149</ele>
        <time>2021-11-13T09:56:01.431Z</time>
      </trkpt>
      <trkpt lat="47.635798" lon="7.898256">
        <ele>373.244576</ele>
        <time>2021-11-13T09:56:11.675Z</time>
      </trkpt>
      <trkpt lat="47.636998" lon="7.898270">
        <ele>380.533335</ele>
        <time>2021-11-13T09:57:09.963Z</time>
      </trkpt>
      <trkpt lat="47.637346" lon="7.898225">
        <ele>382.646374</ele>
        <time>2021-11-13T09:57:25.588Z</time>
      </trkpt>
      <trkpt lat="47.637397" lon="7.898245">
        <ele>382.965463</ele>
        <time>2021-11-13T09:57:28.530Z</time>
      </trkpt>
      <trkpt lat="47.637967" lon="7.898221">
        <ele>386.414800</ele>
        <time>2021-11-13T09:57:48.547Z</time>
      </trkpt>
      <trkpt lat="47.638114" lon="7.898263">
        <ele>387.320336</ele>
        <time>2021-11-13T09:57:54.526Z</time>
      </trkpt>
      <trkpt lat="47.638328" lon="7.898434">
        <ele>388.165318</ele>
        <time>2021-11-13T09:58:02.166Z</time>
      </trkpt>
      <trkpt lat="47.638614" lon="7.898515">
        <ele>389.038687</ele>
        <time>2021-11-13T09:58:12.227Z</time>
      </trkpt>
      <trkpt lat="47.639302" lon="7.898244">
        <ele>391.173867</ele>
        <time>2021-11-13T09:58:31.440Z</time>
      </trkpt>
      <trkpt lat="47.639542" lon="7.898268">
        <ele>391.895405</ele>
        <time>2021-11-13T09:58:36.606Z</time>
      </trkpt>
      <trkpt lat="47.639738" lon="7.898399">
        <ele>392.540196</ele>
        <time>2021-11-13T09:58:40.848Z</time>
      </trkpt>
      <trkpt lat="47.640140" lon="7.898843">
        <ele>393.632640</ele>
        <time>2021-11-13T09:58:49.717Z</time>
      </trkpt>
      <trkpt lat="47.640440" lon="7.899355">
        <ele>394.490981</ele>
        <time>2021-11-13T09:58:59.450Z</time>
      </trkpt>
      <trkpt lat="47.640608" lon="7.899969">
        <ele>395.329301</ele>
        <time>2021-11-13T09:59:09.052Z</time>
      </trkpt>
      <trkpt lat="47.640708" lon="7.900137">
        <ele>395.612876</ele>
        <time>2021-11-13T09:59:13.784Z</time>
      </trkpt>
      <trkpt lat="47.640929" lon="7.900272">
        <ele>396.061571</ele>
        <time>2021-11-13T09:59:18.425Z</time>
      </trkpt>
      <trkpt lat="47.641277" lon="7.900285">
        <ele>396.906226</ele>
        <time>2021-11-13T09:59:27.239Z</time>
      </trkpt>
      <trkpt lat="47.641318" lon="7.900134">
        <ele>397.212382</ele>
        <time>2021-11-13T09:59:31.582Z</time>
      </trkpt>
      <trkpt lat="47.641786" lon="7.899428">
        <ele>399.074898</ele>
        <time>2021-11-13T09:59:49.056Z</time>
      </trkpt>
      <trkpt lat="47.642084" lon="7.899209">
        <ele>400.003025</ele>
        <time>2021-11-13T09:59:57.927Z</time>
      </trkpt>
      <trkpt lat="47.642242" lon="7.899161">
        <ele>400.453162</ele>
        <time>2021-11-13T10:00:03.133Z</time>
      </trkpt>
      <trkpt lat="47.642610" lon="7.899205">
        <ele>401.361067</ele>
        <time>2021-11-13T10:00:13.172Z</time>
      </trkpt>
      <trkpt lat="47.643203" lon="7.899152">
        <ele>401.577467</ele>
        <time>2021-11-13T10:00:24.550Z</time>
      </trkpt>
      <trkpt lat="47.644179" lon="7.899348">
        <ele>401.936228</ele>
        <time>2021-11-13T10:00:38.228Z</time>
      </trkpt>
      <trkpt lat="47.644712" lon="7.899668">
        <ele>401.836454</ele>
        <time>2021-11-13T10:00:44.941Z</time>
      </trkpt>
      <trkpt lat="47.645260" lon="7.899829">
        <ele>401.614253</ele>
        <time>2021-11-13T10:00:51.615Z</time>
      </trkpt>
      <trkpt lat="47.645746" lon="7.900096">
        <ele>401.408126</ele>
        <time>2021-11-13T10:00:59.052Z</time>
      </trkpt>
      <trkpt lat="47.645932" lon="7.900091">
        <ele>401.334131</ele>
        <time>2021-11-13T10:01:01.470Z</time>
      </trkpt>
      <trkpt lat="47.646188" lon="7.900059">
        <ele>401.619011</ele>
        <time>2021-11-13T10:01:06.094Z</time>
      </trkpt>
      <trkpt lat="47.646820" lon="7.899789">
        <ele>403.363067</ele>
        <time>2021-11-13T10:01:21.893Z</time>
      </trkpt>
      <trkpt lat="47.647173" lon="7.899512">
        <ele>404.421959</ele>
        <time>2021-11-13T10:01:32.738Z</time>
      </trkpt>
      <trkpt lat="47.647258" lon="7.899353">
        <ele>404.784597</ele>
        <time>2021-11-13T10:01:36.291Z</time>
      </trkpt>
      <trkpt lat="47.647312" lon="7.898850">
        <ele>405.694587</ele>
        <time>2021-11-13T10:01:47.854Z</time>
      </trkpt>
      <trkpt lat="47.647362" lon="7.898569">
        <ele>406.167316</ele>
        <time>2021-11-13T10:01:54.122Z</time>
      </trkpt>
      <trkpt lat="47.647493" lon="7.898374">
        <ele>406.517632</ele>
        <time>2021-11-13T10:01:59.394Z</time>
      </trkpt>
      <trkpt lat="47.648220" lon="7.897956">
        <ele>407.989778</ele>
        <time>2021-11-13T10:02:19.655Z</time>
      </trkpt>
      <trkpt lat="47.648379" lon="7.897871">
        <ele>408.308888</ele>
        <time>2021-11-13T10:02:24.113Z</time>
      </trkpt>
      <trkpt lat="47.648924" lon="7.897475">
        <ele>409.441708</ele>
        <time>2021-11-13T10:02:34.619Z</time>
      </trkpt>
      <trkpt lat="47.649310" lon="7.897390">
        <ele>408.604746</ele>
        <time>2021-11-13T10:02:38.775Z</time>
      </trkpt>
      <trkpt lat="47.650323" lon="7.897381">
        <ele>406.432003</ele>
        <time>2021-11-13T10:02:49.341Z</time>
      </trkpt>
      <trkpt lat="47.650387" lon="7.897334">
        <ele>406.278855</ele>
        <time>2021-11-13T10:02:49.981Z</time>
      </trkpt>
      <trkpt lat="47.650543" lon="7.897274">
        <ele>405.933215</ele>
        <time>2021-11-13T10:02:51.847Z</time>
      </trkpt>
      <trkpt lat="47.650706" lon="7.897156">
        <ele>405.563843</ele>
        <time>2021-11-13T10:02:53.719Z</time>
      </trkpt>
      <trkpt lat="47.651383" lon="7.897117">
        <ele>404.721922</ele>
        <time>2021-11-13T10:03:01.561Z</time>
      </trkpt>
      <trkpt lat="47.651465" lon="7.897134">
        <ele>404.619034</ele>
        <time>2021-11-13T10:03:02.349Z</time>
      </trkpt>
      <trkpt lat="47.652153" lon="7.897594">
        <ele>403.681363</ele>
        <time>2021-11-13T10:03:11.909Z</time>
      </trkpt>
      <trkpt lat="47.652925" lon="7.897994">
        <ele>403.443166</ele>
        <time>2021-11-13T10:03:23.557Z</time>
      </trkpt>
      <trkpt lat="47.653340" lon="7.898105">
        <ele>403.509541</ele>
        <time>2021-11-13T10:03:30.239Z</time>
      </trkpt>
      <trkpt lat="47.653349" lon="7.897933">
        <ele>403.527834</ele>
        <time>2021-11-13T10:03:32.415Z</time>
      </trkpt>
      <trkpt lat="47.653356" lon="7.897817">
        <ele>403.540182</ele>
        <time>2021-11-13T10:03:33.986Z</time>
      </trkpt>
      <trkpt lat="47.653455" lon="7.897893">
        <ele>403.557726</ele>
        <time>2021-11-13T10:03:35.845Z</time>
      </trkpt>
      <trkpt lat="47.653625" lon="7.897881">
        <ele>403.584515</ele>
        <time>2021-11-13T10:03:38.516Z</time>
      </trkpt>
      <trkpt lat="47.653737" lon="7.897880">
        <ele>403.602145</ele>
        <time>2021-11-13T10:03:40.183Z</time>
      </trkpt>
      <trkpt lat="47.654085" lon="7.897876">
        <ele>403.953409</ele>
        <time>2021-11-13T10:03:46.235Z</time>
      </trkpt>
      <trkpt lat="47.654516" lon="7.897893">
        <ele>405.133113</ele>
        <time>2021-11-13T10:03:54.695Z</time>
      </trkpt>
      <trkpt lat="47.654620" lon="7.897827">
        <ele>405.442584</ele>
        <time>2021-11-13T10:03:57.500Z</time>
      </trkpt>
      <trkpt lat="47.654671" lon="7.897693">
        <ele>405.726253</ele>
        <time>2021-11-13T10:03:59.442Z</time>
      </trkpt>
      <trkpt lat="47.654759" lon="7.897508">
        <ele>406.143669</ele>
        <time>2021-11-13T10:04:02.939Z</time>
      </trkpt>
      <trkpt lat="47.654830" lon="7.897410">
        <ele>406.408931</ele>
        <time>2021-11-13T10:04:05.882Z</time>
      </trkpt>
      <trkpt lat="47.654896" lon="7.897368">
        <ele>406.605409</ele>
        <time>2021-11-13T10:04:07.844Z</time>
      </trkpt>
      <trkpt lat="47.655127" lon="7.897245">
        <ele>407.276888</ele>
        <time>2021-11-13T10:04:15.045Z</time>
      </trkpt>
      <trkpt lat="47.655258" lon="7.897190">
        <ele>407.649384</ele>
        <time>2021-11-13T10:04:19.245Z</time>
      </trkpt>
      <trkpt lat="47.655534" lon="7.897054">
        <ele>408.445077</ele>
        <time>2021-11-13T10:04:28.727Z</time>
      </trkpt>
      <trkpt lat="47.655905" lon="7.896871">
        <ele>410.568040</ele>
        <time>2021-11-13T10:04:42.631Z</time>
      </trkpt>
      <trkpt lat="47.655962" lon="7.896840">
        <ele>410.917415</ele>
        <time>2021-11-13T10:04:44.755Z</time>
      </trkpt>
      <trkpt lat="47.656232" lon="7.896661">
        <ele>412.619262</ele>
        <time>2021-11-13T10:04:56.317Z</time>
      </trkpt>
      <trkpt lat="47.656445" lon="7.896601">
        <ele>413.867025</ele>
        <time>2021-11-13T10:05:05.074Z</time>
      </trkpt>
      <trkpt lat="47.657005" lon="7.896393">
        <ele>417.189361</ele>
        <time>2021-11-13T10:05:27.265Z</time>
      </trkpt>
      <trkpt lat="47.657119" lon="7.896295">
        <ele>417.947524</ele>
        <time>2021-11-13T10:05:32.767Z</time>
      </trkpt>
      <trkpt lat="47.657456" lon="7.896121">
        <ele>419.984822</ele>
        <time>2021-11-13T10:05:46.808Z</time>
      </trkpt>
      <trkpt lat="47.657781" lon="7.896061">
        <ele>421.841675</ele>
        <time>2021-11-13T10:05:59.983Z</time>
      </trkpt>
      <trkpt lat="47.658638" lon="7.896213">
        <ele>426.735181</ele>
        <time>2021-11-13T10:06:32.876Z</time>
      </trkpt>
      <trkpt lat="47.659406" lon="7.896493">
        <ele>430.933010</ele>
        <time>2021-11-13T10:07:00.001Z</time>
      </trkpt>
      <trkpt lat="47.659607" lon="7.896559">
        <ele>431.941952</ele>
        <time>2021-11-13T10:07:06.462Z</time>
      </trkpt>
      <trkpt lat="47.659850" lon="7.896634">
        <ele>433.158401</ele>
        <time>2021-11-13T10:07:14.667Z</time>
      </trkpt>
      <trkpt lat="47.659874" lon="7.896641">
        <ele>433.278277</ele>
        <time>2021-11-13T10:07:15.546Z</time>
      </trkpt>
      <trkpt lat="47.660062" lon="7.896690">
        <ele>434.213789</ele>
        <time>2021-11-13T10:07:21.710Z</time>
      </trkpt>
      <trkpt lat="47.660302" lon="7.896626">
        <ele>435.408894</ele>
        <time>2021-11-13T10:07:30.560Z</time>
      </trkpt>
      <trkpt lat="47.660659" lon="7.896640">
        <ele>437.159226</ele>
        <time>2021-11-13T10:07:43.203Z</time>
      </trkpt>
      <trkpt lat="47.661037" lon="7.896802">
        <ele>439.570691</ele>
        <time>2021-11-13T10:07:56.833Z</time>
      </trkpt>
      <trkpt lat="47.661482" lon="7.896865">
        <ele>442.672503</ele>
        <time>2021-11-13T10:08:13.458Z</time>
      </trkpt>
      <trkpt lat="47.661952" lon="7.896865">
        <ele>445.933783</ele>
        <time>2021-11-13T10:08:33.488Z</time>
      </trkpt>
      <trkpt lat="47.662676" lon="7.896856">
        <ele>451.196119</ele>
        <time>2021-11-13T10:09:07.673Z</time>
      </trkpt>
      <trkpt lat="47.663221" lon="7.897245">
        <ele>457.204951</ele>
        <time>2021-11-13T10:09:40.787Z</time>
      </trkpt>
      <trkpt lat="47.663644" lon="7.897453">
        <ele>461.632749</ele>
        <time>2021-11-13T10:10:05.577Z</time>
      </trkpt>
      <trkpt lat="47.664397" lon="7.897764">
        <ele>469.343996</ele>
        <time>2021-11-13T10:10:50.120Z</time>
      </trkpt>
      <trkpt lat="47.664672" lon="7.897813">
        <ele>471.960436</ele>
        <time>2021-11-13T10:11:06.204Z</time>
      </trkpt>
      <trkpt lat="47.665403" lon="7.897994">
        <ele>478.961216</ele>
        <time>2021-11-13T10:11:47.973Z</time>
      </trkpt>
      <trkpt lat="47.665969" lon="7.898287">
        <ele>484.623572</ele>
        <time>2021-11-13T10:12:18.542Z</time>
      </trkpt>
      <trkpt lat="47.667110" lon="7.899108">
        <ele>491.617467</ele>
        <time>2021-11-13T10:13:06.867Z</time>
      </trkpt>
      <trkpt lat="47.667172" lon="7.899116">
        <ele>491.946804</ele>
        <time>2021-11-13T10:13:08.764Z</time>
      </trkpt>
      <trkpt lat="47.667501" lon="7.899157">
        <ele>493.693978</ele>
        <time>2021-11-13T10:13:17.028Z</time>
      </trkpt>
      <trkpt lat="47.668321" lon="7.899033">
        <ele>497.850822</ele>
        <time>2021-11-13T10:13:40.952Z</time>
      </trkpt>
      <trkpt lat="47.668572" lon="7.899060">
        <ele>499.099033</ele>
        <time>2021-11-13T10:13:49.556Z</time>
      </trkpt>
      <trkpt lat="47.669187" lon="7.899170">
        <ele>502.171455</ele>
        <time>2021-11-13T10:14:10.643Z</time>
      </trkpt>
      <trkpt lat="47.669299" lon="7.899211">
        <ele>502.743601</ele>
        <time>2021-11-13T10:14:16.415Z</time>
      </trkpt>
      <trkpt lat="47.669542" lon="7.899299">
        <ele>504.172984</ele>
        <time>2021-11-13T10:14:25.828Z</time>
      </trkpt>
      <trkpt lat="47.669903" lon="7.899518">
        <ele>507.435701</ele>
        <time>2021-11-13T10:14:43.994Z</time>
      </trkpt>
      <trkpt lat="47.671134" lon="7.899826">
        <ele>517.880358</ele>
        <time>2021-11-13T10:15:49.931Z</time>
      </trkpt>
      <trkpt lat="47.671397" lon="7.899850">
        <ele>519.613951</ele>
        <time>2021-11-13T10:16:01.729Z</time>
      </trkpt>
      <trkpt lat="47.671906" lon="7.899725">
        <ele>522.398096</ele>
        <time>2021-11-13T10:16:22.846Z</time>
      </trkpt>
      <trkpt lat="47.672365" lon="7.899567">
        <ele>524.940781</ele>
        <time>2021-11-13T10:16:39.643Z</time>
      </trkpt>
      <trkpt lat="47.672516" lon="7.899404">
        <ele>525.948187</ele>
        <time>2021-11-13T10:16:45.839Z</time>
      </trkpt>
      <trkpt lat="47.672822" lon="7.898768">
        <ele>528.587480</ele>
        <time>2021-11-13T10:17:01.018Z</time>
      </trkpt>
      <trkpt lat="47.673028" lon="7.898168">
        <ele>529.515414</ele>
        <time>2021-11-13T10:17:12.462Z</time>
      </trkpt>
      <trkpt lat="47.673717" lon="7.898148">
        <ele>530.925477</ele>
        <time>2021-11-13T10:17:26.896Z</time>
      </trkpt>
      <trkpt lat="47.674484" lon="7.897822">
        <ele>532.776342</ele>
        <time>2021-11-13T10:17:43.132Z</time>
      </trkpt>
      <trkpt lat="47.674787" lon="7.897778">
        <ele>533.728819</ele>
        <time>2021-11-13T10:17:50.084Z</time>
      </trkpt>
      <trkpt lat="47.675358" lon="7.897451">
        <ele>535.643443</ele>
        <time>2021-11-13T10:18:06.592Z</time>
      </trkpt>
      <trkpt lat="47.675674" lon="7.897272">
        <ele>536.701540</ele>
        <time>2021-11-13T10:18:16.647Z</time>
      </trkpt>
      <trkpt lat="47.675794" lon="7.897188">
        <ele>537.116579</ele>
        <time>2021-11-13T10:18:20.008Z</time>
      </trkpt>
      <trkpt lat="47.675954" lon="7.897092">
        <ele>537.656456</ele>
        <time>2021-11-13T10:18:26.452Z</time>
      </trkpt>
      <trkpt lat="47.676231" lon="7.897086">
        <ele>539.256264</ele>
        <time>2021-11-13T10:18:35.559Z</time>
      </trkpt>
      <trkpt lat="47.676805" lon="7.897406">
        <ele>543.046646</ele>
        <time>2021-11-13T10:18:58.985Z</time>
      </trkpt>
      <trkpt lat="47.677458" lon="7.897546">
        <ele>547.125505</ele>
        <time>2021-11-13T10:19:27.975Z</time>
      </trkpt>
      <trkpt lat="47.679793" lon="7.897757">
        <ele>561.295270</ele>
        <time>2021-11-13T10:21:06.460Z</time>
      </trkpt>
      <trkpt lat="47.680372" lon="7.898128">
        <ele>563.008954</ele>
        <time>2021-11-13T10:21:20.727Z</time>
      </trkpt>
      <trkpt lat="47.680508" lon="7.898151">
        <ele>563.380939</ele>
        <time>2021-11-13T10:21:25.784Z</time>
      </trkpt>
      <trkpt lat="47.680502" lon="7.898044">
        <ele>563.577392</ele>
        <time>2021-11-13T10:21:26.499Z</time>
      </trkpt>
      <trkpt lat="47.680377" lon="7.897827">
        <ele>564.099925</ele>
        <time>2021-11-13T10:21:30.541Z</time>
      </trkpt>
      <trkpt lat="47.680230" lon="7.897669">
        <ele>564.593044</ele>
        <time>2021-11-13T10:21:34.044Z</time>
      </trkpt>
      <trkpt lat="47.680109" lon="7.897540">
        <ele>564.997817</ele>
        <time>2021-11-13T10:21:36.601Z</time>
      </trkpt>
      <trkpt lat="47.679925" lon="7.897342">
        <ele>565.705158</ele>
        <time>2021-11-13T10:21:41.270Z</time>
      </trkpt>
      <trkpt lat="47.679843" lon="7.897271">
        <ele>566.148633</ele>
        <time>2021-11-13T10:21:42.388Z</time>
      </trkpt>
      <trkpt lat="47.679763" lon="7.897189">
        <ele>566.602783</ele>
        <time>2021-11-13T10:21:45.477Z</time>
      </trkpt>
      <trkpt lat="47.679561" lon="7.897143">
        <ele>567.557614</ele>
        <time>2021-11-13T10:21:48.670Z</time>
      </trkpt>
      <trkpt lat="47.679301" lon="7.896944">
        <ele>568.924220</ele>
        <time>2021-11-13T10:21:55.206Z</time>
      </trkpt>
      <trkpt lat="47.678958" lon="7.896803">
        <ele>570.587064</ele>
        <time>2021-11-13T10:22:05.165Z</time>
      </trkpt>
      <trkpt lat="47.678786" lon="7.896563">
        <ele>571.689713</ele>
        <time>2021-11-13T10:22:13.635Z</time>
      </trkpt>
      <trkpt lat="47.678642" lon="7.896118">
        <ele>573.242882</ele>
        <time>2021-11-13T10:22:28.506Z</time>
      </trkpt>
      <trkpt lat="47.678299" lon="7.896155">
        <ele>576.746844</ele>
        <time>2021-11-13T10:22:48.632Z</time>
      </trkpt>
      <trkpt lat="47.678138" lon="7.896059">
        <ele>579.166817</ele>
        <time>2021-11-13T10:22:59.908Z</time>
      </trkpt>
      <trkpt lat="47.677732" lon="7.895605">
        <ele>586.255675</ele>
        <time>2021-11-13T10:23:36.848Z</time>
      </trkpt>
      <trkpt lat="47.677297" lon="7.895390">
        <ele>592.650547</ele>
        <time>2021-11-13T10:24:13.603Z</time>
      </trkpt>
      <trkpt lat="47.677176" lon="7.895209">
        <ele>595.046038</ele>
        <time>2021-11-13T10:24:28.263Z</time>
      </trkpt>
      <trkpt lat="47.677119" lon="7.894496">
        <ele>600.446595</ele>
        <time>2021-11-13T10:25:06.034Z</time>
      </trkpt>
      <trkpt lat="47.676882" lon="7.894271">
        <ele>602.492774</ele>
        <time>2021-11-13T10:25:24.860Z</time>
      </trkpt>
      <trkpt lat="47.676720" lon="7.894017">
        <ele>604.206406</ele>
        <time>2021-11-13T10:25:41.311Z</time>
      </trkpt>
      <trkpt lat="47.676583" lon="7.893945">
        <ele>605.263564</ele>
        <time>2021-11-13T10:25:44.773Z</time>
      </trkpt>
      <trkpt lat="47.676282" lon="7.893947">
        <ele>607.453202</ele>
        <time>2021-11-13T10:25:58.249Z</time>
      </trkpt>
      <trkpt lat="47.676115" lon="7.894156">
        <ele>609.041841</ele>
        <time>2021-11-13T10:26:04.237Z</time>
      </trkpt>
      <trkpt lat="47.676071" lon="7.894188">
        <ele>609.398234</ele>
        <time>2021-11-13T10:26:08.357Z</time>
      </trkpt>
      <trkpt lat="47.675990" lon="7.894385">
        <ele>610.528836</ele>
        <time>2021-11-13T10:26:09.843Z</time>
      </trkpt>
      <trkpt lat="47.675704" lon="7.894768">
        <ele>611.382580</ele>
        <time>2021-11-13T10:26:14.707Z</time>
      </trkpt>
      <trkpt lat="47.675463" lon="7.894884">
        <ele>610.383653</ele>
        <time>2021-11-13T10:26:17.583Z</time>
      </trkpt>
      <trkpt lat="47.675223" lon="7.894888">
        <ele>609.437270</ele>
        <time>2021-11-13T10:26:19.808Z</time>
      </trkpt>
      <trkpt lat="47.674107" lon="7.894609">
        <ele>604.975070</ele>
        <time>2021-11-13T10:26:30.198Z</time>
      </trkpt>
      <trkpt lat="47.673727" lon="7.894339">
        <ele>604.596255</ele>
        <time>2021-11-13T10:26:34.558Z</time>
      </trkpt>
      <trkpt lat="47.673635" lon="7.894176">
        <ele>604.467468</ele>
        <time>2021-11-13T10:26:35.992Z</time>
      </trkpt>
      <trkpt lat="47.673604" lon="7.894092">
        <ele>604.409466</ele>
        <time>2021-11-13T10:26:37.967Z</time>
      </trkpt>
      <trkpt lat="47.673537" lon="7.893661">
        <ele>604.141623</ele>
        <time>2021-11-13T10:26:41.354Z</time>
      </trkpt>
      <trkpt lat="47.673625" lon="7.893258">
        <ele>603.885088</ele>
        <time>2021-11-13T10:26:46.640Z</time>
      </trkpt>
      <trkpt lat="47.674782" lon="7.891447">
        <ele>602.723467</ele>
        <time>2021-11-13T10:27:20.908Z</time>
      </trkpt>
      <trkpt lat="47.675215" lon="7.890749">
        <ele>602.353167</ele>
        <time>2021-11-13T10:27:27.928Z</time>
      </trkpt>
      <trkpt lat="47.675245" lon="7.890678">
        <ele>602.320462</ele>
        <time>2021-11-13T10:27:28.413Z</time>
      </trkpt>
      <trkpt lat="47.675251" lon="7.890415">
        <ele>601.102302</ele>
        <time>2021-11-13T10:27:30.085Z</time>
      </trkpt>
      <trkpt lat="47.675155" lon="7.890206">
        <ele>599.875716</ele>
        <time>2021-11-13T10:27:31.668Z</time>
      </trkpt>
      <trkpt lat="47.675009" lon="7.890144">
        <ele>598.782345</ele>
        <time>2021-11-13T10:27:33.032Z</time>
      </trkpt>
      <trkpt lat="47.674908" lon="7.890178">
        <ele>598.036669</ele>
        <time>2021-11-13T10:27:34.090Z</time>
      </trkpt>
      <trkpt lat="47.674709" lon="7.890290">
        <ele>596.504375</ele>
        <time>2021-11-13T10:27:35.938Z</time>
      </trkpt>
      <trkpt lat="47.674471" lon="7.890481">
        <ele>594.556516</ele>
        <time>2021-11-13T10:27:38.323Z</time>
      </trkpt>
      <trkpt lat="47.674236" lon="7.890668">
        <ele>592.636866</ele>
        <time>2021-11-13T10:27:40.751Z</time>
      </trkpt>
      <trkpt lat="47.674156" lon="7.890736">
        <ele>591.973169</ele>
        <time>2021-11-13T10:27:41.522Z</time>
      </trkpt>
      <trkpt lat="47.674041" lon="7.890821">
        <ele>591.048255</ele>
        <time>2021-11-13T10:27:42.643Z</time>
      </trkpt>
      <trkpt lat="47.673804" lon="7.890907">
        <ele>589.279208</ele>
        <time>2021-11-13T10:27:44.770Z</time>
      </trkpt>
      <trkpt lat="47.673525" lon="7.890900">
        <ele>586.929766</ele>
        <time>2021-11-13T10:27:47.244Z</time>
      </trkpt>
      <trkpt lat="47.673512" lon="7.890898">
        <ele>586.819724</ele>
        <time>2021-11-13T10:27:47.351Z</time>
      </trkpt>
      <trkpt lat="47.673278" lon="7.890867">
        <ele>584.841682</ele>
        <time>2021-11-13T10:27:49.404Z</time>
      </trkpt>
      <trkpt lat="47.672857" lon="7.890811">
        <ele>581.282782</ele>
        <time>2021-11-13T10:27:53.126Z</time>
      </trkpt>
      <trkpt lat="47.672648" lon="7.890724">
        <ele>579.455234</ele>
        <time>2021-11-13T10:27:55.001Z</time>
      </trkpt>
      <trkpt lat="47.672497" lon="7.890528">
        <ele>577.766669</ele>
        <time>2021-11-13T10:27:56.784Z</time>
      </trkpt>
      <trkpt lat="47.671635" lon="7.888951">
        <ele>566.656267</ele>
        <time>2021-11-13T10:28:08.925Z</time>
      </trkpt>
      <trkpt lat="47.671576" lon="7.888763">
        <ele>565.540134</ele>
        <time>2021-11-13T10:28:10.169Z</time>
      </trkpt>
      <trkpt lat="47.671514" lon="7.888569">
        <ele>564.384579</ele>
        <time>2021-11-13T10:28:11.437Z</time>
      </trkpt>
      <trkpt lat="47.670667" lon="7.887599">
        <ele>555.702446</ele>
        <time>2021-11-13T10:28:20.827Z</time>
      </trkpt>
      <trkpt lat="47.670488" lon="7.887497">
        <ele>554.118884</ele>
        <time>2021-11-13T10:28:22.512Z</time>
      </trkpt>
      <trkpt lat="47.670288" lon="7.887483">
        <ele>552.465147</ele>
        <time>2021-11-13T10:28:24.244Z</time>
      </trkpt>
      <trkpt lat="47.670192" lon="7.887398">
        <ele>551.541990</ele>
        <time>2021-11-13T10:28:25.230Z</time>
      </trkpt>
      <trkpt lat="47.670075" lon="7.886999">
        <ele>549.121500</ele>
        <time>2021-11-13T10:28:27.819Z</time>
      </trkpt>
      <trkpt lat="47.669951" lon="7.886802">
        <ele>547.621662</ele>
        <time>2021-11-13T10:28:29.417Z</time>
      </trkpt>
      <trkpt lat="47.669541" lon="7.886582">
        <ele>544.287651</ele>
        <time>2021-11-13T10:28:33.275Z</time>
      </trkpt>
      <trkpt lat="47.668960" lon="7.886016">
        <ele>540.125968</ele>
        <time>2021-11-13T10:28:39.488Z</time>
      </trkpt>
      <trkpt lat="47.668622" lon="7.885813">
        <ele>537.942316</ele>
        <time>2021-11-13T10:28:42.833Z</time>
      </trkpt>
      <trkpt lat="47.668255" lon="7.885409">
        <ele>535.206183</ele>
        <time>2021-11-13T10:28:47.156Z</time>
      </trkpt>
      <trkpt lat="47.667878" lon="7.885334">
        <ele>533.855787</ele>
        <time>2021-11-13T10:28:50.907Z</time>
      </trkpt>
      <trkpt lat="47.667768" lon="7.885265">
        <ele>533.654670</ele>
        <time>2021-11-13T10:28:52.138Z</time>
      </trkpt>
      <trkpt lat="47.667632" lon="7.885067">
        <ele>533.333888</ele>
        <time>2021-11-13T10:28:54.131Z</time>
      </trkpt>
      <trkpt lat="47.667555" lon="7.884878">
        <ele>533.083345</ele>
        <time>2021-11-13T10:28:55.774Z</time>
      </trkpt>
      <trkpt lat="47.667435" lon="7.884118">
        <ele>532.197962</ele>
        <time>2021-11-13T10:29:02.033Z</time>
      </trkpt>
      <trkpt lat="47.667179" lon="7.883237">
        <ele>531.174428</ele>
        <time>2021-11-13T10:29:10.902Z</time>
      </trkpt>
      <trkpt lat="47.667040" lon="7.882492">
        <ele>531.009874</ele>
        <time>2021-11-13T10:29:18.710Z</time>
      </trkpt>
      <trkpt lat="47.667087" lon="7.881969">
        <ele>530.897562</ele>
        <time>2021-11-13T10:29:23.793Z</time>
      </trkpt>
      <trkpt lat="47.667448" lon="7.880196">
        <ele>530.289364</ele>
        <time>2021-11-13T10:29:40.701Z</time>
      </trkpt>
      <trkpt lat="47.667461" lon="7.880098">
        <ele>530.229422</ele>
        <time>2021-11-13T10:29:41.493Z</time>
      </trkpt>
      <trkpt lat="47.667457" lon="7.880001">
        <ele>530.171102</ele>
        <time>2021-11-13T10:29:42.367Z</time>
      </trkpt>
      <trkpt lat="47.667446" lon="7.879912">
        <ele>530.116800</ele>
        <time>2021-11-13T10:29:43.098Z</time>
      </trkpt>
      <trkpt lat="47.667333" lon="7.879752">
        <ele>529.977662</ele>
        <time>2021-11-13T10:29:45.075Z</time>
      </trkpt>
      <trkpt lat="47.667219" lon="7.879671">
        <ele>529.865042</ele>
        <time>2021-11-13T10:29:46.626Z</time>
      </trkpt>
      <trkpt lat="47.667113" lon="7.879712">
        <ele>529.767431</ele>
        <time>2021-11-13T10:29:47.916Z</time>
      </trkpt>
      <trkpt lat="47.666773" lon="7.879844">
        <ele>529.454263</ele>
        <time>2021-11-13T10:29:52.250Z</time>
      </trkpt>
      <trkpt lat="47.666529" lon="7.879633">
        <ele>529.202644</ele>
        <time>2021-11-13T10:29:55.709Z</time>
      </trkpt>
      <trkpt lat="47.666343" lon="7.879182">
        <ele>528.679701</ele>
        <time>2021-11-13T10:29:59.938Z</time>
      </trkpt>
      <trkpt lat="47.666077" lon="7.879049">
        <ele>528.042394</ele>
        <time>2021-11-13T10:30:03.205Z</time>
      </trkpt>
      <trkpt lat="47.665717" lon="7.878973">
        <ele>527.216751</ele>
        <time>2021-11-13T10:30:07.249Z</time>
      </trkpt>
      <trkpt lat="47.665474" lon="7.878934">
        <ele>526.661776</ele>
        <time>2021-11-13T10:30:09.934Z</time>
      </trkpt>
      <trkpt lat="47.665177" lon="7.878293">
        <ele>525.471998</ele>
        <time>2021-11-13T10:30:15.437Z</time>
      </trkpt>
      <trkpt lat="47.664810" lon="7.878152">
        <ele>524.248408</ele>
        <time>2021-11-13T10:30:19.226Z</time>
      </trkpt>
      <trkpt lat="47.664394" lon="7.877271">
        <ele>520.753548</ele>
        <time>2021-11-13T10:30:26.172Z</time>
      </trkpt>
      <trkpt lat="47.664340" lon="7.876839">
        <ele>519.326396</ele>
        <time>2021-11-13T10:30:28.889Z</time>
      </trkpt>
      <trkpt lat="47.664368" lon="7.876514">
        <ele>518.262155</ele>
        <time>2021-11-13T10:30:30.943Z</time>
      </trkpt>
      <trkpt lat="47.664567" lon="7.876066">
        <ele>516.518991</ele>
        <time>2021-11-13T10:30:34.287Z</time>
      </trkpt>
      <trkpt lat="47.664636" lon="7.875782">
        <ele>515.697074</ele>
        <time>2021-11-13T10:30:36.148Z</time>
      </trkpt>
      <trkpt lat="47.664573" lon="7.875381">
        <ele>514.654097</ele>
        <time>2021-11-13T10:30:38.789Z</time>
      </trkpt>
      <trkpt lat="47.664355" lon="7.875148">
        <ele>513.643875</ele>
        <time>2021-11-13T10:30:41.403Z</time>
      </trkpt>
      <trkpt lat="47.664237" lon="7.875062">
        <ele>513.149497</ele>
        <time>2021-11-13T10:30:42.616Z</time>
      </trkpt>
      <trkpt lat="47.664191" lon="7.875019">
        <ele>512.945060</ele>
        <time>2021-11-13T10:30:43.137Z</time>
      </trkpt>
      <trkpt lat="47.664085" lon="7.874833">
        <ele>512.327889</ele>
        <time>2021-11-13T10:30:44.858Z</time>
      </trkpt>
      <trkpt lat="47.663999" lon="7.874505">
        <ele>511.436337</ele>
        <time>2021-11-13T10:30:47.166Z</time>
      </trkpt>
      <trkpt lat="47.664003" lon="7.874385">
        <ele>511.132009</ele>
        <time>2021-11-13T10:30:48.081Z</time>
      </trkpt>
      <trkpt lat="47.664019" lon="7.873861">
        <ele>509.803374</ele>
        <time>2021-11-13T10:30:51.821Z</time>
      </trkpt>
      <trkpt lat="47.663924" lon="7.872838">
        <ele>508.876480</ele>
        <time>2021-11-13T10:30:59.755Z</time>
      </trkpt>
      <trkpt lat="47.664011" lon="7.872518">
        <ele>508.642294</ele>
        <time>2021-11-13T10:31:03.195Z</time>
      </trkpt>
      <trkpt lat="47.664406" lon="7.872035">
        <ele>508.126686</ele>
        <time>2021-11-13T10:31:10.300Z</time>
      </trkpt>
      <trkpt lat="47.664519" lon="7.871876">
        <ele>507.969819</ele>
        <time>2021-11-13T10:31:12.332Z</time>
      </trkpt>
      <trkpt lat="47.664596" lon="7.871769">
        <ele>507.863554</ele>
        <time>2021-11-13T10:31:13.715Z</time>
      </trkpt>
      <trkpt lat="47.664782" lon="7.871262">
        <ele>507.247978</ele>
        <time>2021-11-13T10:31:18.544Z</time>
      </trkpt>
      <trkpt lat="47.664834" lon="7.871018">
        <ele>506.889578</ele>
        <time>2021-11-13T10:31:20.590Z</time>
      </trkpt>
      <trkpt lat="47.664859" lon="7.870699">
        <ele>506.439834</ele>
        <time>2021-11-13T10:31:23.180Z</time>
      </trkpt>
      <trkpt lat="47.664866" lon="7.870622">
        <ele>506.331024</ele>
        <time>2021-11-13T10:31:23.800Z</time>
      </trkpt>
      <trkpt lat="47.664905" lon="7.870231">
        <ele>505.777493</ele>
        <time>2021-11-13T10:31:26.613Z</time>
      </trkpt>
      <trkpt lat="47.665036" lon="7.869565">
        <ele>504.805858</ele>
        <time>2021-11-13T10:31:31.593Z</time>
      </trkpt>
      <trkpt lat="47.665035" lon="7.869390">
        <ele>504.560778</ele>
        <time>2021-11-13T10:31:32.825Z</time>
      </trkpt>
      <trkpt lat="47.664961" lon="7.869182">
        <ele>504.231348</ele>
        <time>2021-11-13T10:31:34.419Z</time>
      </trkpt>
      <trkpt lat="47.664909" lon="7.869051">
        <ele>504.018400</ele>
        <time>2021-11-13T10:31:35.492Z</time>
      </trkpt>
      <trkpt lat="47.664873" lon="7.868769">
        <ele>503.462457</ele>
        <time>2021-11-13T10:31:37.424Z</time>
      </trkpt>
      <trkpt lat="47.664903" lon="7.868588">
        <ele>503.077958</ele>
        <time>2021-11-13T10:31:38.704Z</time>
      </trkpt>
      <trkpt lat="47.664934" lon="7.868452">
        <ele>502.781791</ele>
        <time>2021-11-13T10:31:39.666Z</time>
      </trkpt>
      <trkpt lat="47.664936" lon="7.868313">
        <ele>502.495004</ele>
        <time>2021-11-13T10:31:40.634Z</time>
      </trkpt>
      <trkpt lat="47.664918" lon="7.868221">
        <ele>502.297385</ele>
        <time>2021-11-13T10:31:41.237Z</time>
      </trkpt>
      <trkpt lat="47.664596" lon="7.867700">
        <ele>500.838734</ele>
        <time>2021-11-13T10:31:46.081Z</time>
      </trkpt>
      <trkpt lat="47.664003" lon="7.866254">
        <ele>497.497369</ele>
        <time>2021-11-13T10:31:57.837Z</time>
      </trkpt>
      <trkpt lat="47.663923" lon="7.866058">
        <ele>497.090261</ele>
        <time>2021-11-13T10:31:59.409Z</time>
      </trkpt>
      <trkpt lat="47.663892" lon="7.865949">
        <ele>496.880086</ele>
        <time>2021-11-13T10:32:00.253Z</time>
      </trkpt>
      <trkpt lat="47.663839" lon="7.865713">
        <ele>496.438181</ele>
        <time>2021-11-13T10:32:02.035Z</time>
      </trkpt>
      <trkpt lat="47.663827" lon="7.865633">
        <ele>496.292593</ele>
        <time>2021-11-13T10:32:02.621Z</time>
      </trkpt>
      <trkpt lat="47.663827" lon="7.865552">
        <ele>496.148710</ele>
        <time>2021-11-13T10:32:03.154Z</time>
      </trkpt>
      <trkpt lat="47.664002" lon="7.864318">
        <ele>493.908659</ele>
        <time>2021-11-13T10:32:12.197Z</time>
      </trkpt>
      <trkpt lat="47.664021" lon="7.864190">
        <ele>493.676367</ele>
        <time>2021-11-13T10:32:13.116Z</time>
      </trkpt>
      <trkpt lat="47.664000" lon="7.863904">
        <ele>493.186027</ele>
        <time>2021-11-13T10:32:15.109Z</time>
      </trkpt>
      <trkpt lat="47.663792" lon="7.863141">
        <ele>491.783088</ele>
        <time>2021-11-13T10:32:21.104Z</time>
      </trkpt>
      <trkpt lat="47.663642" lon="7.862822">
        <ele>491.119981</ele>
        <time>2021-11-13T10:32:23.850Z</time>
      </trkpt>
      <trkpt lat="47.663518" lon="7.862682">
        <ele>490.725756</ele>
        <time>2021-11-13T10:32:25.512Z</time>
      </trkpt>
      <trkpt lat="47.663351" lon="7.862622">
        <ele>490.290931</ele>
        <time>2021-11-13T10:32:27.292Z</time>
      </trkpt>
      <trkpt lat="47.662974" lon="7.862586">
        <ele>489.334880</ele>
        <time>2021-11-13T10:32:31.184Z</time>
      </trkpt>
      <trkpt lat="47.662849" lon="7.862528">
        <ele>488.960840</ele>
        <time>2021-11-13T10:32:32.646Z</time>
      </trkpt>
      <trkpt lat="47.662642" lon="7.862380">
        <ele>488.194112</ele>
        <time>2021-11-13T10:32:35.025Z</time>
      </trkpt>
      <trkpt lat="47.662548" lon="7.862218">
        <ele>487.713500</ele>
        <time>2021-11-13T10:32:36.575Z</time>
      </trkpt>
      <trkpt lat="47.662380" lon="7.861444">
        <ele>485.885726</ele>
        <time>2021-11-13T10:32:42.140Z</time>
      </trkpt>
      <trkpt lat="47.662419" lon="7.860491">
        <ele>483.739786</ele>
        <time>2021-11-13T10:32:48.520Z</time>
      </trkpt>
      <trkpt lat="47.662565" lon="7.859546">
        <ele>481.666546</ele>
        <time>2021-11-13T10:32:54.840Z</time>
      </trkpt>
      <trkpt lat="47.662575" lon="7.859180">
        <ele>480.898648</ele>
        <time>2021-11-13T10:32:57.234Z</time>
      </trkpt>
      <trkpt lat="47.662535" lon="7.858830">
        <ele>480.154435</ele>
        <time>2021-11-13T10:32:59.587Z</time>
      </trkpt>
      <trkpt lat="47.662377" lon="7.858337">
        <ele>479.009883</ele>
        <time>2021-11-13T10:33:03.312Z</time>
      </trkpt>
      <trkpt lat="47.662143" lon="7.857943">
        <ele>477.908641</ele>
        <time>2021-11-13T10:33:07.049Z</time>
      </trkpt>
      <trkpt lat="47.661786" lon="7.857663">
        <ele>477.742257</ele>
        <time>2021-11-13T10:33:11.707Z</time>
      </trkpt>
      <trkpt lat="47.660679" lon="7.857529">
        <ele>478.548285</ele>
        <time>2021-11-13T10:33:34.005Z</time>
      </trkpt>
      <trkpt lat="47.660424" lon="7.857425">
        <ele>478.740196</ele>
        <time>2021-11-13T10:33:40.450Z</time>
      </trkpt>
      <trkpt lat="47.660400" lon="7.857415">
        <ele>478.758286</ele>
        <time>2021-11-13T10:33:41.354Z</time>
      </trkpt>
      <trkpt lat="47.660191" lon="7.857136">
        <ele>478.561534</ele>
        <time>2021-11-13T10:33:47.347Z</time>
      </trkpt>
      <trkpt lat="47.660145" lon="7.856675">
        <ele>478.033995</ele>
        <time>2021-11-13T10:33:53.989Z</time>
      </trkpt>
      <trkpt lat="47.660170" lon="7.856510">
        <ele>477.842550</ele>
        <time>2021-11-13T10:33:56.700Z</time>
      </trkpt>
      <trkpt lat="47.660241" lon="7.856139">
        <ele>477.405961</ele>
        <time>2021-11-13T10:33:59.484Z</time>
      </trkpt>
      <trkpt lat="47.660254" lon="7.856070">
        <ele>477.324857</ele>
        <time>2021-11-13T10:34:00.366Z</time>
      </trkpt>
      <trkpt lat="47.660340" lon="7.855600">
        <ele>476.773542</ele>
        <time>2021-11-13T10:34:03.841Z</time>
      </trkpt>
      <trkpt lat="47.660419" lon="7.854745">
        <ele>475.704299</ele>
        <time>2021-11-13T10:34:09.543Z</time>
      </trkpt>
      <trkpt lat="47.660428" lon="7.854469">
        <ele>474.068199</ele>
        <time>2021-11-13T10:34:11.389Z</time>
      </trkpt>
      <trkpt lat="47.660442" lon="7.854217">
        <ele>472.571049</ele>
        <time>2021-11-13T10:34:12.886Z</time>
      </trkpt>
      <trkpt lat="47.660433" lon="7.853291">
        <ele>467.087667</ele>
        <time>2021-11-13T10:34:18.352Z</time>
      </trkpt>
      <trkpt lat="47.660385" lon="7.852986">
        <ele>465.233129</ele>
        <time>2021-11-13T10:34:20.160Z</time>
      </trkpt>
      <trkpt lat="47.660222" lon="7.852517">
        <ele>462.108277</ele>
        <time>2021-11-13T10:34:23.186Z</time>
      </trkpt>
      <trkpt lat="47.659858" lon="7.852074">
        <ele>457.526270</ele>
        <time>2021-11-13T10:34:27.180Z</time>
      </trkpt>
      <trkpt lat="47.659772" lon="7.851936">
        <ele>456.170059</ele>
        <time>2021-11-13T10:34:28.264Z</time>
      </trkpt>
      <trkpt lat="47.659737" lon="7.851695">
        <ele>454.391643</ele>
        <time>2021-11-13T10:34:29.670Z</time>
      </trkpt>
      <trkpt lat="47.659825" lon="7.851429">
        <ele>452.253872</ele>
        <time>2021-11-13T10:34:31.384Z</time>
      </trkpt>
      <trkpt lat="47.659865" lon="7.851365">
        <ele>451.624061</ele>
        <time>2021-11-13T10:34:31.872Z</time>
      </trkpt>
      <trkpt lat="47.659889" lon="7.851325">
        <ele>451.237634</ele>
        <time>2021-11-13T10:34:32.181Z</time>
      </trkpt>
      <trkpt lat="47.659980" lon="7.851203">
        <ele>449.924488</ele>
        <time>2021-11-13T10:34:33.242Z</time>
      </trkpt>
      <trkpt lat="47.660133" lon="7.850964">
        <ele>447.545963</ele>
        <time>2021-11-13T10:34:35.125Z</time>
      </trkpt>
      <trkpt lat="47.660423" lon="7.850559">
        <ele>443.281982</ele>
        <time>2021-11-13T10:34:38.527Z</time>
      </trkpt>
      <trkpt lat="47.660630" lon="7.850158">
        <ele>439.935498</ele>
        <time>2021-11-13T10:34:41.456Z</time>
      </trkpt>
      <trkpt lat="47.660732" lon="7.849851">
        <ele>438.131742</ele>
        <time>2021-11-13T10:34:43.484Z</time>
      </trkpt>
      <trkpt lat="47.660953" lon="7.848671">
        <ele>431.678208</ele>
        <time>2021-11-13T10:34:50.702Z</time>
      </trkpt>
      <trkpt lat="47.660987" lon="7.848340">
        <ele>429.913951</ele>
        <time>2021-11-13T10:34:52.727Z</time>
      </trkpt>
      <trkpt lat="47.660945" lon="7.847588">
        <ele>426.162006</ele>
        <time>2021-11-13T10:34:57.413Z</time>
      </trkpt>
      <trkpt lat="47.660753" lon="7.846503">
        <ele>422.056161</ele>
        <time>2021-11-13T10:35:04.658Z</time>
      </trkpt>
      <trkpt lat="47.660583" lon="7.846064">
        <ele>420.202787</ele>
        <time>2021-11-13T10:35:07.918Z</time>
      </trkpt>
      <trkpt lat="47.660091" lon="7.845247">
        <ele>415.853397</ele>
        <time>2021-11-13T10:35:14.736Z</time>
      </trkpt>
      <trkpt lat="47.659916" lon="7.844774">
        <ele>412.931926</ele>
        <time>2021-11-13T10:35:17.944Z</time>
      </trkpt>
      <trkpt lat="47.659878" lon="7.844501">
        <ele>411.422810</ele>
        <time>2021-11-13T10:35:19.598Z</time>
      </trkpt>
      <trkpt lat="47.659894" lon="7.844140">
        <ele>409.464309</ele>
        <time>2021-11-13T10:35:21.733Z</time>
      </trkpt>
      <trkpt lat="47.659891" lon="7.843834">
        <ele>407.807602</ele>
        <time>2021-11-13T10:35:23.518Z</time>
      </trkpt>
      <trkpt lat="47.659785" lon="7.843448">
        <ele>405.550979</ele>
        <time>2021-11-13T10:35:25.981Z</time>
      </trkpt>
      <trkpt lat="47.659699" lon="7.843338">
        <ele>404.638621</ele>
        <time>2021-11-13T10:35:26.964Z</time>
      </trkpt>
      <trkpt lat="47.659589" lon="7.843262">
        <ele>403.663454</ele>
        <time>2021-11-13T10:35:28.028Z</time>
      </trkpt>
      <trkpt lat="47.659622" lon="7.843157">
        <ele>403.036196</ele>
        <time>2021-11-13T10:35:28.712Z</time>
      </trkpt>
      <trkpt lat="47.659669" lon="7.843010">
        <ele>402.236391</ele>
        <time>2021-11-13T10:35:29.666Z</time>
      </trkpt>
      <trkpt lat="47.659680" lon="7.842973">
        <ele>402.079595</ele>
        <time>2021-11-13T10:35:29.901Z</time>
      </trkpt>
      <trkpt lat="47.660044" lon="7.841843">
        <ele>397.223533</ele>
        <time>2021-11-13T10:35:37.395Z</time>
      </trkpt>
      <trkpt lat="47.660240" lon="7.841356">
        <ele>395.024137</ele>
        <time>2021-11-13T10:35:40.971Z</time>
      </trkpt>
      <trkpt lat="47.660342" lon="7.841019">
        <ele>393.591799</ele>
        <time>2021-11-13T10:35:43.350Z</time>
      </trkpt>
      <trkpt lat="47.660358" lon="7.840966">
        <ele>393.366633</ele>
        <time>2021-11-13T10:35:43.751Z</time>
      </trkpt>
      <trkpt lat="47.660427" lon="7.840766">
        <ele>392.495474</ele>
        <time>2021-11-13T10:35:45.418Z</time>
      </trkpt>
      <trkpt lat="47.660496" lon="7.840519">
        <ele>391.965827</ele>
        <time>2021-11-13T10:35:47.462Z</time>
      </trkpt>
      <trkpt lat="47.660645" lon="7.840066">
        <ele>391.586278</ele>
        <time>2021-11-13T10:35:51.534Z</time>
      </trkpt>
      <trkpt lat="47.660970" lon="7.839136">
        <ele>390.797467</ele>
        <time>2021-11-13T10:36:01.143Z</time>
      </trkpt>
      <trkpt lat="47.660988" lon="7.839085">
        <ele>390.754118</ele>
        <time>2021-11-13T10:36:01.659Z</time>
      </trkpt>
      <trkpt lat="47.660997" lon="7.839060">
        <ele>390.732777</ele>
        <time>2021-11-13T10:36:01.896Z</time>
      </trkpt>
      <trkpt lat="47.661006" lon="7.839036">
        <ele>390.712096</ele>
        <time>2021-11-13T10:36:02.122Z</time>
      </trkpt>
      <trkpt lat="47.661097" lon="7.838798">
        <ele>390.506053</ele>
        <time>2021-11-13T10:36:04.572Z</time>
      </trkpt>
      <trkpt lat="47.661129" lon="7.838704">
        <ele>390.426757</ele>
        <time>2021-11-13T10:36:05.453Z</time>
      </trkpt>
      <trkpt lat="47.661207" lon="7.838474">
        <ele>390.232885</ele>
        <time>2021-11-13T10:36:07.558Z</time>
      </trkpt>
      <trkpt lat="47.661309" lon="7.838191">
        <ele>389.969699</ele>
        <time>2021-11-13T10:36:10.175Z</time>
      </trkpt>
      <trkpt lat="47.661355" lon="7.838066">
        <ele>389.835677</ele>
        <time>2021-11-13T10:36:11.274Z</time>
      </trkpt>
      <trkpt lat="47.661387" lon="7.838089">
        <ele>389.786011</ele>
        <time>2021-11-13T10:36:11.694Z</time>
      </trkpt>
      <trkpt lat="47.661422" lon="7.838095">
        <ele>389.736792</ele>
        <time>2021-11-13T10:36:12.123Z</time>
      </trkpt>
      <trkpt lat="47.661457" lon="7.838084">
        <ele>389.686814</ele>
        <time>2021-11-13T10:36:12.567Z</time>
      </trkpt>
      <trkpt lat="47.661487" lon="7.838057">
        <ele>389.637806</ele>
        <time>2021-11-13T10:36:12.990Z</time>
      </trkpt>
      <trkpt lat="47.661509" lon="7.838016">
        <ele>389.588483</ele>
        <time>2021-11-13T10:36:13.412Z</time>
      </trkpt>
      <trkpt lat="47.661522" lon="7.837967">
        <ele>389.538932</ele>
        <time>2021-11-13T10:36:13.825Z</time>
      </trkpt>
      <trkpt lat="47.661523" lon="7.837917">
        <ele>389.491867</ele>
        <time>2021-11-13T10:36:14.193Z</time>
      </trkpt>
      <trkpt lat="47.661494" lon="7.837853">
        <ele>389.419290</ele>
        <time>2021-11-13T10:36:14.800Z</time>
      </trkpt>
      <trkpt lat="47.661469" lon="7.837798">
        <ele>389.356859</ele>
        <time>2021-11-13T10:36:15.296Z</time>
      </trkpt>
      <trkpt lat="47.661437" lon="7.837781">
        <ele>389.309380</ele>
        <time>2021-11-13T10:36:15.668Z</time>
      </trkpt>
      <trkpt lat="47.661405" lon="7.837779">
        <ele>389.264637</ele>
        <time>2021-11-13T10:36:16.051Z</time>
      </trkpt>
      <trkpt lat="47.661347" lon="7.837817">
        <ele>389.176073</ele>
        <time>2021-11-13T10:36:16.823Z</time>
      </trkpt>
      <trkpt lat="47.661326" lon="7.837853">
        <ele>389.131263</ele>
        <time>2021-11-13T10:36:17.201Z</time>
      </trkpt>
      <trkpt lat="47.661264" lon="7.837815">
        <ele>389.037560</ele>
        <time>2021-11-13T10:36:17.980Z</time>
      </trkpt>
      <trkpt lat="47.661051" lon="7.837680">
        <ele>388.714024</ele>
        <time>2021-11-13T10:36:20.594Z</time>
      </trkpt>
      <trkpt lat="47.660423" lon="7.837268">
        <ele>387.754886</ele>
        <time>2021-11-13T10:36:28.371Z</time>
      </trkpt>
      <trkpt lat="47.659582" lon="7.836748">
        <ele>386.793220</ele>
        <time>2021-11-13T10:36:39.136Z</time>
      </trkpt>
      <trkpt lat="47.659525" lon="7.836713">
        <ele>386.731807</ele>
        <time>2021-11-13T10:36:39.803Z</time>
      </trkpt>
      <trkpt lat="47.659497" lon="7.836695">
        <ele>386.701427</ele>
        <time>2021-11-13T10:36:40.184Z</time>
      </trkpt>
      <trkpt lat="47.659303" lon="7.836576">
        <ele>386.492436</ele>
        <time>2021-11-13T10:36:42.828Z</time>
      </trkpt>
      <trkpt lat="47.658971" lon="7.836370">
        <ele>386.134176</ele>
        <time>2021-11-13T10:36:47.383Z</time>
      </trkpt>
      <trkpt lat="47.658828" lon="7.836282">
        <ele>385.980053</ele>
        <time>2021-11-13T10:36:49.315Z</time>
      </trkpt>
      <trkpt lat="47.658780" lon="7.836252">
        <ele>385.928200</ele>
        <time>2021-11-13T10:36:50.109Z</time>
      </trkpt>
      <trkpt lat="47.658426" lon="7.836034">
        <ele>385.651173</ele>
        <time>2021-11-13T10:36:55.323Z</time>
      </trkpt>
      <trkpt lat="47.658247" lon="7.835940">
        <ele>385.549069</ele>
        <time>2021-11-13T10:36:57.978Z</time>
      </trkpt>
      <trkpt lat="47.657840" lon="7.835631">
        <ele>385.303242</ele>
        <time>2021-11-13T10:37:04.261Z</time>
      </trkpt>
      <trkpt lat="47.657554" lon="7.835432">
        <ele>385.133389</ele>
        <time>2021-11-13T10:37:08.472Z</time>
      </trkpt>
      <trkpt lat="47.657383" lon="7.835308">
        <ele>385.031048</ele>
        <time>2021-11-13T10:37:10.966Z</time>
      </trkpt>
      <trkpt lat="47.657334" lon="7.835275">
        <ele>385.002114</ele>
        <time>2021-11-13T10:37:11.657Z</time>
      </trkpt>
      <trkpt lat="47.656421" lon="7.834647">
        <ele>384.234420</ele>
        <time>2021-11-13T10:37:24.287Z</time>
      </trkpt>
      <trkpt lat="47.656161" lon="7.834468">
        <ele>383.979289</ele>
        <time>2021-11-13T10:37:27.822Z</time>
      </trkpt>
      <trkpt lat="47.655899" lon="7.834288">
        <ele>383.722291</ele>
        <time>2021-11-13T10:37:31.332Z</time>
      </trkpt>
      <trkpt lat="47.655684" lon="7.834082">
        <ele>383.494497</ele>
        <time>2021-11-13T10:37:34.435Z</time>
      </trkpt>
      <trkpt lat="47.655431" lon="7.833824">
        <ele>383.221258</ele>
        <time>2021-11-13T10:37:38.195Z</time>
      </trkpt>
      <trkpt lat="47.655190" lon="7.833566">
        <ele>382.935168</ele>
        <time>2021-11-13T10:37:41.857Z</time>
      </trkpt>
      <trkpt lat="47.654887" lon="7.833262">
        <ele>382.581366</ele>
        <time>2021-11-13T10:37:46.436Z</time>
      </trkpt>
      <trkpt lat="47.654646" lon="7.833026">
        <ele>382.302055</ele>
        <time>2021-11-13T10:37:50.047Z</time>
      </trkpt>
      <trkpt lat="47.654403" lon="7.832787">
        <ele>382.020052</ele>
        <time>2021-11-13T10:37:53.648Z</time>
      </trkpt>
      <trkpt lat="47.653726" lon="7.831856">
        <ele>381.095372</ele>
        <time>2021-11-13T10:38:04.774Z</time>
      </trkpt>
      <trkpt lat="47.653079" lon="7.830915">
        <ele>380.136477</ele>
        <time>2021-11-13T10:38:15.737Z</time>
      </trkpt>
      <trkpt lat="47.653017" lon="7.830816">
        <ele>380.040078</ele>
        <time>2021-11-13T10:38:16.855Z</time>
      </trkpt>
      <trkpt lat="47.652858" lon="7.830561">
        <ele>379.792281</ele>
        <time>2021-11-13T10:38:19.701Z</time>
      </trkpt>
      <trkpt lat="47.652783" lon="7.830460">
        <ele>379.685079</ele>
        <time>2021-11-13T10:38:20.943Z</time>
      </trkpt>
      <trkpt lat="47.652625" lon="7.830250">
        <ele>379.480967</ele>
        <time>2021-11-13T10:38:23.521Z</time>
      </trkpt>
      <trkpt lat="47.652538" lon="7.830135">
        <ele>379.382624</ele>
        <time>2021-11-13T10:38:24.930Z</time>
      </trkpt>
      <trkpt lat="47.651671" lon="7.828915">
        <ele>378.374120</ele>
        <time>2021-11-13T10:38:39.834Z</time>
      </trkpt>
      <trkpt lat="47.650663" lon="7.827340">
        <ele>377.540697</ele>
        <time>2021-11-13T10:38:58.764Z</time>
      </trkpt>
      <trkpt lat="47.650359" lon="7.826831">
        <ele>377.325858</ele>
        <time>2021-11-13T10:39:05.088Z</time>
      </trkpt>
      <trkpt lat="47.650297" lon="7.826736">
        <ele>377.284083</ele>
        <time>2021-11-13T10:39:06.349Z</time>
      </trkpt>
      <trkpt lat="47.650264" lon="7.826680">
        <ele>377.260584</ele>
        <time>2021-11-13T10:39:06.933Z</time>
      </trkpt>
      <trkpt lat="47.650007" lon="7.827033">
        <ele>377.222684</ele>
        <time>2021-11-13T10:39:12.115Z</time>
      </trkpt>
      <trkpt lat="47.649971" lon="7.827080">
        <ele>377.227716</ele>
        <time>2021-11-13T10:39:12.786Z</time>
      </trkpt>
      <trkpt lat="47.649842" lon="7.827248">
        <ele>377.245728</ele>
        <time>2021-11-13T10:39:15.554Z</time>
      </trkpt>
      <trkpt lat="47.649400" lon="7.827829">
        <ele>377.307695</ele>
        <time>2021-11-13T10:39:24.419Z</time>
      </trkpt>
      <trkpt lat="47.649366" lon="7.827875">
        <ele>377.312524</ele>
        <time>2021-11-13T10:39:25.174Z</time>
      </trkpt>
      <trkpt lat="47.649238" lon="7.827938">
        <ele>377.326678</ele>
        <time>2021-11-13T10:39:27.422Z</time>
      </trkpt>
      <trkpt lat="47.649229" lon="7.827898">
        <ele>377.329660</ele>
        <time>2021-11-13T10:39:27.865Z</time>
      </trkpt>
      <trkpt lat="47.649213" lon="7.827864">
        <ele>377.332593</ele>
        <time>2021-11-13T10:39:28.299Z</time>
      </trkpt>
      <trkpt lat="47.649165" lon="7.827822">
        <ele>377.338441</ele>
        <time>2021-11-13T10:39:29.025Z</time>
      </trkpt>
      <trkpt lat="47.649137" lon="7.827818">
        <ele>377.341394</ele>
        <time>2021-11-13T10:39:29.503Z</time>
      </trkpt>
      <trkpt lat="47.649109" lon="7.827827">
        <ele>377.344401</ele>
        <time>2021-11-13T10:39:30.004Z</time>
      </trkpt>
      <trkpt lat="47.649051" lon="7.827916">
        <ele>377.353156</ele>
        <time>2021-11-13T10:39:31.434Z</time>
      </trkpt>
      <trkpt lat="47.649046" lon="7.827958">
        <ele>377.356172</ele>
        <time>2021-11-13T10:39:31.947Z</time>
      </trkpt>
      <trkpt lat="47.648970" lon="7.827926">
        <ele>377.364464</ele>
        <time>2021-11-13T10:39:33.275Z</time>
      </trkpt>
      <trkpt lat="47.648922" lon="7.827833">
        <ele>377.372748</ele>
        <time>2021-11-13T10:39:34.556Z</time>
      </trkpt>
      <trkpt lat="47.648378" lon="7.826663">
        <ele>377.698208</ele>
        <time>2021-11-13T10:39:49.208Z</time>
      </trkpt>
      <trkpt lat="47.648325" lon="7.826549">
        <ele>377.733953</ele>
        <time>2021-11-13T10:39:50.702Z</time>
      </trkpt>
      <trkpt lat="47.647951" lon="7.825719">
        <ele>377.991646</ele>
        <time>2021-11-13T10:40:01.688Z</time>
      </trkpt>
      <trkpt lat="47.647697" lon="7.825211">
        <ele>378.714657</ele>
        <time>2021-11-13T10:40:09.123Z</time>
      </trkpt>
      <trkpt lat="47.647653" lon="7.825123">
        <ele>378.947139</ele>
        <time>2021-11-13T10:40:10.490Z</time>
      </trkpt>
      <trkpt lat="47.647670" lon="7.825092">
        <ele>379.031936</ele>
        <time>2021-11-13T10:40:11.049Z</time>
      </trkpt>
      <trkpt lat="47.647680" lon="7.825025">
        <ele>379.177516</ele>
        <time>2021-11-13T10:40:12.058Z</time>
      </trkpt>
      <trkpt lat="47.647671" lon="7.824980">
        <ele>379.277097</ele>
        <time>2021-11-13T10:40:12.616Z</time>
      </trkpt>
      <trkpt lat="47.647651" lon="7.824941">
        <ele>379.381075</ele>
        <time>2021-11-13T10:40:13.206Z</time>
      </trkpt>
      <trkpt lat="47.647592" lon="7.824914">
        <ele>379.575491</ele>
        <time>2021-11-13T10:40:14.233Z</time>
      </trkpt>
      <trkpt lat="47.647566" lon="7.824924">
        <ele>379.660067</ele>
        <time>2021-11-13T10:40:14.707Z</time>
      </trkpt>
      <trkpt lat="47.647544" lon="7.824947">
        <ele>379.744802</ele>
        <time>2021-11-13T10:40:15.206Z</time>
      </trkpt>
      <trkpt lat="47.647519" lon="7.825045">
        <ele>379.967106</ele>
        <time>2021-11-13T10:40:16.514Z</time>
      </trkpt>
      <trkpt lat="47.647530" lon="7.825095">
        <ele>380.078689</ele>
        <time>2021-11-13T10:40:17.231Z</time>
      </trkpt>
      <trkpt lat="47.647469" lon="7.825147">
        <ele>380.300197</ele>
        <time>2021-11-13T10:40:18.830Z</time>
      </trkpt>
      <trkpt lat="47.647327" lon="7.825270">
        <ele>380.817912</ele>
        <time>2021-11-13T10:40:23.076Z</time>
      </trkpt>
      <trkpt lat="47.646953" lon="7.825621">
        <ele>382.211269</ele>
        <time>2021-11-13T10:40:35.309Z</time>
      </trkpt>
      <trkpt lat="47.646634" lon="7.825927">
        <ele>383.407285</ele>
        <time>2021-11-13T10:40:48.764Z</time>
      </trkpt>
      <trkpt lat="47.646535" lon="7.826052">
        <ele>383.929325</ele>
        <time>2021-11-13T10:40:53.993Z</time>
      </trkpt>
      <trkpt lat="47.646437" lon="7.826190">
        <ele>384.991228</ele>
        <time>2021-11-13T10:41:00.350Z</time>
      </trkpt>
      <trkpt lat="47.646245" lon="7.826452">
        <ele>387.041446</ele>
        <time>2021-11-13T10:41:11.053Z</time>
      </trkpt>
      <trkpt lat="47.646215" lon="7.826493">
        <ele>387.362017</ele>
        <time>2021-11-13T10:41:13.786Z</time>
      </trkpt>
      <trkpt lat="47.645978" lon="7.826826">
        <ele>389.927421</ele>
        <time>2021-11-13T10:41:29.248Z</time>
      </trkpt>
      <trkpt lat="47.645896" lon="7.826954">
        <ele>390.862871</ele>
        <time>2021-11-13T10:41:35.551Z</time>
      </trkpt>
      <trkpt lat="47.645853" lon="7.827035">
        <ele>391.409028</ele>
        <time>2021-11-13T10:41:38.493Z</time>
      </trkpt>
      <trkpt lat="47.645800" lon="7.827164">
        <ele>392.209243</ele>
        <time>2021-11-13T10:41:43.838Z</time>
      </trkpt>
      <trkpt lat="47.645755" lon="7.827294">
        <ele>392.983298</ele>
        <time>2021-11-13T10:41:49.274Z</time>
      </trkpt>
      <trkpt lat="47.645695" lon="7.827443">
        <ele>393.902633</ele>
        <time>2021-11-13T10:41:54.824Z</time>
      </trkpt>
      <trkpt lat="47.645563" lon="7.827696">
        <ele>395.597365</ele>
        <time>2021-11-13T10:42:05.264Z</time>
      </trkpt>
      <trkpt lat="47.645462" lon="7.827823">
        <ele>396.637936</ele>
        <time>2021-11-13T10:42:12.113Z</time>
      </trkpt>
      <trkpt lat="47.645177" lon="7.828073">
        <ele>398.912621</ele>
        <time>2021-11-13T10:42:28.267Z</time>
      </trkpt>
      <trkpt lat="47.645054" lon="7.828194">
        <ele>399.793068</ele>
        <time>2021-11-13T10:42:34.862Z</time>
      </trkpt>
      <trkpt lat="47.644970" lon="7.828283">
        <ele>400.408856</ele>
        <time>2021-11-13T10:42:39.528Z</time>
      </trkpt>
      <trkpt lat="47.644824" lon="7.828467">
        <ele>401.551638</ele>
        <time>2021-11-13T10:42:47.074Z</time>
      </trkpt>
      <trkpt lat="47.644685" lon="7.828760">
        <ele>402.992160</ele>
        <time>2021-11-13T10:42:56.876Z</time>
      </trkpt>
      <trkpt lat="47.644656" lon="7.828827">
        <ele>403.312284</ele>
        <time>2021-11-13T10:42:58.846Z</time>
      </trkpt>
      <trkpt lat="47.644594" lon="7.828980">
        <ele>404.030006</ele>
        <time>2021-11-13T10:43:03.328Z</time>
      </trkpt>
      <trkpt lat="47.644216" lon="7.830050">
        <ele>408.881577</ele>
        <time>2021-11-13T10:43:30.191Z</time>
      </trkpt>
      <trkpt lat="47.643976" lon="7.830478">
        <ele>411.077976</ele>
        <time>2021-11-13T10:43:41.653Z</time>
      </trkpt>
      <trkpt lat="47.643642" lon="7.830986">
        <ele>413.877709</ele>
        <time>2021-11-13T10:43:57.749Z</time>
      </trkpt>
      <trkpt lat="47.643346" lon="7.831476">
        <ele>416.473576</ele>
        <time>2021-11-13T10:44:15.130Z</time>
      </trkpt>
      <trkpt lat="47.643091" lon="7.831957">
        <ele>418.887765</ele>
        <time>2021-11-13T10:44:33.769Z</time>
      </trkpt>
      <trkpt lat="47.642807" lon="7.832692">
        <ele>423.528816</ele>
        <time>2021-11-13T10:45:01.927Z</time>
      </trkpt>
      <trkpt lat="47.642638" lon="7.833223">
        <ele>426.819814</ele>
        <time>2021-11-13T10:45:21.923Z</time>
      </trkpt>
      <trkpt lat="47.642385" lon="7.833924">
        <ele>431.276319</ele>
        <time>2021-11-13T10:45:48.863Z</time>
      </trkpt>
      <trkpt lat="47.641891" lon="7.835107">
        <ele>437.821481</ele>
        <time>2021-11-13T10:46:31.874Z</time>
      </trkpt>
      <trkpt lat="47.641165" lon="7.836543">
        <ele>445.330952</ele>
        <time>2021-11-13T10:47:16.633Z</time>
      </trkpt>
      <trkpt lat="47.640365" lon="7.837718">
        <ele>450.579722</ele>
        <time>2021-11-13T10:47:52.743Z</time>
      </trkpt>
      <trkpt lat="47.639834" lon="7.838208">
        <ele>453.495649</ele>
        <time>2021-11-13T10:48:13.951Z</time>
      </trkpt>
      <trkpt lat="47.639139" lon="7.838922">
        <ele>457.254061</ele>
        <time>2021-11-13T10:48:42.865Z</time>
      </trkpt>
      <trkpt lat="47.638684" lon="7.839572">
        <ele>460.055542</ele>
        <time>2021-11-13T10:49:03.780Z</time>
      </trkpt>
      <trkpt lat="47.638316" lon="7.840318">
        <ele>462.216318</ele>
        <time>2021-11-13T10:49:23.628Z</time>
      </trkpt>
      <trkpt lat="47.637571" lon="7.842262">
        <ele>465.436844</ele>
        <time>2021-11-13T10:49:56.819Z</time>
      </trkpt>
      <trkpt lat="47.637236" lon="7.842912">
        <ele>465.690892</ele>
        <time>2021-11-13T10:50:05.890Z</time>
      </trkpt>
      <trkpt lat="47.636455" lon="7.843722">
        <ele>466.039466</ele>
        <time>2021-11-13T10:50:20.376Z</time>
      </trkpt>
      <trkpt lat="47.635361" lon="7.844556">
        <ele>466.372378</ele>
        <time>2021-11-13T10:50:39.352Z</time>
      </trkpt>
      <trkpt lat="47.634649" lon="7.845085">
        <ele>466.560816</ele>
        <time>2021-11-13T10:50:52.447Z</time>
      </trkpt>
      <trkpt lat="47.633838" lon="7.846138">
        <ele>465.953381</ele>
        <time>2021-11-13T10:51:09.219Z</time>
      </trkpt>
      <trkpt lat="47.632763" lon="7.847936">
        <ele>463.130067</ele>
        <time>2021-11-13T10:51:27.518Z</time>
      </trkpt>
      <trkpt lat="47.631901" lon="7.849075">
        <ele>459.687967</ele>
        <time>2021-11-13T10:51:38.900Z</time>
      </trkpt>
      <trkpt lat="47.631225" lon="7.850277">
        <ele>455.757978</ele>
        <time>2021-11-13T10:51:49.202Z</time>
      </trkpt>
      <trkpt lat="47.631016" lon="7.850620">
        <ele>454.597185</ele>
        <time>2021-11-13T10:51:52.340Z</time>
      </trkpt>
      <trkpt lat="47.630572" lon="7.851349">
        <ele>452.095429</ele>
        <time>2021-11-13T10:51:59.022Z</time>
      </trkpt>
      <trkpt lat="47.629944" lon="7.852149">
        <ele>448.937420</ele>
        <time>2021-11-13T10:52:07.227Z</time>
      </trkpt>
      <trkpt lat="47.629636" lon="7.852329">
        <ele>447.674379</ele>
        <time>2021-11-13T10:52:10.477Z</time>
      </trkpt>
      <trkpt lat="47.629450" lon="7.852437">
        <ele>446.912292</ele>
        <time>2021-11-13T10:52:12.359Z</time>
      </trkpt>
      <trkpt lat="47.629240" lon="7.852495">
        <ele>445.957577</ele>
        <time>2021-11-13T10:52:14.444Z</time>
      </trkpt>
      <trkpt lat="47.628955" lon="7.852574">
        <ele>444.600476</ele>
        <time>2021-11-13T10:52:17.212Z</time>
      </trkpt>
      <trkpt lat="47.628091" lon="7.852385">
        <ele>440.512565</ele>
        <time>2021-11-13T10:52:25.363Z</time>
      </trkpt>
      <trkpt lat="47.626333" lon="7.851866">
        <ele>433.959017</ele>
        <time>2021-11-13T10:52:42.895Z</time>
      </trkpt>
      <trkpt lat="47.625550" lon="7.851952">
        <ele>432.100310</ele>
        <time>2021-11-13T10:52:51.779Z</time>
      </trkpt>
      <trkpt lat="47.625220" lon="7.852153">
        <ele>431.772683</ele>
        <time>2021-11-13T10:52:56.124Z</time>
      </trkpt>
      <trkpt lat="47.624847" lon="7.852475">
        <ele>431.376342</ele>
        <time>2021-11-13T10:53:01.907Z</time>
      </trkpt>
      <trkpt lat="47.624607" lon="7.852636">
        <ele>431.134435</ele>
        <time>2021-11-13T10:53:05.418Z</time>
      </trkpt>
      <trkpt lat="47.624152" lon="7.852848">
        <ele>430.685137</ele>
        <time>2021-11-13T10:53:11.913Z</time>
      </trkpt>
      <trkpt lat="47.623426" lon="7.853063">
        <ele>429.766064</ele>
        <time>2021-11-13T10:53:21.164Z</time>
      </trkpt>
      <trkpt lat="47.622726" lon="7.853422">
        <ele>428.846593</ele>
        <time>2021-11-13T10:53:29.556Z</time>
      </trkpt>
      <trkpt lat="47.621917" lon="7.853881">
        <ele>427.414611</ele>
        <time>2021-11-13T10:53:39.302Z</time>
      </trkpt>
      <trkpt lat="47.620941" lon="7.854385">
        <ele>425.499781</ele>
        <time>2021-11-13T10:53:50.831Z</time>
      </trkpt>
      <trkpt lat="47.620449" lon="7.854805">
        <ele>423.750215</ele>
        <time>2021-11-13T10:53:57.049Z</time>
      </trkpt>
      <trkpt lat="47.620117" lon="7.855176">
        <ele>422.228342</ele>
        <time>2021-11-13T10:54:01.390Z</time>
      </trkpt>
      <trkpt lat="47.619797" lon="7.855449">
        <ele>420.876753</ele>
        <time>2021-11-13T10:54:05.108Z</time>
      </trkpt>
      <trkpt lat="47.619340" lon="7.855676">
        <ele>419.112152</ele>
        <time>2021-11-13T10:54:09.732Z</time>
      </trkpt>
      <trkpt lat="47.618209" lon="7.856228">
        <ele>410.426868</ele>
        <time>2021-11-13T10:54:20.500Z</time>
      </trkpt>
      <trkpt lat="47.617871" lon="7.856385">
        <ele>407.663241</ele>
        <time>2021-11-13T10:54:23.579Z</time>
      </trkpt>
      <trkpt lat="47.616788" lon="7.856842">
        <ele>397.832708</ele>
        <time>2021-11-13T10:54:33.233Z</time>
      </trkpt>
      <trkpt lat="47.616206" lon="7.856813">
        <ele>392.450859</ele>
        <time>2021-11-13T10:54:38.271Z</time>
      </trkpt>
      <trkpt lat="47.616000" lon="7.856839">
        <ele>390.540139</ele>
        <time>2021-11-13T10:54:40.118Z</time>
      </trkpt>
      <trkpt lat="47.615844" lon="7.856900">
        <ele>389.049150</ele>
        <time>2021-11-13T10:54:41.525Z</time>
      </trkpt>
      <trkpt lat="47.615664" lon="7.857057">
        <ele>387.471395</ele>
        <time>2021-11-13T10:54:43.398Z</time>
      </trkpt>
      <trkpt lat="47.615613" lon="7.857102">
        <ele>387.164231</ele>
        <time>2021-11-13T10:54:43.910Z</time>
      </trkpt>
      <trkpt lat="47.615118" lon="7.857895">
        <ele>383.392983</ele>
        <time>2021-11-13T10:54:50.490Z</time>
      </trkpt>
      <trkpt lat="47.614688" lon="7.858653">
        <ele>379.936045</ele>
        <time>2021-11-13T10:54:57.137Z</time>
      </trkpt>
      <trkpt lat="47.614583" lon="7.858866">
        <ele>379.015261</ele>
        <time>2021-11-13T10:54:58.919Z</time>
      </trkpt>
      <trkpt lat="47.614286" lon="7.859741">
        <ele>377.256008</ele>
        <time>2021-11-13T10:55:05.925Z</time>
      </trkpt>
      <trkpt lat="47.614015" lon="7.860305">
        <ele>376.170373</ele>
        <time>2021-11-13T10:55:10.860Z</time>
      </trkpt>
      <trkpt lat="47.613795" lon="7.860645">
        <ele>375.431657</ele>
        <time>2021-11-13T10:55:14.247Z</time>
      </trkpt>
      <trkpt lat="47.613709" lon="7.860779">
        <ele>375.141650</ele>
        <time>2021-11-13T10:55:15.688Z</time>
      </trkpt>
      <trkpt lat="47.613477" lon="7.861090">
        <ele>374.418526</ele>
        <time>2021-11-13T10:55:19.262Z</time>
      </trkpt>
      <trkpt lat="47.613247" lon="7.861408">
        <ele>373.920816</ele>
        <time>2021-11-13T10:55:22.872Z</time>
      </trkpt>
      <trkpt lat="47.613183" lon="7.861517">
        <ele>373.766564</ele>
        <time>2021-11-13T10:55:23.985Z</time>
      </trkpt>
      <trkpt lat="47.613099" lon="7.861661">
        <ele>373.563352</ele>
        <time>2021-11-13T10:55:25.399Z</time>
      </trkpt>
      <trkpt lat="47.611814" lon="7.864344">
        <ele>369.191327</ele>
        <time>2021-11-13T10:55:50.918Z</time>
      </trkpt>
      <trkpt lat="47.611380" lon="7.864872">
        <ele>367.802993</ele>
        <time>2021-11-13T10:55:56.655Z</time>
      </trkpt>
      <trkpt lat="47.610539" lon="7.865746">
        <ele>363.954000</ele>
        <time>2021-11-13T10:56:06.600Z</time>
      </trkpt>
      <trkpt lat="47.609971" lon="7.866486">
        <ele>360.773587</ele>
        <time>2021-11-13T10:56:13.804Z</time>
      </trkpt>
      <trkpt lat="47.608371" lon="7.868821">
        <ele>351.654824</ele>
        <time>2021-11-13T10:56:35.858Z</time>
      </trkpt>
      <trkpt lat="47.608074" lon="7.869176">
        <ele>349.794070</ele>
        <time>2021-11-13T10:56:39.527Z</time>
      </trkpt>
      <trkpt lat="47.607911" lon="7.869279">
        <ele>348.929753</ele>
        <time>2021-11-13T10:56:41.248Z</time>
      </trkpt>
      <trkpt lat="47.607848" lon="7.869319">
        <ele>348.595446</ele>
        <time>2021-11-13T10:56:41.872Z</time>
      </trkpt>
      <trkpt lat="47.607466" lon="7.869418">
        <ele>346.703703</ele>
        <time>2021-11-13T10:56:45.503Z</time>
      </trkpt>
      <trkpt lat="47.607341" lon="7.869436">
        <ele>346.091048</ele>
        <time>2021-11-13T10:56:46.666Z</time>
      </trkpt>
      <trkpt lat="47.607251" lon="7.869449">
        <ele>345.649924</ele>
        <time>2021-11-13T10:56:47.500Z</time>
      </trkpt>
      <trkpt lat="47.606761" lon="7.869665">
        <ele>343.311277</ele>
        <time>2021-11-13T10:56:52.286Z</time>
      </trkpt>
      <trkpt lat="47.606461" lon="7.869656">
        <ele>342.303982</ele>
        <time>2021-11-13T10:56:55.099Z</time>
      </trkpt>
      <trkpt lat="47.606292" lon="7.869632">
        <ele>341.734061</ele>
        <time>2021-11-13T10:56:56.655Z</time>
      </trkpt>
      <trkpt lat="47.605878" lon="7.869549">
        <ele>340.331639</ele>
        <time>2021-11-13T10:57:00.663Z</time>
      </trkpt>
      <trkpt lat="47.605451" lon="7.869487">
        <ele>338.891364</ele>
        <time>2021-11-13T10:57:05.285Z</time>
      </trkpt>
      <trkpt lat="47.605251" lon="7.869499">
        <ele>338.219422</ele>
        <time>2021-11-13T10:57:07.405Z</time>
      </trkpt>
      <trkpt lat="47.605151" lon="7.869535">
        <ele>337.873979</ele>
        <time>2021-11-13T10:57:08.695Z</time>
      </trkpt>
      <trkpt lat="47.604178" lon="7.870272">
        <ele>338.180609</ele>
        <time>2021-11-13T10:57:26.688Z</time>
      </trkpt>
      <trkpt lat="47.603441" lon="7.870715">
        <ele>338.609685</ele>
        <time>2021-11-13T10:57:43.281Z</time>
      </trkpt>
      <trkpt lat="47.603243" lon="7.870755">
        <ele>338.498530</ele>
        <time>2021-11-13T10:57:47.329Z</time>
      </trkpt>
      <trkpt lat="47.602981" lon="7.870758">
        <ele>338.352788</ele>
        <time>2021-11-13T10:57:51.660Z</time>
      </trkpt>
      <trkpt lat="47.602723" lon="7.870667">
        <ele>338.205273</ele>
        <time>2021-11-13T10:57:55.843Z</time>
      </trkpt>
      <trkpt lat="47.602649" lon="7.870651">
        <ele>338.163675</ele>
        <time>2021-11-13T10:57:56.859Z</time>
      </trkpt>
      <trkpt lat="47.602070" lon="7.870289">
        <ele>337.814157</ele>
        <time>2021-11-13T10:58:04.946Z</time>
      </trkpt>
      <trkpt lat="47.600522" lon="7.868445">
        <ele>333.491351</ele>
        <time>2021-11-13T10:58:25.540Z</time>
      </trkpt>
      <trkpt lat="47.600376" lon="7.868280">
        <ele>333.054689</ele>
        <time>2021-11-13T10:58:27.428Z</time>
      </trkpt>
      <trkpt lat="47.599705" lon="7.867526">
        <ele>332.601888</ele>
        <time>2021-11-13T10:58:37.271Z</time>
      </trkpt>
      <trkpt lat="47.598844" lon="7.866669">
        <ele>332.113282</ele>
        <time>2021-11-13T10:58:54.341Z</time>
      </trkpt>
      <trkpt lat="47.598366" lon="7.866463">
        <ele>332.210628</ele>
        <time>2021-11-13T10:59:04.045Z</time>
      </trkpt>
      <trkpt lat="47.597848" lon="7.866506">
        <ele>332.312087</ele>
        <time>2021-11-13T10:59:13.300Z</time>
      </trkpt>
      <trkpt lat="47.596934" lon="7.867028">
        <ele>331.703691</ele>
        <time>2021-11-13T10:59:26.683Z</time>
      </trkpt>
      <trkpt lat="47.596649" lon="7.867104">
        <ele>330.966035</ele>
        <time>2021-11-13T10:59:29.847Z</time>
      </trkpt>
      <trkpt lat="47.596216" lon="7.866990">
        <ele>329.845758</ele>
        <time>2021-11-13T10:59:34.149Z</time>
      </trkpt>
      <trkpt lat="47.595529" lon="7.866433">
        <ele>327.845690</ele>
        <time>2021-11-13T10:59:42.030Z</time>
      </trkpt>
      <trkpt lat="47.595188" lon="7.866380">
        <ele>326.617122</ele>
        <time>2021-11-13T10:59:45.678Z</time>
      </trkpt>
      <trkpt lat="47.594961" lon="7.866424">
        <ele>325.796813</ele>
        <time>2021-11-13T10:59:47.947Z</time>
      </trkpt>
      <trkpt lat="47.594779" lon="7.866515">
        <ele>325.108594</ele>
        <time>2021-11-13T10:59:50.293Z</time>
      </trkpt>
      <trkpt lat="47.594420" lon="7.866749">
        <ele>323.703431</ele>
        <time>2021-11-13T10:59:54.414Z</time>
      </trkpt>
      <trkpt lat="47.594096" lon="7.866777">
        <ele>322.540501</ele>
        <time>2021-11-13T10:59:57.683Z</time>
      </trkpt>
      <trkpt lat="47.593941" lon="7.866752">
        <ele>321.981827</ele>
        <time>2021-11-13T10:59:59.097Z</time>
      </trkpt>
      <trkpt lat="47.593497" lon="7.866682">
        <ele>318.842836</ele>
        <time>2021-11-13T11:00:03.182Z</time>
      </trkpt>
      <trkpt lat="47.593114" lon="7.866603">
        <ele>315.402572</ele>
        <time>2021-11-13T11:00:06.691Z</time>
      </trkpt>
      <trkpt lat="47.592687" lon="7.866538">
        <ele>311.583695</ele>
        <time>2021-11-13T11:00:10.423Z</time>
      </trkpt>
      <trkpt lat="47.592389" lon="7.866483">
        <ele>308.912006</ele>
        <time>2021-11-13T11:00:12.997Z</time>
      </trkpt>
      <trkpt lat="47.592194" lon="7.866446">
        <ele>307.162994</ele>
        <time>2021-11-13T11:00:14.643Z</time>
      </trkpt>
      <trkpt lat="47.591755" lon="7.866378">
        <ele>303.001288</ele>
        <time>2021-11-13T11:00:18.385Z</time>
      </trkpt>
      <trkpt lat="47.591538" lon="7.866361">
        <ele>300.859948</ele>
        <time>2021-11-13T11:00:20.213Z</time>
      </trkpt>
      <trkpt lat="47.591332" lon="7.866357">
        <ele>298.829813</ele>
        <time>2021-11-13T11:00:21.987Z</time>
      </trkpt>
      <trkpt lat="47.591128" lon="7.866362">
        <ele>296.819286</ele>
        <time>2021-11-13T11:00:23.693Z</time>
      </trkpt>
      <trkpt lat="47.590822" lon="7.866391">
        <ele>293.797754</ele>
        <time>2021-11-13T11:00:26.310Z</time>
      </trkpt>
      <trkpt lat="47.590974" lon="7.867420">
        <ele>287.398933</ele>
        <time>2021-11-13T11:00:32.624Z</time>
      </trkpt>
      <trkpt lat="47.590997" lon="7.867574">
        <ele>287.054425</ele>
        <time>2021-11-13T11:00:33.677Z</time>
      </trkpt>
      <trkpt lat="47.591040" lon="7.867815">
        <ele>286.509936</ele>
        <time>2021-11-13T11:00:35.302Z</time>
      </trkpt>
      <trkpt lat="47.590980" lon="7.867841">
        <ele>286.307494</ele>
        <time>2021-11-13T11:00:35.860Z</time>
      </trkpt>
      <trkpt lat="47.590914" lon="7.867918">
        <ele>286.035517</ele>
        <time>2021-11-13T11:00:36.713Z</time>
      </trkpt>
      <trkpt lat="47.590772" lon="7.868063">
        <ele>285.477138</ele>
        <time>2021-11-13T11:00:38.453Z</time>
      </trkpt>
      <trkpt lat="47.590725" lon="7.868121">
        <ele>285.279106</ele>
        <time>2021-11-13T11:00:39.044Z</time>
      </trkpt>
      <trkpt lat="47.590638" lon="7.868174">
        <ele>284.974497</ele>
        <time>2021-11-13T11:00:40.070Z</time>
      </trkpt>
      <trkpt lat="47.590572" lon="7.868216">
        <ele>284.741898</ele>
        <time>2021-11-13T11:00:40.879Z</time>
      </trkpt>
      <trkpt lat="47.590365" lon="7.868441">
        <ele>283.910678</ele>
        <time>2021-11-13T11:00:43.660Z</time>
      </trkpt>
      <trkpt lat="47.590348" lon="7.868400">
        <ele>283.805557</ele>
        <time>2021-11-13T11:00:44.294Z</time>
      </trkpt>
      <trkpt lat="47.590333" lon="7.867008">
        <ele>281.739222</ele>
        <time>2021-11-13T11:00:54.891Z</time>
      </trkpt>
      <trkpt lat="47.590274" lon="7.866644">
        <ele>281.643417</ele>
        <time>2021-11-13T11:00:58.219Z</time>
      </trkpt>
      <trkpt lat="47.590266" lon="7.866595">
        <ele>281.630515</ele>
        <time>2021-11-13T11:00:58.689Z</time>
      </trkpt>
      <trkpt lat="47.590251" lon="7.866509">
        <ele>281.607783</ele>
        <time>2021-11-13T11:00:59.475Z</time>
      </trkpt>
      <trkpt lat="47.590186" lon="7.866190">
        <ele>281.522502</ele>
        <time>2021-11-13T11:01:02.993Z</time>
      </trkpt>
      <trkpt lat="47.589823" lon="7.864422">
        <ele>281.182740</ele>
        <time>2021-11-13T11:01:22.371Z</time>
      </trkpt>
      <trkpt lat="47.589471" lon="7.862994">
        <ele>281.173315</ele>
        <time>2021-11-13T11:01:37.121Z</time>
      </trkpt>
      <trkpt lat="47.587447" lon="7.853842">
        <ele>280.832019</ele>
        <time>2021-11-13T11:03:11.770Z</time>
      </trkpt>
      <trkpt lat="47.587300" lon="7.853345">
        <ele>280.871887</ele>
        <time>2021-11-13T11:03:17.340Z</time>
      </trkpt>
      <trkpt lat="47.586757" lon="7.850579">
        <ele>281.296822</ele>
        <time>2021-11-13T11:03:48.096Z</time>
      </trkpt>
      <trkpt lat="47.586522" lon="7.848600">
        <ele>281.696266</ele>
        <time>2021-11-13T11:04:10.247Z</time>
      </trkpt>
      <trkpt lat="47.586484" lon="7.848370">
        <ele>281.744307</ele>
        <time>2021-11-13T11:04:12.897Z</time>
      </trkpt>
      <trkpt lat="47.586486" lon="7.847936">
        <ele>281.832356</ele>
        <time>2021-11-13T11:04:17.607Z</time>
      </trkpt>
      <trkpt lat="47.586452" lon="7.845634">
        <ele>282.046026</ele>
        <time>2021-11-13T11:04:41.864Z</time>
      </trkpt>
      <trkpt lat="47.586790" lon="7.842637">
        <ele>281.849852</ele>
        <time>2021-11-13T11:05:11.158Z</time>
      </trkpt>
      <trkpt lat="47.586802" lon="7.842180">
        <ele>281.792018</ele>
        <time>2021-11-13T11:05:15.434Z</time>
      </trkpt>
      <trkpt lat="47.586809" lon="7.842018">
        <ele>281.771490</ele>
        <time>2021-11-13T11:05:16.937Z</time>
      </trkpt>
      <trkpt lat="47.586920" lon="7.841604">
        <ele>281.699294</ele>
        <time>2021-11-13T11:05:21.109Z</time>
      </trkpt>
      <trkpt lat="47.587628" lon="7.835942">
        <ele>280.475495</ele>
        <time>2021-11-13T11:06:14.346Z</time>
      </trkpt>
      <trkpt lat="47.587661" lon="7.835690">
        <ele>280.417084</ele>
        <time>2021-11-13T11:06:16.602Z</time>
      </trkpt>
      <trkpt lat="47.587848" lon="7.834235">
        <ele>280.080051</ele>
        <time>2021-11-13T11:06:30.182Z</time>
      </trkpt>
      <trkpt lat="47.586496" lon="7.833050">
        <ele>280.606187</ele>
        <time>2021-11-13T11:06:52.795Z</time>
      </trkpt>
      <trkpt lat="47.586276" lon="7.833601">
        <ele>280.795408</ele>
        <time>2021-11-13T11:07:01.048Z</time>
      </trkpt>
      <trkpt lat="47.585278" lon="7.832688">
        <ele>284.363905</ele>
        <time>2021-11-13T11:07:32.501Z</time>
      </trkpt>
      <trkpt lat="47.585247" lon="7.832651">
        <ele>284.485458</ele>
        <time>2021-11-13T11:07:33.802Z</time>
      </trkpt>
      <trkpt lat="47.585195" lon="7.832588">
        <ele>284.690569</ele>
        <time>2021-11-13T11:07:35.998Z</time>
      </trkpt>
      <trkpt lat="47.585027" lon="7.832425">
        <ele>285.303807</ele>
        <time>2021-11-13T11:07:41.405Z</time>
      </trkpt>
      <trkpt lat="47.584717" lon="7.832264">
        <ele>286.313027</ele>
        <time>2021-11-13T11:07:51.070Z</time>
      </trkpt>
      <trkpt lat="47.584367" lon="7.832247">
        <ele>287.786887</ele>
        <time>2021-11-13T11:08:02.172Z</time>
      </trkpt>
      <trkpt lat="47.584156" lon="7.832334">
        <ele>288.708642</ele>
        <time>2021-11-13T11:08:09.878Z</time>
      </trkpt>
      <trkpt lat="47.584029" lon="7.832543">
        <ele>289.507223</ele>
        <time>2021-11-13T11:08:16.614Z</time>
      </trkpt>
      <trkpt lat="47.583849" lon="7.832883">
        <ele>290.734234</ele>
        <time>2021-11-13T11:08:27.003Z</time>
      </trkpt>
      <trkpt lat="47.583696" lon="7.833171">
        <ele>291.774963</ele>
        <time>2021-11-13T11:08:35.709Z</time>
      </trkpt>
      <trkpt lat="47.583523" lon="7.833509">
        <ele>292.979484</ele>
        <time>2021-11-13T11:08:44.169Z</time>
      </trkpt>
      <trkpt lat="47.583401" lon="7.833658">
        <ele>293.644746</ele>
        <time>2021-11-13T11:08:48.041Z</time>
      </trkpt>
      <trkpt lat="47.583327" lon="7.833750">
        <ele>293.957199</ele>
        <time>2021-11-13T11:08:51.168Z</time>
      </trkpt>
      <trkpt lat="47.583163" lon="7.833942">
        <ele>294.401198</ele>
        <time>2021-11-13T11:08:56.660Z</time>
      </trkpt>
      <trkpt lat="47.582828" lon="7.834117">
        <ele>295.155870</ele>
        <time>2021-11-13T11:09:05.107Z</time>
      </trkpt>
      <trkpt lat="47.580816" lon="7.834599">
        <ele>298.350244</ele>
        <time>2021-11-13T11:09:48.987Z</time>
      </trkpt>
      <trkpt lat="47.580667" lon="7.834627">
        <ele>298.468331</ele>
        <time>2021-11-13T11:09:51.369Z</time>
      </trkpt>
      <trkpt lat="47.579073" lon="7.834987">
        <ele>298.481571</ele>
        <time>2021-11-13T11:10:15.330Z</time>
      </trkpt>
      <trkpt lat="47.576219" lon="7.835650">
        <ele>295.294566</ele>
        <time>2021-11-13T11:10:48.990Z</time>
      </trkpt>
      <trkpt lat="47.575959" lon="7.835718">
        <ele>295.170650</ele>
        <time>2021-11-13T11:10:52.145Z</time>
      </trkpt>
      <trkpt lat="47.575033" lon="7.835907">
        <ele>294.731932</ele>
        <time>2021-11-13T11:11:04.599Z</time>
      </trkpt>
      <trkpt lat="47.574568" lon="7.836025">
        <ele>294.510509</ele>
        <time>2021-11-13T11:11:11.585Z</time>
      </trkpt>
      <trkpt lat="47.574158" lon="7.836106">
        <ele>294.656394</ele>
        <time>2021-11-13T11:11:18.258Z</time>
      </trkpt>
      <trkpt lat="47.573815" lon="7.836215">
        <ele>294.797813</ele>
        <time>2021-11-13T11:11:25.937Z</time>
      </trkpt>
      <trkpt lat="47.573348" lon="7.836386">
        <ele>294.991740</ele>
        <time>2021-11-13T11:11:36.789Z</time>
      </trkpt>
      <trkpt lat="47.572760" lon="7.836606">
        <ele>295.244356</ele>
        <time>2021-11-13T11:11:50.400Z</time>
      </trkpt>
      <trkpt lat="47.572296" lon="7.836777">
        <ele>295.569627</ele>
        <time>2021-11-13T11:12:00.826Z</time>
      </trkpt>
      <trkpt lat="47.572139" lon="7.836834">
        <ele>295.679592</ele>
        <time>2021-11-13T11:12:04.312Z</time>
      </trkpt>
      <trkpt lat="47.571871" lon="7.836932">
        <ele>295.867380</ele>
        <time>2021-11-13T11:12:10.349Z</time>
      </trkpt>
      <trkpt lat="47.571771" lon="7.836971">
        <ele>295.937726</ele>
        <time>2021-11-13T11:12:12.585Z</time>
      </trkpt>
      <trkpt lat="47.571254" lon="7.837161">
        <ele>296.300093</ele>
        <time>2021-11-13T11:12:25.036Z</time>
      </trkpt>
      <trkpt lat="47.570985" lon="7.837265">
        <ele>296.531478</ele>
        <time>2021-11-13T11:12:31.989Z</time>
      </trkpt>
      <trkpt lat="47.570872" lon="7.837307">
        <ele>296.692025</ele>
        <time>2021-11-13T11:12:35.006Z</time>
      </trkpt>
      <trkpt lat="47.570298" lon="7.837528">
        <ele>297.509309</ele>
        <time>2021-11-13T11:12:50.327Z</time>
      </trkpt>
      <trkpt lat="47.570038" lon="7.837643">
        <ele>297.883229</ele>
        <time>2021-11-13T11:12:57.451Z</time>
      </trkpt>
      <trkpt lat="47.569907" lon="7.837696">
        <ele>298.070366</ele>
        <time>2021-11-13T11:13:00.972Z</time>
      </trkpt>
      <trkpt lat="47.569814" lon="7.837733">
        <ele>298.203066</ele>
        <time>2021-11-13T11:13:03.534Z</time>
      </trkpt>
      <trkpt lat="47.569665" lon="7.837789">
        <ele>298.414902</ele>
        <time>2021-11-13T11:13:07.497Z</time>
      </trkpt>
      <trkpt lat="47.569522" lon="7.837844">
        <ele>298.618498</ele>
        <time>2021-11-13T11:13:11.352Z</time>
      </trkpt>
      <trkpt lat="47.569310" lon="7.837922">
        <ele>298.919523</ele>
        <time>2021-11-13T11:13:17.099Z</time>
      </trkpt>
      <trkpt lat="47.568988" lon="7.838054">
        <ele>299.278392</ele>
        <time>2021-11-13T11:13:25.876Z</time>
      </trkpt>
      <trkpt lat="47.568420" lon="7.838300">
        <ele>299.911178</ele>
        <time>2021-11-13T11:13:41.134Z</time>
      </trkpt>
      <trkpt lat="47.568160" lon="7.838415">
        <ele>300.201323</ele>
        <time>2021-11-13T11:13:47.547Z</time>
      </trkpt>
      <trkpt lat="47.568042" lon="7.838436">
        <ele>300.328411</ele>
        <time>2021-11-13T11:13:50.282Z</time>
      </trkpt>
      <trkpt lat="47.567936" lon="7.838380">
        <ele>300.448747</ele>
        <time>2021-11-13T11:13:52.815Z</time>
      </trkpt>
      <trkpt lat="47.567846" lon="7.838609">
        <ele>300.639956</ele>
        <time>2021-11-13T11:13:55.843Z</time>
      </trkpt>
      <trkpt lat="47.567823" lon="7.838648">
        <ele>300.677329</ele>
        <time>2021-11-13T11:13:56.499Z</time>
      </trkpt>
      <trkpt lat="47.567634" lon="7.839037">
        <ele>300.976448</ele>
        <time>2021-11-13T11:14:01.915Z</time>
      </trkpt>
      <trkpt lat="47.567626" lon="7.839064">
        <ele>300.991979</ele>
        <time>2021-11-13T11:14:02.328Z</time>
      </trkpt>
      <trkpt lat="47.567564" lon="7.839283">
        <ele>301.117065</ele>
        <time>2021-11-13T11:14:05.045Z</time>
      </trkpt>
      <trkpt lat="47.567530" lon="7.839459">
        <ele>301.213485</ele>
        <time>2021-11-13T11:14:07.235Z</time>
      </trkpt>
      <trkpt lat="47.567510" lon="7.839548">
        <ele>301.262891</ele>
        <time>2021-11-13T11:14:08.357Z</time>
      </trkpt>
      <trkpt lat="47.567481" lon="7.839664">
        <ele>301.328046</ele>
        <time>2021-11-13T11:14:09.698Z</time>
      </trkpt>
      <trkpt lat="47.567406" lon="7.839778">
        <ele>301.411906</ele>
        <time>2021-11-13T11:14:11.748Z</time>
      </trkpt>
      <trkpt lat="47.567111" lon="7.839998">
        <ele>301.669690</ele>
        <time>2021-11-13T11:14:17.729Z</time>
      </trkpt>
      <trkpt lat="47.566826" lon="7.840179">
        <ele>301.911724</ele>
        <time>2021-11-13T11:14:23.250Z</time>
      </trkpt>
      <trkpt lat="47.566592" lon="7.840279">
        <ele>302.101824</ele>
        <time>2021-11-13T11:14:27.879Z</time>
      </trkpt>
      <trkpt lat="47.566515" lon="7.840312">
        <ele>302.164393</ele>
        <time>2021-11-13T11:14:29.169Z</time>
      </trkpt>
      <trkpt lat="47.566450" lon="7.840326">
        <ele>302.215664</ele>
        <time>2021-11-13T11:14:30.407Z</time>
      </trkpt>
      <trkpt lat="47.566350" lon="7.840350">
        <ele>302.315663</ele>
        <time>2021-11-13T11:14:32.315Z</time>
      </trkpt>
      <trkpt lat="47.566221" lon="7.840340">
        <ele>302.468409</ele>
        <time>2021-11-13T11:14:34.648Z</time>
      </trkpt>
      <trkpt lat="47.566142" lon="7.840322">
        <ele>302.562921</ele>
        <time>2021-11-13T11:14:35.881Z</time>
      </trkpt>
      <trkpt lat="47.566081" lon="7.840309">
        <ele>302.635793</ele>
        <time>2021-11-13T11:14:37.094Z</time>
      </trkpt>
      <trkpt lat="47.565906" lon="7.840272">
        <ele>302.844819</ele>
        <time>2021-11-13T11:14:40.545Z</time>
      </trkpt>
      <trkpt lat="47.565343" lon="7.840185">
        <ele>303.514153</ele>
        <time>2021-11-13T11:14:51.865Z</time>
      </trkpt>
      <trkpt lat="47.565233" lon="7.840176">
        <ele>303.644422</ele>
        <time>2021-11-13T11:14:54.203Z</time>
      </trkpt>
      <trkpt lat="47.565168" lon="7.840179">
        <ele>303.721319</ele>
        <time>2021-11-13T11:14:55.578Z</time>
      </trkpt>
      <trkpt lat="47.565057" lon="7.840213">
        <ele>303.855346</ele>
        <time>2021-11-13T11:14:57.821Z</time>
      </trkpt>
      <trkpt lat="47.564936" lon="7.840261">
        <ele>304.003461</ele>
        <time>2021-11-13T11:15:00.538Z</time>
      </trkpt>
      <trkpt lat="47.564558" lon="7.840516">
        <ele>304.479197</ele>
        <time>2021-11-13T11:15:08.820Z</time>
      </trkpt>
      <trkpt lat="47.564534" lon="7.840532">
        <ele>304.506108</ele>
        <time>2021-11-13T11:15:09.317Z</time>
      </trkpt>
      <trkpt lat="47.564463" lon="7.840580">
        <ele>304.585911</ele>
        <time>2021-11-13T11:15:10.931Z</time>
      </trkpt>
      <trkpt lat="47.564094" lon="7.840838">
        <ele>305.003140</ele>
        <time>2021-11-13T11:15:18.591Z</time>
      </trkpt>
      <trkpt lat="47.563986" lon="7.840916">
        <ele>305.125998</ele>
        <time>2021-11-13T11:15:20.879Z</time>
      </trkpt>
      <trkpt lat="47.563941" lon="7.840948">
        <ele>305.177039</ele>
        <time>2021-11-13T11:15:21.804Z</time>
      </trkpt>
      <trkpt lat="47.563805" lon="7.841046">
        <ele>305.331682</ele>
        <time>2021-11-13T11:15:24.611Z</time>
      </trkpt>
      <trkpt lat="47.563659" lon="7.841150">
        <ele>305.497334</ele>
        <time>2021-11-13T11:15:27.503Z</time>
      </trkpt>
      <trkpt lat="47.563483" lon="7.841269">
        <ele>305.695159</ele>
        <time>2021-11-13T11:15:31.232Z</time>
      </trkpt>
      <trkpt lat="47.563300" lon="7.841391">
        <ele>305.900360</ele>
        <time>2021-11-13T11:15:34.792Z</time>
      </trkpt>
      <trkpt lat="47.563016" lon="7.841568">
        <ele>306.215417</ele>
        <time>2021-11-13T11:15:40.648Z</time>
      </trkpt>
      <trkpt lat="47.562965" lon="7.841597">
        <ele>306.282820</ele>
        <time>2021-11-13T11:15:41.627Z</time>
      </trkpt>
      <trkpt lat="47.562904" lon="7.841632">
        <ele>306.364835</ele>
        <time>2021-11-13T11:15:42.856Z</time>
      </trkpt>
      <trkpt lat="47.562574" lon="7.841873">
        <ele>306.826109</ele>
        <time>2021-11-13T11:15:49.822Z</time>
      </trkpt>
      <trkpt lat="47.562440" lon="7.842083">
        <ele>307.070640</ele>
        <time>2021-11-13T11:15:53.333Z</time>
      </trkpt>
      <trkpt lat="47.562385" lon="7.842183">
        <ele>307.179790</ele>
        <time>2021-11-13T11:15:54.847Z</time>
      </trkpt>
      <trkpt lat="47.562300" lon="7.842326">
        <ele>307.341023</ele>
        <time>2021-11-13T11:15:57.649Z</time>
      </trkpt>
      <trkpt lat="47.562179" lon="7.842500">
        <ele>307.552421</ele>
        <time>2021-11-13T11:16:01.263Z</time>
      </trkpt>
      <trkpt lat="47.561498" lon="7.843130">
        <ele>308.533280</ele>
        <time>2021-11-13T11:16:17.924Z</time>
      </trkpt>
      <trkpt lat="47.561434" lon="7.843181">
        <ele>308.596365</ele>
        <time>2021-11-13T11:16:19.685Z</time>
      </trkpt>
      <trkpt lat="47.561068" lon="7.843477">
        <ele>308.958345</ele>
        <time>2021-11-13T11:16:27.760Z</time>
      </trkpt>
      <trkpt lat="47.561038" lon="7.843502">
        <ele>308.988225</ele>
        <time>2021-11-13T11:16:28.548Z</time>
      </trkpt>
      <trkpt lat="47.560934" lon="7.843550">
        <ele>309.082790</ele>
        <time>2021-11-13T11:16:30.637Z</time>
      </trkpt>
      <trkpt lat="47.560812" lon="7.843560">
        <ele>309.188865</ele>
        <time>2021-11-13T11:16:32.807Z</time>
      </trkpt>
      <trkpt lat="47.560515" lon="7.843379">
        <ele>309.467657</ele>
        <time>2021-11-13T11:16:38.567Z</time>
      </trkpt>
      <trkpt lat="47.560430" lon="7.843341">
        <ele>309.544735</ele>
        <time>2021-11-13T11:16:40.308Z</time>
      </trkpt>
      <trkpt lat="47.560338" lon="7.843341">
        <ele>309.624604</ele>
        <time>2021-11-13T11:16:41.663Z</time>
      </trkpt>
      <trkpt lat="47.560209" lon="7.843393">
        <ele>309.740665</ele>
        <time>2021-11-13T11:16:44.058Z</time>
      </trkpt>
      <trkpt lat="47.560139" lon="7.843433">
        <ele>309.805797</ele>
        <time>2021-11-13T11:16:45.332Z</time>
      </trkpt>
      <trkpt lat="47.559847" lon="7.843604">
        <ele>310.030315</ele>
        <time>2021-11-13T11:16:50.528Z</time>
      </trkpt>
      <trkpt lat="47.559583" lon="7.843813">
        <ele>309.989088</ele>
        <time>2021-11-13T11:16:55.180Z</time>
      </trkpt>
      <trkpt lat="47.559158" lon="7.844233">
        <ele>309.918726</ele>
        <time>2021-11-13T11:17:02.389Z</time>
      </trkpt>
      <trkpt lat="47.559109" lon="7.844229">
        <ele>309.911966</ele>
        <time>2021-11-13T11:17:02.979Z</time>
      </trkpt>
      <trkpt lat="47.559060" lon="7.844197">
        <ele>309.904591</ele>
        <time>2021-11-13T11:17:03.611Z</time>
      </trkpt>
      <trkpt lat="47.558884" lon="7.843836">
        <ele>309.863195</ele>
        <time>2021-11-13T11:17:07.763Z</time>
      </trkpt>
      <trkpt lat="47.558555" lon="7.843392">
        <ele>309.801902</ele>
        <time>2021-11-13T11:17:13.799Z</time>
      </trkpt>
      <trkpt lat="47.558471" lon="7.843365">
        <ele>309.790063</ele>
        <time>2021-11-13T11:17:15.056Z</time>
      </trkpt>
      <trkpt lat="47.558405" lon="7.843371">
        <ele>309.800868</ele>
        <time>2021-11-13T11:17:16.225Z</time>
      </trkpt>
      <trkpt lat="47.558136" lon="7.843582">
        <ele>309.860787</ele>
        <time>2021-11-13T11:17:20.432Z</time>
      </trkpt>
      <trkpt lat="47.557967" lon="7.843683">
        <ele>309.896661</ele>
        <time>2021-11-13T11:17:23.150Z</time>
      </trkpt>
      <trkpt lat="47.557846" lon="7.843756">
        <ele>309.922381</ele>
        <time>2021-11-13T11:17:24.994Z</time>
      </trkpt>
      <trkpt lat="47.557759" lon="7.843839">
        <ele>309.942751</ele>
        <time>2021-11-13T11:17:26.771Z</time>
      </trkpt>
      <trkpt lat="47.557715" lon="7.843940">
        <ele>309.958722</ele>
        <time>2021-11-13T11:17:27.999Z</time>
      </trkpt>
      <trkpt lat="47.557560" lon="7.844433">
        <ele>310.030979</ele>
        <time>2021-11-13T11:17:33.959Z</time>
      </trkpt>
      <trkpt lat="47.557282" lon="7.844832">
        <ele>310.107171</ele>
        <time>2021-11-13T11:17:40.391Z</time>
      </trkpt>
      <trkpt lat="47.557134" lon="7.845095">
        <ele>310.181891</ele>
        <time>2021-11-13T11:17:44.166Z</time>
      </trkpt>
      <trkpt lat="47.556636" lon="7.845928">
        <ele>310.788364</ele>
        <time>2021-11-13T11:17:57.016Z</time>
      </trkpt>
      <trkpt lat="47.556060" lon="7.846859">
        <ele>311.476685</ele>
        <time>2021-11-13T11:18:13.144Z</time>
      </trkpt>
      <trkpt lat="47.555990" lon="7.846965">
        <ele>311.557509</ele>
        <time>2021-11-13T11:18:15.128Z</time>
      </trkpt>
      <trkpt lat="47.555966" lon="7.846932">
        <ele>311.583949</ele>
        <time>2021-11-13T11:18:15.716Z</time>
      </trkpt>
      <trkpt lat="47.555892" lon="7.846856">
        <ele>311.695731</ele>
        <time>2021-11-13T11:18:17.273Z</time>
      </trkpt>
      <trkpt lat="47.555855" lon="7.846815">
        <ele>311.756962</ele>
        <time>2021-11-13T11:18:18.182Z</time>
      </trkpt>
      <trkpt lat="47.555727" lon="7.846715">
        <ele>311.948736</ele>
        <time>2021-11-13T11:18:21.184Z</time>
      </trkpt>
      <trkpt lat="47.555199" lon="7.846687">
        <ele>312.648946</ele>
        <time>2021-11-13T11:18:31.152Z</time>
      </trkpt>
      <trkpt lat="47.555068" lon="7.846672">
        <ele>312.823079</ele>
        <time>2021-11-13T11:18:34.014Z</time>
      </trkpt>
      <trkpt lat="47.554995" lon="7.846915">
        <ele>313.060984</ele>
        <time>2021-11-13T11:18:37.737Z</time>
      </trkpt>
      <trkpt lat="47.554990" lon="7.846927">
        <ele>313.073598</ele>
        <time>2021-11-13T11:18:37.931Z</time>
      </trkpt>
      <trkpt lat="47.554892" lon="7.847148">
        <ele>313.310118</ele>
        <time>2021-11-13T11:18:41.708Z</time>
      </trkpt>
      <trkpt lat="47.554759" lon="7.847388">
        <ele>313.587876</ele>
        <time>2021-11-13T11:18:46.030Z</time>
      </trkpt>
      <trkpt lat="47.554618" lon="7.847626">
        <ele>313.871134</ele>
        <time>2021-11-13T11:18:50.586Z</time>
      </trkpt>
      <trkpt lat="47.554465" lon="7.847858">
        <ele>314.176005</ele>
        <time>2021-11-13T11:18:55.223Z</time>
      </trkpt>
      <trkpt lat="47.554351" lon="7.848049">
        <ele>314.422557</ele>
        <time>2021-11-13T11:18:58.683Z</time>
      </trkpt>
      <trkpt lat="47.554269" lon="7.848188">
        <ele>314.601074</ele>
        <time>2021-11-13T11:19:01.217Z</time>
      </trkpt>
      <trkpt lat="47.554209" lon="7.848300">
        <ele>314.739345</ele>
        <time>2021-11-13T11:19:03.298Z</time>
      </trkpt>
      <trkpt lat="47.554055" lon="7.848586">
        <ele>315.093130</ele>
        <time>2021-11-13T11:19:08.167Z</time>
      </trkpt>
      <trkpt lat="47.553725" lon="7.849291">
        <ele>315.922755</ele>
        <time>2021-11-13T11:19:19.532Z</time>
      </trkpt>
      <trkpt lat="47.553605" lon="7.849629">
        <ele>316.292054</ele>
        <time>2021-11-13T11:19:24.987Z</time>
      </trkpt>
      <trkpt lat="47.553537" lon="7.849904">
        <ele>316.585933</ele>
        <time>2021-11-13T11:19:29.176Z</time>
      </trkpt>
      <trkpt lat="47.553380" lon="7.850453">
        <ele>317.490520</ele>
        <time>2021-11-13T11:19:38.029Z</time>
      </trkpt>
      <trkpt lat="47.553344" lon="7.850525">
        <ele>317.626464</ele>
        <time>2021-11-13T11:19:39.296Z</time>
      </trkpt>
      <trkpt lat="47.553283" lon="7.850634">
        <ele>317.841287</ele>
        <time>2021-11-13T11:19:41.318Z</time>
      </trkpt>
      <trkpt lat="47.552876" lon="7.851300">
        <ele>319.204363</ele>
        <time>2021-11-13T11:19:55.182Z</time>
      </trkpt>
      <trkpt lat="47.552678" lon="7.851709">
        <ele>319.967997</ele>
        <time>2021-11-13T11:20:03.863Z</time>
      </trkpt>
      <trkpt lat="47.552449" lon="7.852231">
        <ele>321.054245</ele>
        <time>2021-11-13T11:20:15.163Z</time>
      </trkpt>
      <trkpt lat="47.552302" lon="7.852178">
        <ele>321.548358</ele>
        <time>2021-11-13T11:20:19.696Z</time>
      </trkpt>
      <trkpt lat="47.552272" lon="7.852167">
        <ele>321.649294</ele>
        <time>2021-11-13T11:20:20.564Z</time>
      </trkpt>
      <trkpt lat="47.552097" lon="7.852063">
        <ele>322.265107</ele>
        <time>2021-11-13T11:20:25.806Z</time>
      </trkpt>
      <trkpt lat="47.552042" lon="7.852007">
        <ele>322.483062</ele>
        <time>2021-11-13T11:20:28.177Z</time>
      </trkpt>
      <trkpt lat="47.551925" lon="7.851845">
        <ele>323.006069</ele>
        <time>2021-11-13T11:20:32.476Z</time>
      </trkpt>
      <trkpt lat="47.551830" lon="7.851603">
        <ele>323.623182</ele>
        <time>2021-11-13T11:20:38.270Z</time>
      </trkpt>
      <trkpt lat="47.551660" lon="7.851725">
        <ele>324.240103</ele>
        <time>2021-11-13T11:20:43.532Z</time>
      </trkpt>
      <trkpt lat="47.551516" lon="7.851950">
        <ele>324.923605</ele>
        <time>2021-11-13T11:20:50.045Z</time>
      </trkpt>
      <trkpt lat="47.550221" lon="7.853833">
        <ele>329.547394</ele>
        <time>2021-11-13T11:21:37.382Z</time>
      </trkpt>
      <trkpt lat="47.549883" lon="7.854434">
        <ele>330.616870</ele>
        <time>2021-11-13T11:21:47.502Z</time>
      </trkpt>
      <trkpt lat="47.549566" lon="7.855225">
        <ele>330.766971</ele>
        <time>2021-11-13T11:22:01.361Z</time>
      </trkpt>
      <trkpt lat="47.549362" lon="7.855774">
        <ele>330.869228</ele>
        <time>2021-11-13T11:22:09.850Z</time>
      </trkpt>
      <trkpt lat="47.548887" lon="7.857308">
        <ele>331.164112</ele>
        <time>2021-11-13T11:22:31.958Z</time>
      </trkpt>
      <trkpt lat="47.548743" lon="7.857692">
        <ele>331.248540</ele>
        <time>2021-11-13T11:22:37.930Z</time>
      </trkpt>
      <trkpt lat="47.548701" lon="7.857893">
        <ele>331.288980</ele>
        <time>2021-11-13T11:22:40.901Z</time>
      </trkpt>
      <trkpt lat="47.548686" lon="7.857973">
        <ele>331.304938</ele>
        <time>2021-11-13T11:22:42.024Z</time>
      </trkpt>
      <trkpt lat="47.548611" lon="7.858381">
        <ele>331.386209</ele>
        <time>2021-11-13T11:22:48.238Z</time>
      </trkpt>
      <trkpt lat="47.548334" lon="7.859801">
        <ele>332.126695</ele>
        <time>2021-11-13T11:23:11.276Z</time>
      </trkpt>
      <trkpt lat="47.548049" lon="7.860929">
        <ele>333.216084</ele>
        <time>2021-11-13T11:23:32.294Z</time>
      </trkpt>
      <trkpt lat="47.547930" lon="7.861711">
        <ele>333.941142</ele>
        <time>2021-11-13T11:23:47.058Z</time>
      </trkpt>
      <trkpt lat="47.547568" lon="7.863151">
        <ele>335.453328</ele>
        <time>2021-11-13T11:24:16.186Z</time>
      </trkpt>
      <trkpt lat="47.547320" lon="7.863864">
        <ele>336.243428</ele>
        <time>2021-11-13T11:24:30.126Z</time>
      </trkpt>
      <trkpt lat="47.546974" lon="7.864423">
        <ele>336.492126</ele>
        <time>2021-11-13T11:24:40.949Z</time>
      </trkpt>
      <trkpt lat="47.546885" lon="7.864500">
        <ele>336.458926</ele>
        <time>2021-11-13T11:24:44.034Z</time>
      </trkpt>
      <trkpt lat="47.546894" lon="7.864837">
        <ele>336.385594</ele>
        <time>2021-11-13T11:24:47.918Z</time>
      </trkpt>
      <trkpt lat="47.546889" lon="7.865225">
        <ele>336.301216</ele>
        <time>2021-11-13T11:24:53.343Z</time>
      </trkpt>
      <trkpt lat="47.546819" lon="7.865489">
        <ele>336.239544</ele>
        <time>2021-11-13T11:24:57.287Z</time>
      </trkpt>
      <trkpt lat="47.546510" lon="7.865766">
        <ele>336.123203</ele>
        <time>2021-11-13T11:25:03.921Z</time>
      </trkpt>
      <trkpt lat="47.546327" lon="7.865959">
        <ele>336.050842</ele>
        <time>2021-11-13T11:25:07.436Z</time>
      </trkpt>
      <trkpt lat="47.546096" lon="7.866147">
        <ele>335.953031</ele>
        <time>2021-11-13T11:25:11.992Z</time>
      </trkpt>
      <trkpt lat="47.545240" lon="7.866887">
        <ele>335.522116</ele>
        <time>2021-11-13T11:25:28.666Z</time>
      </trkpt>
      <trkpt lat="47.545160" lon="7.866985">
        <ele>335.476982</ele>
        <time>2021-11-13T11:25:30.622Z</time>
      </trkpt>
      <trkpt lat="47.545003" lon="7.867278">
        <ele>335.367189</ele>
        <time>2021-11-13T11:25:36.290Z</time>
      </trkpt>
      <trkpt lat="47.544568" lon="7.867693">
        <ele>335.473565</ele>
        <time>2021-11-13T11:25:49.081Z</time>
      </trkpt>
      <trkpt lat="47.544469" lon="7.867776">
        <ele>335.632630</ele>
        <time>2021-11-13T11:25:51.943Z</time>
      </trkpt>
      <trkpt lat="47.544410" lon="7.867825">
        <ele>335.727211</ele>
        <time>2021-11-13T11:25:54.031Z</time>
      </trkpt>
      <trkpt lat="47.544246" lon="7.867967">
        <ele>335.992832</ele>
        <time>2021-11-13T11:25:58.715Z</time>
      </trkpt>
      <trkpt lat="47.544214" lon="7.867988">
        <ele>336.041772</ele>
        <time>2021-11-13T11:25:59.563Z</time>
      </trkpt>
      <trkpt lat="47.543801" lon="7.868269">
        <ele>336.677276</ele>
        <time>2021-11-13T11:26:11.166Z</time>
      </trkpt>
      <trkpt lat="47.543657" lon="7.868359">
        <ele>336.895822</ele>
        <time>2021-11-13T11:26:15.515Z</time>
      </trkpt>
      <trkpt lat="47.543201" lon="7.868657">
        <ele>337.592744</ele>
        <time>2021-11-13T11:26:25.716Z</time>
      </trkpt>
      <trkpt lat="47.543105" lon="7.868711">
        <ele>337.736159</ele>
        <time>2021-11-13T11:26:28.300Z</time>
      </trkpt>
      <trkpt lat="47.543049" lon="7.868759">
        <ele>337.789974</ele>
        <time>2021-11-13T11:26:29.677Z</time>
      </trkpt>
      <trkpt lat="47.542722" lon="7.869201">
        <ele>338.158179</ele>
        <time>2021-11-13T11:26:39.509Z</time>
      </trkpt>
      <trkpt lat="47.542696" lon="7.869257">
        <ele>338.196341</ele>
        <time>2021-11-13T11:26:40.339Z</time>
      </trkpt>
      <trkpt lat="47.542657" lon="7.869354">
        <ele>338.259735</ele>
        <time>2021-11-13T11:26:41.774Z</time>
      </trkpt>
      <trkpt lat="47.542372" lon="7.869746">
        <ele>338.583223</ele>
        <time>2021-11-13T11:26:48.986Z</time>
      </trkpt>
      <trkpt lat="47.542329" lon="7.869820">
        <ele>338.638047</ele>
        <time>2021-11-13T11:26:50.204Z</time>
      </trkpt>
      <trkpt lat="47.542348" lon="7.869983">
        <ele>338.730926</ele>
        <time>2021-11-13T11:26:51.764Z</time>
      </trkpt>
      <trkpt lat="47.542317" lon="7.870012">
        <ele>338.761422</ele>
        <time>2021-11-13T11:26:52.468Z</time>
      </trkpt>
      <trkpt lat="47.542181" lon="7.870131">
        <ele>338.892806</ele>
        <time>2021-11-13T11:26:55.096Z</time>
      </trkpt>
      <trkpt lat="47.542118" lon="7.870135">
        <ele>338.945257</ele>
        <time>2021-11-13T11:26:56.125Z</time>
      </trkpt>
      <trkpt lat="47.542014" lon="7.870126">
        <ele>339.031910</ele>
        <time>2021-11-13T11:26:57.497Z</time>
      </trkpt>
      <trkpt lat="47.541910" lon="7.870106">
        <ele>339.119142</ele>
        <time>2021-11-13T11:26:59.161Z</time>
      </trkpt>
      <trkpt lat="47.541606" lon="7.870424">
        <ele>339.231997</ele>
        <time>2021-11-13T11:27:04.534Z</time>
      </trkpt>
      <trkpt lat="47.541521" lon="7.870517">
        <ele>339.231997</ele>
        <time>2021-11-13T11:27:06.046Z</time>
      </trkpt>
      <trkpt lat="47.541550" lon="7.870601">
        <ele>339.231997</ele>
        <time>2021-11-13T11:27:06.906Z</time>
      </trkpt>
      <trkpt lat="47.541576" lon="7.870664">
        <ele>339.231997</ele>
        <time>2021-11-13T11:27:07.578Z</time>
      </trkpt>
      <trkpt lat="47.541410" lon="7.870791">
        <ele>339.231997</ele>
        <time>2021-11-13T11:27:10.775Z</time>
      </trkpt>
      <trkpt lat="47.541361" lon="7.870831">
        <ele>339.231997</ele>
        <time>2021-11-13T11:27:11.585Z</time>
      </trkpt>
      <trkpt lat="47.541105" lon="7.871044">
        <ele>339.231997</ele>
        <time>2021-11-13T11:27:16.199Z</time>
      </trkpt>
    </trkseg>
  </trk>
</gpx>